<?xml version="1.0" encoding="UTF-8" standalone="no" ?>
<gpx xmlns="http://www.topografix.com/GPX/1/1" xmlns:xsi="http://www.w3.org/2001/XMLSchema-instance" xsi:schemaLocation="http://www.topografix.com/GPX/1/1 http://www.topografix.com/GPX/1/1/gpx.xsd" version="1.1" creator="VisuGPX - https://www.visugpx.com">
  <metadata>
    <name>sortie du soir</name>
    <desc><![CDATA[Sortie rapide avant le coucher du soleil, beau point de vue sur la seine]]></desc>
  </metadata>
  <trk>
    <name><![CDATA[2018-05-03 21:45:36]]></name>
    <trkseg>
      <trkpt lat="49.43942" lon="1.03756">
        <ele>3.98</ele>
        <time>2018-05-03T18:02:17Z</time>
      </trkpt>
      <trkpt lat="49.43995" lon="1.03797">
        <ele>6.39</ele>
        <time>2018-05-03T18:02:30Z</time>
      </trkpt>
      <trkpt lat="49.4404" lon="1.03828">
        <ele>9.27</ele>
        <time>2018-05-03T18:02:42Z</time>
      </trkpt>
      <trkpt lat="49.44099" lon="1.03867">
        <ele>12.63</ele>
        <time>2018-05-03T18:02:59Z</time>
      </trkpt>
      <trkpt lat="49.44132" lon="1.03912">
        <ele>16</ele>
        <time>2018-05-03T18:03:12Z</time>
      </trkpt>
      <trkpt lat="49.44163" lon="1.03923">
        <ele>18.4</ele>
        <time>2018-05-03T18:03:23Z</time>
      </trkpt>
      <trkpt lat="49.44155" lon="1.03885">
        <ele>20.32</ele>
        <time>2018-05-03T18:03:31Z</time>
      </trkpt>
      <trkpt lat="49.44129" lon="1.03825">
        <ele>23.69</ele>
        <time>2018-05-03T18:03:45Z</time>
      </trkpt>
      <trkpt lat="49.44124" lon="1.03772">
        <ele>27.05</ele>
        <time>2018-05-03T18:03:56Z</time>
      </trkpt>
      <trkpt lat="49.441" lon="1.03716">
        <ele>30.42</ele>
        <time>2018-05-03T18:04:11Z</time>
      </trkpt>
      <trkpt lat="49.44064" lon="1.03681">
        <ele>33.78</ele>
        <time>2018-05-03T18:04:26Z</time>
      </trkpt>
      <trkpt lat="49.4404" lon="1.03636">
        <ele>36.67</ele>
        <time>2018-05-03T18:04:39Z</time>
      </trkpt>
      <trkpt lat="49.44022" lon="1.03584">
        <ele>40.03</ele>
        <time>2018-05-03T18:04:53Z</time>
      </trkpt>
      <trkpt lat="49.44022" lon="1.03526">
        <ele>43.4</ele>
        <time>2018-05-03T18:05:07Z</time>
      </trkpt>
      <trkpt lat="49.44038" lon="1.03465">
        <ele>46.28</ele>
        <time>2018-05-03T18:05:22Z</time>
      </trkpt>
      <trkpt lat="49.44053" lon="1.03416">
        <ele>49.65</ele>
        <time>2018-05-03T18:05:35Z</time>
      </trkpt>
      <trkpt lat="49.44068" lon="1.03362">
        <ele>52.53</ele>
        <time>2018-05-03T18:05:49Z</time>
      </trkpt>
      <trkpt lat="49.4408" lon="1.03312">
        <ele>55.89</ele>
        <time>2018-05-03T18:06:02Z</time>
      </trkpt>
      <trkpt lat="49.44086" lon="1.03261">
        <ele>57.82</ele>
        <time>2018-05-03T18:06:14Z</time>
      </trkpt>
      <trkpt lat="49.44101" lon="1.03217">
        <ele>60.7</ele>
        <time>2018-05-03T18:06:25Z</time>
      </trkpt>
      <trkpt lat="49.4412" lon="1.03172">
        <ele>64.07</ele>
        <time>2018-05-03T18:06:38Z</time>
      </trkpt>
      <trkpt lat="49.44119" lon="1.03123">
        <ele>66.47</ele>
        <time>2018-05-03T18:06:50Z</time>
      </trkpt>
      <trkpt lat="49.44089" lon="1.03084">
        <ele>69.35</ele>
        <time>2018-05-03T18:07:04Z</time>
      </trkpt>
      <trkpt lat="49.44065" lon="1.03047">
        <ele>72.72</ele>
        <time>2018-05-03T18:07:16Z</time>
      </trkpt>
      <trkpt lat="49.44032" lon="1.0301">
        <ele>75.12</ele>
        <time>2018-05-03T18:07:30Z</time>
      </trkpt>
      <trkpt lat="49.44005" lon="1.0298">
        <ele>78</ele>
        <time>2018-05-03T18:07:43Z</time>
      </trkpt>
      <trkpt lat="49.44006" lon="1.02976">
        <ele>78</ele>
        <time>2018-05-03T18:07:44Z</time>
      </trkpt>
      <trkpt lat="49.44008" lon="1.02973">
        <ele>78</ele>
        <time>2018-05-03T18:07:45Z</time>
      </trkpt>
      <trkpt lat="49.44011" lon="1.0297">
        <ele>78</ele>
        <time>2018-05-03T18:07:46Z</time>
      </trkpt>
      <trkpt lat="49.44013" lon="1.02969">
        <ele>78</ele>
        <time>2018-05-03T18:07:47Z</time>
      </trkpt>
      <trkpt lat="49.44016" lon="1.02969">
        <ele>78.48</ele>
        <time>2018-05-03T18:07:48Z</time>
      </trkpt>
      <trkpt lat="49.44019" lon="1.02969">
        <ele>78.48</ele>
        <time>2018-05-03T18:07:49Z</time>
      </trkpt>
      <trkpt lat="49.44022" lon="1.02971">
        <ele>78.97</ele>
        <time>2018-05-03T18:07:50Z</time>
      </trkpt>
      <trkpt lat="49.44025" lon="1.02972">
        <ele>78.97</ele>
        <time>2018-05-03T18:07:51Z</time>
      </trkpt>
      <trkpt lat="49.44028" lon="1.02975">
        <ele>79.45</ele>
        <time>2018-05-03T18:07:52Z</time>
      </trkpt>
      <trkpt lat="49.44064" lon="1.03005">
        <ele>83.29</ele>
        <time>2018-05-03T18:08:07Z</time>
      </trkpt>
      <trkpt lat="49.44098" lon="1.03025">
        <ele>86.18</ele>
        <time>2018-05-03T18:08:21Z</time>
      </trkpt>
      <trkpt lat="49.44133" lon="1.03033">
        <ele>89.06</ele>
        <time>2018-05-03T18:08:35Z</time>
      </trkpt>
      <trkpt lat="49.44169" lon="1.03029">
        <ele>91.46</ele>
        <time>2018-05-03T18:08:49Z</time>
      </trkpt>
      <trkpt lat="49.44199" lon="1.03059">
        <ele>93.39</ele>
        <time>2018-05-03T18:09:00Z</time>
      </trkpt>
      <trkpt lat="49.44223" lon="1.03122">
        <ele>96.75</ele>
        <time>2018-05-03T18:09:17Z</time>
      </trkpt>
      <trkpt lat="49.44231" lon="1.03169">
        <ele>99.15</ele>
        <time>2018-05-03T18:09:30Z</time>
      </trkpt>
      <trkpt lat="49.44215" lon="1.03217">
        <ele>101.56</ele>
        <time>2018-05-03T18:09:42Z</time>
      </trkpt>
      <trkpt lat="49.44189" lon="1.03262">
        <ele>104.92</ele>
        <time>2018-05-03T18:09:56Z</time>
      </trkpt>
      <trkpt lat="49.44187" lon="1.03311">
        <ele>106.84</ele>
        <time>2018-05-03T18:10:09Z</time>
      </trkpt>
      <trkpt lat="49.44221" lon="1.03319">
        <ele>109.73</ele>
        <time>2018-05-03T18:10:22Z</time>
      </trkpt>
      <trkpt lat="49.44252" lon="1.03269">
        <ele>113.09</ele>
        <time>2018-05-03T18:10:39Z</time>
      </trkpt>
      <trkpt lat="49.44277" lon="1.03214">
        <ele>116.46</ele>
        <time>2018-05-03T18:10:55Z</time>
      </trkpt>
      <trkpt lat="49.44288" lon="1.03149">
        <ele>118.86</ele>
        <time>2018-05-03T18:11:11Z</time>
      </trkpt>
      <trkpt lat="49.4431" lon="1.03093">
        <ele>121.26</ele>
        <time>2018-05-03T18:11:27Z</time>
      </trkpt>
      <trkpt lat="49.4431" lon="1.03091">
        <ele>121.26</ele>
        <time>2018-05-03T18:11:28Z</time>
      </trkpt>
      <trkpt lat="49.44311" lon="1.03089">
        <ele>121.26</ele>
        <time>2018-05-03T18:11:29Z</time>
      </trkpt>
      <trkpt lat="49.44311" lon="1.03086">
        <ele>121.74</ele>
        <time>2018-05-03T18:11:30Z</time>
      </trkpt>
      <trkpt lat="49.4431" lon="1.03083">
        <ele>121.74</ele>
        <time>2018-05-03T18:11:31Z</time>
      </trkpt>
      <trkpt lat="49.44308" lon="1.0308">
        <ele>121.74</ele>
        <time>2018-05-03T18:11:32Z</time>
      </trkpt>
      <trkpt lat="49.44305" lon="1.03074">
        <ele>121.74</ele>
        <time>2018-05-03T18:11:33Z</time>
      </trkpt>
      <trkpt lat="49.44302" lon="1.03067">
        <ele>121.74</ele>
        <time>2018-05-03T18:11:34Z</time>
      </trkpt>
      <trkpt lat="49.44299" lon="1.0306">
        <ele>121.74</ele>
        <time>2018-05-03T18:11:35Z</time>
      </trkpt>
      <trkpt lat="49.44295" lon="1.03052">
        <ele>121.74</ele>
        <time>2018-05-03T18:11:36Z</time>
      </trkpt>
      <trkpt lat="49.44291" lon="1.03044">
        <ele>121.74</ele>
        <time>2018-05-03T18:11:37Z</time>
      </trkpt>
      <trkpt lat="49.44287" lon="1.03036">
        <ele>121.74</ele>
        <time>2018-05-03T18:11:38Z</time>
      </trkpt>
      <trkpt lat="49.44283" lon="1.03027">
        <ele>121.74</ele>
        <time>2018-05-03T18:11:39Z</time>
      </trkpt>
      <trkpt lat="49.44281" lon="1.03017">
        <ele>121.74</ele>
        <time>2018-05-03T18:11:40Z</time>
      </trkpt>
      <trkpt lat="49.44279" lon="1.03006">
        <ele>121.74</ele>
        <time>2018-05-03T18:11:41Z</time>
      </trkpt>
      <trkpt lat="49.44279" lon="1.02995">
        <ele>121.74</ele>
        <time>2018-05-03T18:11:42Z</time>
      </trkpt>
      <trkpt lat="49.44281" lon="1.02985">
        <ele>121.74</ele>
        <time>2018-05-03T18:11:43Z</time>
      </trkpt>
      <trkpt lat="49.44284" lon="1.02975">
        <ele>121.74</ele>
        <time>2018-05-03T18:11:44Z</time>
      </trkpt>
      <trkpt lat="49.44287" lon="1.02967">
        <ele>121.74</ele>
        <time>2018-05-03T18:11:45Z</time>
      </trkpt>
      <trkpt lat="49.4429" lon="1.02959">
        <ele>121.74</ele>
        <time>2018-05-03T18:11:46Z</time>
      </trkpt>
      <trkpt lat="49.44296" lon="1.02942">
        <ele>121.74</ele>
        <time>2018-05-03T18:11:48Z</time>
      </trkpt>
      <trkpt lat="49.44297" lon="1.02933">
        <ele>121.74</ele>
        <time>2018-05-03T18:11:49Z</time>
      </trkpt>
      <trkpt lat="49.44304" lon="1.0288">
        <ele>121.74</ele>
        <time>2018-05-03T18:11:55Z</time>
      </trkpt>
      <trkpt lat="49.44307" lon="1.02874">
        <ele>121.74</ele>
        <time>2018-05-03T18:11:56Z</time>
      </trkpt>
      <trkpt lat="49.4431" lon="1.0287">
        <ele>121.74</ele>
        <time>2018-05-03T18:11:57Z</time>
      </trkpt>
      <trkpt lat="49.44319" lon="1.02861">
        <ele>121.74</ele>
        <time>2018-05-03T18:11:59Z</time>
      </trkpt>
      <trkpt lat="49.44323" lon="1.02856">
        <ele>121.74</ele>
        <time>2018-05-03T18:12:00Z</time>
      </trkpt>
      <trkpt lat="49.4435" lon="1.02804">
        <ele>122.22</ele>
        <time>2018-05-03T18:12:08Z</time>
      </trkpt>
      <trkpt lat="49.4441" lon="1.0271">
        <ele>122.71</ele>
        <time>2018-05-03T18:12:24Z</time>
      </trkpt>
      <trkpt lat="49.44434" lon="1.02689">
        <ele>122.71</ele>
        <time>2018-05-03T18:12:29Z</time>
      </trkpt>
      <trkpt lat="49.44439" lon="1.02685">
        <ele>122.71</ele>
        <time>2018-05-03T18:12:30Z</time>
      </trkpt>
      <trkpt lat="49.4446" lon="1.0267">
        <ele>122.71</ele>
        <time>2018-05-03T18:12:34Z</time>
      </trkpt>
      <trkpt lat="49.44465" lon="1.02667">
        <ele>122.71</ele>
        <time>2018-05-03T18:12:35Z</time>
      </trkpt>
      <trkpt lat="49.44496" lon="1.02649">
        <ele>122.71</ele>
        <time>2018-05-03T18:12:41Z</time>
      </trkpt>
      <trkpt lat="49.44501" lon="1.02644">
        <ele>122.71</ele>
        <time>2018-05-03T18:12:42Z</time>
      </trkpt>
      <trkpt lat="49.44519" lon="1.02621">
        <ele>120.78</ele>
        <time>2018-05-03T18:12:46Z</time>
      </trkpt>
      <trkpt lat="49.44527" lon="1.02606">
        <ele>120.3</ele>
        <time>2018-05-03T18:12:48Z</time>
      </trkpt>
      <trkpt lat="49.44531" lon="1.02598">
        <ele>120.3</ele>
        <time>2018-05-03T18:12:49Z</time>
      </trkpt>
      <trkpt lat="49.44561" lon="1.02539">
        <ele>119.34</ele>
        <time>2018-05-03T18:12:56Z</time>
      </trkpt>
      <trkpt lat="49.44566" lon="1.02532">
        <ele>119.34</ele>
        <time>2018-05-03T18:12:57Z</time>
      </trkpt>
      <trkpt lat="49.44571" lon="1.02526">
        <ele>119.34</ele>
        <time>2018-05-03T18:12:58Z</time>
      </trkpt>
      <trkpt lat="49.44577" lon="1.02521">
        <ele>119.34</ele>
        <time>2018-05-03T18:12:59Z</time>
      </trkpt>
      <trkpt lat="49.44583" lon="1.02516">
        <ele>118.86</ele>
        <time>2018-05-03T18:13:00Z</time>
      </trkpt>
      <trkpt lat="49.44634" lon="1.0247">
        <ele>117.42</ele>
        <time>2018-05-03T18:13:09Z</time>
      </trkpt>
      <trkpt lat="49.44674" lon="1.02433">
        <ele>115.98</ele>
        <time>2018-05-03T18:13:16Z</time>
      </trkpt>
      <trkpt lat="49.4468" lon="1.0243">
        <ele>115.5</ele>
        <time>2018-05-03T18:13:17Z</time>
      </trkpt>
      <trkpt lat="49.44684" lon="1.02428">
        <ele>115.5</ele>
        <time>2018-05-03T18:13:18Z</time>
      </trkpt>
      <trkpt lat="49.44687" lon="1.02427">
        <ele>115.5</ele>
        <time>2018-05-03T18:13:19Z</time>
      </trkpt>
      <trkpt lat="49.44689" lon="1.02423">
        <ele>115.5</ele>
        <time>2018-05-03T18:13:20Z</time>
      </trkpt>
      <trkpt lat="49.44691" lon="1.02419">
        <ele>115.5</ele>
        <time>2018-05-03T18:13:21Z</time>
      </trkpt>
      <trkpt lat="49.44693" lon="1.02414">
        <ele>115.01</ele>
        <time>2018-05-03T18:13:22Z</time>
      </trkpt>
      <trkpt lat="49.44693" lon="1.02408">
        <ele>115.01</ele>
        <time>2018-05-03T18:13:23Z</time>
      </trkpt>
      <trkpt lat="49.44694" lon="1.024">
        <ele>115.01</ele>
        <time>2018-05-03T18:13:24Z</time>
      </trkpt>
      <trkpt lat="49.44695" lon="1.02391">
        <ele>115.01</ele>
        <time>2018-05-03T18:13:25Z</time>
      </trkpt>
      <trkpt lat="49.447" lon="1.02304">
        <ele>114.05</ele>
        <time>2018-05-03T18:13:34Z</time>
      </trkpt>
      <trkpt lat="49.44699" lon="1.02294">
        <ele>114.05</ele>
        <time>2018-05-03T18:13:35Z</time>
      </trkpt>
      <trkpt lat="49.44698" lon="1.02275">
        <ele>114.05</ele>
        <time>2018-05-03T18:13:37Z</time>
      </trkpt>
      <trkpt lat="49.44698" lon="1.02266">
        <ele>114.05</ele>
        <time>2018-05-03T18:13:38Z</time>
      </trkpt>
      <trkpt lat="49.447" lon="1.02256">
        <ele>114.05</ele>
        <time>2018-05-03T18:13:39Z</time>
      </trkpt>
      <trkpt lat="49.44705" lon="1.02222">
        <ele>114.05</ele>
        <time>2018-05-03T18:13:43Z</time>
      </trkpt>
      <trkpt lat="49.44708" lon="1.02178">
        <ele>115.5</ele>
        <time>2018-05-03T18:13:48Z</time>
      </trkpt>
      <trkpt lat="49.44709" lon="1.0217">
        <ele>115.5</ele>
        <time>2018-05-03T18:13:49Z</time>
      </trkpt>
      <trkpt lat="49.4472" lon="1.0212">
        <ele>115.98</ele>
        <time>2018-05-03T18:13:55Z</time>
      </trkpt>
      <trkpt lat="49.44722" lon="1.02114">
        <ele>115.98</ele>
        <time>2018-05-03T18:13:56Z</time>
      </trkpt>
      <trkpt lat="49.44724" lon="1.02108">
        <ele>116.46</ele>
        <time>2018-05-03T18:13:57Z</time>
      </trkpt>
      <trkpt lat="49.44723" lon="1.02104">
        <ele>116.46</ele>
        <time>2018-05-03T18:13:58Z</time>
      </trkpt>
      <trkpt lat="49.44722" lon="1.021">
        <ele>116.46</ele>
        <time>2018-05-03T18:13:59Z</time>
      </trkpt>
      <trkpt lat="49.4472" lon="1.02096">
        <ele>116.46</ele>
        <time>2018-05-03T18:14:00Z</time>
      </trkpt>
      <trkpt lat="49.44718" lon="1.02094">
        <ele>116.46</ele>
        <time>2018-05-03T18:14:01Z</time>
      </trkpt>
      <trkpt lat="49.44715" lon="1.02091">
        <ele>116.46</ele>
        <time>2018-05-03T18:14:02Z</time>
      </trkpt>
      <trkpt lat="49.44713" lon="1.02089">
        <ele>116.46</ele>
        <time>2018-05-03T18:14:03Z</time>
      </trkpt>
      <trkpt lat="49.4471" lon="1.02086">
        <ele>116.46</ele>
        <time>2018-05-03T18:14:04Z</time>
      </trkpt>
      <trkpt lat="49.44707" lon="1.02082">
        <ele>116.46</ele>
        <time>2018-05-03T18:14:05Z</time>
      </trkpt>
      <trkpt lat="49.44694" lon="1.02067">
        <ele>116.46</ele>
        <time>2018-05-03T18:14:09Z</time>
      </trkpt>
      <trkpt lat="49.44684" lon="1.02028">
        <ele>116.46</ele>
        <time>2018-05-03T18:14:18Z</time>
      </trkpt>
      <trkpt lat="49.44683" lon="1.0201">
        <ele>116.46</ele>
        <time>2018-05-03T18:14:21Z</time>
      </trkpt>
      <trkpt lat="49.44663" lon="1.01958">
        <ele>115.01</ele>
        <time>2018-05-03T18:14:30Z</time>
      </trkpt>
      <trkpt lat="49.44659" lon="1.0194">
        <ele>114.53</ele>
        <time>2018-05-03T18:14:33Z</time>
      </trkpt>
      <trkpt lat="49.44656" lon="1.01922">
        <ele>114.53</ele>
        <time>2018-05-03T18:14:35Z</time>
      </trkpt>
      <trkpt lat="49.44647" lon="1.01877">
        <ele>113.57</ele>
        <time>2018-05-03T18:14:41Z</time>
      </trkpt>
      <trkpt lat="49.44643" lon="1.01865">
        <ele>113.09</ele>
        <time>2018-05-03T18:14:43Z</time>
      </trkpt>
      <trkpt lat="49.44633" lon="1.0184">
        <ele>112.61</ele>
        <time>2018-05-03T18:14:46Z</time>
      </trkpt>
      <trkpt lat="49.4463" lon="1.01831">
        <ele>112.13</ele>
        <time>2018-05-03T18:14:47Z</time>
      </trkpt>
      <trkpt lat="49.44628" lon="1.01822">
        <ele>111.65</ele>
        <time>2018-05-03T18:14:48Z</time>
      </trkpt>
      <trkpt lat="49.44626" lon="1.01812">
        <ele>111.65</ele>
        <time>2018-05-03T18:14:49Z</time>
      </trkpt>
      <trkpt lat="49.4462" lon="1.01784">
        <ele>110.69</ele>
        <time>2018-05-03T18:14:52Z</time>
      </trkpt>
      <trkpt lat="49.44616" lon="1.01735">
        <ele>109.25</ele>
        <time>2018-05-03T18:14:57Z</time>
      </trkpt>
      <trkpt lat="49.44613" lon="1.01727">
        <ele>108.77</ele>
        <time>2018-05-03T18:14:58Z</time>
      </trkpt>
      <trkpt lat="49.44609" lon="1.01721">
        <ele>108.77</ele>
        <time>2018-05-03T18:14:59Z</time>
      </trkpt>
      <trkpt lat="49.44606" lon="1.01711">
        <ele>108.29</ele>
        <time>2018-05-03T18:15:00Z</time>
      </trkpt>
      <trkpt lat="49.44603" lon="1.01702">
        <ele>108.29</ele>
        <time>2018-05-03T18:15:01Z</time>
      </trkpt>
      <trkpt lat="49.446" lon="1.01692">
        <ele>108.29</ele>
        <time>2018-05-03T18:15:02Z</time>
      </trkpt>
      <trkpt lat="49.44597" lon="1.01681">
        <ele>107.32</ele>
        <time>2018-05-03T18:15:03Z</time>
      </trkpt>
      <trkpt lat="49.44583" lon="1.01612">
        <ele>105.88</ele>
        <time>2018-05-03T18:15:09Z</time>
      </trkpt>
      <trkpt lat="49.4458" lon="1.01602">
        <ele>104.92</ele>
        <time>2018-05-03T18:15:10Z</time>
      </trkpt>
      <trkpt lat="49.44576" lon="1.01592">
        <ele>104.44</ele>
        <time>2018-05-03T18:15:11Z</time>
      </trkpt>
      <trkpt lat="49.44569" lon="1.01571">
        <ele>103.48</ele>
        <time>2018-05-03T18:15:13Z</time>
      </trkpt>
      <trkpt lat="49.44566" lon="1.01559">
        <ele>103</ele>
        <time>2018-05-03T18:15:14Z</time>
      </trkpt>
      <trkpt lat="49.44563" lon="1.01547">
        <ele>102.52</ele>
        <time>2018-05-03T18:15:15Z</time>
      </trkpt>
      <trkpt lat="49.44561" lon="1.01538">
        <ele>102.52</ele>
        <time>2018-05-03T18:15:16Z</time>
      </trkpt>
      <trkpt lat="49.4456" lon="1.01527">
        <ele>102.04</ele>
        <time>2018-05-03T18:15:17Z</time>
      </trkpt>
      <trkpt lat="49.44558" lon="1.01508">
        <ele>101.56</ele>
        <time>2018-05-03T18:15:19Z</time>
      </trkpt>
      <trkpt lat="49.44555" lon="1.01499">
        <ele>100.11</ele>
        <time>2018-05-03T18:15:20Z</time>
      </trkpt>
      <trkpt lat="49.44553" lon="1.0149">
        <ele>100.6</ele>
        <time>2018-05-03T18:15:21Z</time>
      </trkpt>
      <trkpt lat="49.44553" lon="1.01471">
        <ele>99.63</ele>
        <time>2018-05-03T18:15:23Z</time>
      </trkpt>
      <trkpt lat="49.4455" lon="1.01453">
        <ele>99.63</ele>
        <time>2018-05-03T18:15:25Z</time>
      </trkpt>
      <trkpt lat="49.44548" lon="1.01443">
        <ele>99.63</ele>
        <time>2018-05-03T18:15:26Z</time>
      </trkpt>
      <trkpt lat="49.44542" lon="1.01413">
        <ele>97.23</ele>
        <time>2018-05-03T18:15:29Z</time>
      </trkpt>
      <trkpt lat="49.44542" lon="1.01404">
        <ele>96.75</ele>
        <time>2018-05-03T18:15:30Z</time>
      </trkpt>
      <trkpt lat="49.44541" lon="1.01387">
        <ele>96.75</ele>
        <time>2018-05-03T18:15:32Z</time>
      </trkpt>
      <trkpt lat="49.44541" lon="1.01358">
        <ele>96.27</ele>
        <time>2018-05-03T18:15:35Z</time>
      </trkpt>
      <trkpt lat="49.44541" lon="1.01342">
        <ele>96.27</ele>
        <time>2018-05-03T18:15:37Z</time>
      </trkpt>
      <trkpt lat="49.44539" lon="1.01334">
        <ele>96.27</ele>
        <time>2018-05-03T18:15:38Z</time>
      </trkpt>
      <trkpt lat="49.44536" lon="1.01326">
        <ele>95.79</ele>
        <time>2018-05-03T18:15:39Z</time>
      </trkpt>
      <trkpt lat="49.44534" lon="1.01319">
        <ele>95.31</ele>
        <time>2018-05-03T18:15:40Z</time>
      </trkpt>
      <trkpt lat="49.44532" lon="1.0131">
        <ele>95.31</ele>
        <time>2018-05-03T18:15:41Z</time>
      </trkpt>
      <trkpt lat="49.4453" lon="1.01301">
        <ele>95.31</ele>
        <time>2018-05-03T18:15:42Z</time>
      </trkpt>
      <trkpt lat="49.44529" lon="1.01292">
        <ele>94.83</ele>
        <time>2018-05-03T18:15:43Z</time>
      </trkpt>
      <trkpt lat="49.44529" lon="1.01283">
        <ele>94.83</ele>
        <time>2018-05-03T18:15:44Z</time>
      </trkpt>
      <trkpt lat="49.44529" lon="1.01273">
        <ele>94.83</ele>
        <time>2018-05-03T18:15:45Z</time>
      </trkpt>
      <trkpt lat="49.4453" lon="1.01262">
        <ele>94.83</ele>
        <time>2018-05-03T18:15:46Z</time>
      </trkpt>
      <trkpt lat="49.44532" lon="1.01236">
        <ele>94.83</ele>
        <time>2018-05-03T18:15:49Z</time>
      </trkpt>
      <trkpt lat="49.44532" lon="1.01216">
        <ele>93.87</ele>
        <time>2018-05-03T18:15:51Z</time>
      </trkpt>
      <trkpt lat="49.44532" lon="1.01175">
        <ele>92.9</ele>
        <time>2018-05-03T18:15:55Z</time>
      </trkpt>
      <trkpt lat="49.44533" lon="1.01167">
        <ele>92.9</ele>
        <time>2018-05-03T18:15:56Z</time>
      </trkpt>
      <trkpt lat="49.44532" lon="1.01161">
        <ele>92.9</ele>
        <time>2018-05-03T18:15:57Z</time>
      </trkpt>
      <trkpt lat="49.44531" lon="1.01154">
        <ele>92.9</ele>
        <time>2018-05-03T18:15:58Z</time>
      </trkpt>
      <trkpt lat="49.44531" lon="1.01145">
        <ele>92.9</ele>
        <time>2018-05-03T18:15:59Z</time>
      </trkpt>
      <trkpt lat="49.44531" lon="1.01137">
        <ele>92.9</ele>
        <time>2018-05-03T18:16:00Z</time>
      </trkpt>
      <trkpt lat="49.44532" lon="1.01128">
        <ele>92.9</ele>
        <time>2018-05-03T18:16:01Z</time>
      </trkpt>
      <trkpt lat="49.44532" lon="1.0112">
        <ele>92.9</ele>
        <time>2018-05-03T18:16:02Z</time>
      </trkpt>
      <trkpt lat="49.44531" lon="1.0111">
        <ele>92.9</ele>
        <time>2018-05-03T18:16:03Z</time>
      </trkpt>
      <trkpt lat="49.44531" lon="1.01101">
        <ele>92.42</ele>
        <time>2018-05-03T18:16:04Z</time>
      </trkpt>
      <trkpt lat="49.4453" lon="1.01091">
        <ele>92.9</ele>
        <time>2018-05-03T18:16:05Z</time>
      </trkpt>
      <trkpt lat="49.4453" lon="1.0108">
        <ele>92.9</ele>
        <time>2018-05-03T18:16:06Z</time>
      </trkpt>
      <trkpt lat="49.4453" lon="1.01069">
        <ele>92.9</ele>
        <time>2018-05-03T18:16:07Z</time>
      </trkpt>
      <trkpt lat="49.4453" lon="1.01059">
        <ele>92.9</ele>
        <time>2018-05-03T18:16:08Z</time>
      </trkpt>
      <trkpt lat="49.44529" lon="1.01048">
        <ele>92.9</ele>
        <time>2018-05-03T18:16:09Z</time>
      </trkpt>
      <trkpt lat="49.4453" lon="1.01038">
        <ele>92.9</ele>
        <time>2018-05-03T18:16:10Z</time>
      </trkpt>
      <trkpt lat="49.44529" lon="1.01019">
        <ele>92.9</ele>
        <time>2018-05-03T18:16:12Z</time>
      </trkpt>
      <trkpt lat="49.44528" lon="1.00999">
        <ele>92.9</ele>
        <time>2018-05-03T18:16:14Z</time>
      </trkpt>
      <trkpt lat="49.44527" lon="1.00989">
        <ele>92.9</ele>
        <time>2018-05-03T18:16:15Z</time>
      </trkpt>
      <trkpt lat="49.44528" lon="1.0098">
        <ele>92.9</ele>
        <time>2018-05-03T18:16:16Z</time>
      </trkpt>
      <trkpt lat="49.44529" lon="1.00963">
        <ele>92.9</ele>
        <time>2018-05-03T18:16:19Z</time>
      </trkpt>
      <trkpt lat="49.44527" lon="1.00959">
        <ele>92.42</ele>
        <time>2018-05-03T18:16:20Z</time>
      </trkpt>
      <trkpt lat="49.44525" lon="1.00954">
        <ele>92.42</ele>
        <time>2018-05-03T18:16:21Z</time>
      </trkpt>
      <trkpt lat="49.44525" lon="1.00949">
        <ele>92.42</ele>
        <time>2018-05-03T18:16:22Z</time>
      </trkpt>
      <trkpt lat="49.44526" lon="1.00943">
        <ele>92.42</ele>
        <time>2018-05-03T18:16:23Z</time>
      </trkpt>
      <trkpt lat="49.44527" lon="1.00935">
        <ele>92.42</ele>
        <time>2018-05-03T18:16:24Z</time>
      </trkpt>
      <trkpt lat="49.44527" lon="1.00926">
        <ele>92.42</ele>
        <time>2018-05-03T18:16:25Z</time>
      </trkpt>
      <trkpt lat="49.4453" lon="1.00894">
        <ele>92.42</ele>
        <time>2018-05-03T18:16:29Z</time>
      </trkpt>
      <trkpt lat="49.4453" lon="1.00886">
        <ele>91.94</ele>
        <time>2018-05-03T18:16:30Z</time>
      </trkpt>
      <trkpt lat="49.44532" lon="1.00872">
        <ele>91.94</ele>
        <time>2018-05-03T18:16:32Z</time>
      </trkpt>
      <trkpt lat="49.44532" lon="1.00864">
        <ele>91.94</ele>
        <time>2018-05-03T18:16:33Z</time>
      </trkpt>
      <trkpt lat="49.44532" lon="1.00833">
        <ele>91.46</ele>
        <time>2018-05-03T18:16:37Z</time>
      </trkpt>
      <trkpt lat="49.44534" lon="1.00826">
        <ele>91.46</ele>
        <time>2018-05-03T18:16:38Z</time>
      </trkpt>
      <trkpt lat="49.44536" lon="1.00803">
        <ele>91.46</ele>
        <time>2018-05-03T18:16:41Z</time>
      </trkpt>
      <trkpt lat="49.44535" lon="1.00786">
        <ele>90.98</ele>
        <time>2018-05-03T18:16:43Z</time>
      </trkpt>
      <trkpt lat="49.44534" lon="1.00778">
        <ele>90.98</ele>
        <time>2018-05-03T18:16:44Z</time>
      </trkpt>
      <trkpt lat="49.4453" lon="1.00753">
        <ele>90.98</ele>
        <time>2018-05-03T18:16:47Z</time>
      </trkpt>
      <trkpt lat="49.44531" lon="1.00746">
        <ele>90.98</ele>
        <time>2018-05-03T18:16:48Z</time>
      </trkpt>
      <trkpt lat="49.44532" lon="1.00738">
        <ele>90.98</ele>
        <time>2018-05-03T18:16:49Z</time>
      </trkpt>
      <trkpt lat="49.44532" lon="1.0073">
        <ele>90.98</ele>
        <time>2018-05-03T18:16:50Z</time>
      </trkpt>
      <trkpt lat="49.44533" lon="1.00722">
        <ele>90.98</ele>
        <time>2018-05-03T18:16:51Z</time>
      </trkpt>
      <trkpt lat="49.44534" lon="1.00706">
        <ele>90.5</ele>
        <time>2018-05-03T18:16:53Z</time>
      </trkpt>
      <trkpt lat="49.44533" lon="1.00697">
        <ele>90.5</ele>
        <time>2018-05-03T18:16:54Z</time>
      </trkpt>
      <trkpt lat="49.44531" lon="1.0068">
        <ele>90.02</ele>
        <time>2018-05-03T18:16:56Z</time>
      </trkpt>
      <trkpt lat="49.4453" lon="1.00672">
        <ele>90.02</ele>
        <time>2018-05-03T18:16:57Z</time>
      </trkpt>
      <trkpt lat="49.44529" lon="1.00664">
        <ele>90.02</ele>
        <time>2018-05-03T18:16:58Z</time>
      </trkpt>
      <trkpt lat="49.4453" lon="1.00657">
        <ele>90.02</ele>
        <time>2018-05-03T18:16:59Z</time>
      </trkpt>
      <trkpt lat="49.4453" lon="1.0065">
        <ele>90.02</ele>
        <time>2018-05-03T18:17:00Z</time>
      </trkpt>
      <trkpt lat="49.44531" lon="1.00643">
        <ele>90.02</ele>
        <time>2018-05-03T18:17:01Z</time>
      </trkpt>
      <trkpt lat="49.44532" lon="1.00637">
        <ele>89.54</ele>
        <time>2018-05-03T18:17:02Z</time>
      </trkpt>
      <trkpt lat="49.44532" lon="1.00629">
        <ele>89.54</ele>
        <time>2018-05-03T18:17:03Z</time>
      </trkpt>
      <trkpt lat="49.44534" lon="1.00615">
        <ele>89.54</ele>
        <time>2018-05-03T18:17:05Z</time>
      </trkpt>
      <trkpt lat="49.44535" lon="1.00609">
        <ele>89.54</ele>
        <time>2018-05-03T18:17:06Z</time>
      </trkpt>
      <trkpt lat="49.44535" lon="1.00603">
        <ele>89.54</ele>
        <time>2018-05-03T18:17:07Z</time>
      </trkpt>
      <trkpt lat="49.44534" lon="1.00597">
        <ele>89.54</ele>
        <time>2018-05-03T18:17:08Z</time>
      </trkpt>
      <trkpt lat="49.44534" lon="1.0059">
        <ele>89.54</ele>
        <time>2018-05-03T18:17:09Z</time>
      </trkpt>
      <trkpt lat="49.44535" lon="1.00584">
        <ele>89.54</ele>
        <time>2018-05-03T18:17:10Z</time>
      </trkpt>
      <trkpt lat="49.44537" lon="1.00569">
        <ele>89.06</ele>
        <time>2018-05-03T18:17:12Z</time>
      </trkpt>
      <trkpt lat="49.44536" lon="1.0056">
        <ele>89.06</ele>
        <time>2018-05-03T18:17:13Z</time>
      </trkpt>
      <trkpt lat="49.44535" lon="1.00551">
        <ele>89.06</ele>
        <time>2018-05-03T18:17:14Z</time>
      </trkpt>
      <trkpt lat="49.44536" lon="1.00543">
        <ele>89.06</ele>
        <time>2018-05-03T18:17:15Z</time>
      </trkpt>
      <trkpt lat="49.44536" lon="1.00535">
        <ele>89.06</ele>
        <time>2018-05-03T18:17:16Z</time>
      </trkpt>
      <trkpt lat="49.44536" lon="1.00522">
        <ele>88.1</ele>
        <time>2018-05-03T18:17:18Z</time>
      </trkpt>
      <trkpt lat="49.44538" lon="1.00514">
        <ele>88.1</ele>
        <time>2018-05-03T18:17:19Z</time>
      </trkpt>
      <trkpt lat="49.44539" lon="1.00505">
        <ele>88.1</ele>
        <time>2018-05-03T18:17:20Z</time>
      </trkpt>
      <trkpt lat="49.44539" lon="1.00488">
        <ele>87.62</ele>
        <time>2018-05-03T18:17:22Z</time>
      </trkpt>
      <trkpt lat="49.44541" lon="1.00481">
        <ele>87.62</ele>
        <time>2018-05-03T18:17:23Z</time>
      </trkpt>
      <trkpt lat="49.44542" lon="1.00468">
        <ele>87.14</ele>
        <time>2018-05-03T18:17:25Z</time>
      </trkpt>
      <trkpt lat="49.44541" lon="1.00462">
        <ele>86.66</ele>
        <time>2018-05-03T18:17:26Z</time>
      </trkpt>
      <trkpt lat="49.44534" lon="1.00435">
        <ele>86.66</ele>
        <time>2018-05-03T18:17:31Z</time>
      </trkpt>
      <trkpt lat="49.44534" lon="1.00429">
        <ele>86.66</ele>
        <time>2018-05-03T18:17:32Z</time>
      </trkpt>
      <trkpt lat="49.44535" lon="1.00423">
        <ele>86.66</ele>
        <time>2018-05-03T18:17:33Z</time>
      </trkpt>
      <trkpt lat="49.44537" lon="1.00409">
        <ele>86.18</ele>
        <time>2018-05-03T18:17:35Z</time>
      </trkpt>
      <trkpt lat="49.44537" lon="1.00387">
        <ele>86.18</ele>
        <time>2018-05-03T18:17:37Z</time>
      </trkpt>
      <trkpt lat="49.44537" lon="1.00358">
        <ele>86.18</ele>
        <time>2018-05-03T18:17:40Z</time>
      </trkpt>
      <trkpt lat="49.44536" lon="1.00352">
        <ele>85.21</ele>
        <time>2018-05-03T18:17:41Z</time>
      </trkpt>
      <trkpt lat="49.44536" lon="1.00348">
        <ele>85.21</ele>
        <time>2018-05-03T18:17:42Z</time>
      </trkpt>
      <trkpt lat="49.44535" lon="1.00344">
        <ele>85.21</ele>
        <time>2018-05-03T18:17:43Z</time>
      </trkpt>
      <trkpt lat="49.44534" lon="1.00339">
        <ele>85.21</ele>
        <time>2018-05-03T18:17:44Z</time>
      </trkpt>
      <trkpt lat="49.44532" lon="1.00333">
        <ele>85.21</ele>
        <time>2018-05-03T18:17:45Z</time>
      </trkpt>
      <trkpt lat="49.44532" lon="1.00327">
        <ele>85.21</ele>
        <time>2018-05-03T18:17:46Z</time>
      </trkpt>
      <trkpt lat="49.44532" lon="1.00318">
        <ele>85.21</ele>
        <time>2018-05-03T18:17:47Z</time>
      </trkpt>
      <trkpt lat="49.44532" lon="1.00283">
        <ele>84.73</ele>
        <time>2018-05-03T18:17:51Z</time>
      </trkpt>
      <trkpt lat="49.4453" lon="1.00275">
        <ele>84.73</ele>
        <time>2018-05-03T18:17:52Z</time>
      </trkpt>
      <trkpt lat="49.44529" lon="1.00266">
        <ele>83.77</ele>
        <time>2018-05-03T18:17:53Z</time>
      </trkpt>
      <trkpt lat="49.44527" lon="1.00256">
        <ele>83.77</ele>
        <time>2018-05-03T18:17:54Z</time>
      </trkpt>
      <trkpt lat="49.44527" lon="1.00246">
        <ele>83.77</ele>
        <time>2018-05-03T18:17:55Z</time>
      </trkpt>
      <trkpt lat="49.44527" lon="1.00236">
        <ele>83.77</ele>
        <time>2018-05-03T18:17:56Z</time>
      </trkpt>
      <trkpt lat="49.44527" lon="1.00226">
        <ele>83.77</ele>
        <time>2018-05-03T18:17:57Z</time>
      </trkpt>
      <trkpt lat="49.44527" lon="1.00217">
        <ele>83.77</ele>
        <time>2018-05-03T18:17:58Z</time>
      </trkpt>
      <trkpt lat="49.44524" lon="1.00155">
        <ele>83.77</ele>
        <time>2018-05-03T18:18:05Z</time>
      </trkpt>
      <trkpt lat="49.44525" lon="1.00147">
        <ele>83.29</ele>
        <time>2018-05-03T18:18:06Z</time>
      </trkpt>
      <trkpt lat="49.44526" lon="1.00129">
        <ele>82.81</ele>
        <time>2018-05-03T18:18:08Z</time>
      </trkpt>
      <trkpt lat="49.44526" lon="1.0012">
        <ele>82.81</ele>
        <time>2018-05-03T18:18:09Z</time>
      </trkpt>
      <trkpt lat="49.44526" lon="1.00092">
        <ele>83.29</ele>
        <time>2018-05-03T18:18:12Z</time>
      </trkpt>
      <trkpt lat="49.44527" lon="1.00066">
        <ele>83.29</ele>
        <time>2018-05-03T18:18:15Z</time>
      </trkpt>
      <trkpt lat="49.44526" lon="1.00058">
        <ele>83.29</ele>
        <time>2018-05-03T18:18:16Z</time>
      </trkpt>
      <trkpt lat="49.44526" lon="1.00049">
        <ele>83.29</ele>
        <time>2018-05-03T18:18:17Z</time>
      </trkpt>
      <trkpt lat="49.44526" lon="1.00041">
        <ele>83.29</ele>
        <time>2018-05-03T18:18:18Z</time>
      </trkpt>
      <trkpt lat="49.44525" lon="1.00032">
        <ele>83.29</ele>
        <time>2018-05-03T18:18:19Z</time>
      </trkpt>
      <trkpt lat="49.44524" lon="1.00024">
        <ele>83.29</ele>
        <time>2018-05-03T18:18:20Z</time>
      </trkpt>
      <trkpt lat="49.44524" lon="1.00016">
        <ele>83.29</ele>
        <time>2018-05-03T18:18:21Z</time>
      </trkpt>
      <trkpt lat="49.44525" lon="1.00008">
        <ele>83.29</ele>
        <time>2018-05-03T18:18:22Z</time>
      </trkpt>
      <trkpt lat="49.44526" lon="1">
        <ele>83.29</ele>
        <time>2018-05-03T18:18:23Z</time>
      </trkpt>
      <trkpt lat="49.44528" lon="0.99992">
        <ele>83.29</ele>
        <time>2018-05-03T18:18:24Z</time>
      </trkpt>
      <trkpt lat="49.4453" lon="0.99985">
        <ele>83.29</ele>
        <time>2018-05-03T18:18:25Z</time>
      </trkpt>
      <trkpt lat="49.44529" lon="0.99978">
        <ele>83.29</ele>
        <time>2018-05-03T18:18:26Z</time>
      </trkpt>
      <trkpt lat="49.44528" lon="0.9997">
        <ele>83.29</ele>
        <time>2018-05-03T18:18:27Z</time>
      </trkpt>
      <trkpt lat="49.44527" lon="0.99963">
        <ele>83.29</ele>
        <time>2018-05-03T18:18:28Z</time>
      </trkpt>
      <trkpt lat="49.44527" lon="0.99955">
        <ele>82.81</ele>
        <time>2018-05-03T18:18:29Z</time>
      </trkpt>
      <trkpt lat="49.44528" lon="0.99948">
        <ele>82.81</ele>
        <time>2018-05-03T18:18:30Z</time>
      </trkpt>
      <trkpt lat="49.44529" lon="0.99941">
        <ele>82.81</ele>
        <time>2018-05-03T18:18:31Z</time>
      </trkpt>
      <trkpt lat="49.44529" lon="0.99933">
        <ele>82.81</ele>
        <time>2018-05-03T18:18:32Z</time>
      </trkpt>
      <trkpt lat="49.44529" lon="0.99925">
        <ele>82.33</ele>
        <time>2018-05-03T18:18:33Z</time>
      </trkpt>
      <trkpt lat="49.44528" lon="0.99918">
        <ele>82.33</ele>
        <time>2018-05-03T18:18:34Z</time>
      </trkpt>
      <trkpt lat="49.44522" lon="0.99876">
        <ele>80.89</ele>
        <time>2018-05-03T18:18:39Z</time>
      </trkpt>
      <trkpt lat="49.44523" lon="0.99869">
        <ele>80.41</ele>
        <time>2018-05-03T18:18:40Z</time>
      </trkpt>
      <trkpt lat="49.44524" lon="0.99862">
        <ele>80.41</ele>
        <time>2018-05-03T18:18:41Z</time>
      </trkpt>
      <trkpt lat="49.44526" lon="0.99854">
        <ele>80.41</ele>
        <time>2018-05-03T18:18:42Z</time>
      </trkpt>
      <trkpt lat="49.44526" lon="0.99847">
        <ele>80.41</ele>
        <time>2018-05-03T18:18:43Z</time>
      </trkpt>
      <trkpt lat="49.44528" lon="0.99825">
        <ele>79.93</ele>
        <time>2018-05-03T18:18:46Z</time>
      </trkpt>
      <trkpt lat="49.44527" lon="0.99798">
        <ele>79.93</ele>
        <time>2018-05-03T18:18:50Z</time>
      </trkpt>
      <trkpt lat="49.44527" lon="0.99782">
        <ele>79.93</ele>
        <time>2018-05-03T18:18:52Z</time>
      </trkpt>
      <trkpt lat="49.4453" lon="0.99744">
        <ele>79.45</ele>
        <time>2018-05-03T18:18:57Z</time>
      </trkpt>
      <trkpt lat="49.4453" lon="0.99729">
        <ele>79.45</ele>
        <time>2018-05-03T18:18:59Z</time>
      </trkpt>
      <trkpt lat="49.44531" lon="0.9972">
        <ele>79.45</ele>
        <time>2018-05-03T18:19:00Z</time>
      </trkpt>
      <trkpt lat="49.44533" lon="0.99703">
        <ele>79.45</ele>
        <time>2018-05-03T18:19:02Z</time>
      </trkpt>
      <trkpt lat="49.44533" lon="0.99695">
        <ele>79.45</ele>
        <time>2018-05-03T18:19:03Z</time>
      </trkpt>
      <trkpt lat="49.44532" lon="0.99687">
        <ele>79.45</ele>
        <time>2018-05-03T18:19:04Z</time>
      </trkpt>
      <trkpt lat="49.44531" lon="0.99664">
        <ele>78.97</ele>
        <time>2018-05-03T18:19:07Z</time>
      </trkpt>
      <trkpt lat="49.44531" lon="0.99649">
        <ele>78.97</ele>
        <time>2018-05-03T18:19:09Z</time>
      </trkpt>
      <trkpt lat="49.44531" lon="0.99642">
        <ele>78.97</ele>
        <time>2018-05-03T18:19:10Z</time>
      </trkpt>
      <trkpt lat="49.44531" lon="0.99636">
        <ele>78.97</ele>
        <time>2018-05-03T18:19:11Z</time>
      </trkpt>
      <trkpt lat="49.4453" lon="0.9963">
        <ele>78.97</ele>
        <time>2018-05-03T18:19:12Z</time>
      </trkpt>
      <trkpt lat="49.44529" lon="0.99623">
        <ele>78.97</ele>
        <time>2018-05-03T18:19:13Z</time>
      </trkpt>
      <trkpt lat="49.44529" lon="0.99616">
        <ele>78.97</ele>
        <time>2018-05-03T18:19:14Z</time>
      </trkpt>
      <trkpt lat="49.44528" lon="0.99608">
        <ele>78.97</ele>
        <time>2018-05-03T18:19:15Z</time>
      </trkpt>
      <trkpt lat="49.44527" lon="0.996">
        <ele>78.97</ele>
        <time>2018-05-03T18:19:16Z</time>
      </trkpt>
      <trkpt lat="49.44527" lon="0.99592">
        <ele>78.97</ele>
        <time>2018-05-03T18:19:17Z</time>
      </trkpt>
      <trkpt lat="49.44529" lon="0.99585">
        <ele>78.97</ele>
        <time>2018-05-03T18:19:18Z</time>
      </trkpt>
      <trkpt lat="49.4453" lon="0.99577">
        <ele>78.97</ele>
        <time>2018-05-03T18:19:19Z</time>
      </trkpt>
      <trkpt lat="49.4453" lon="0.99568">
        <ele>78.97</ele>
        <time>2018-05-03T18:19:20Z</time>
      </trkpt>
      <trkpt lat="49.4453" lon="0.9956">
        <ele>78.97</ele>
        <time>2018-05-03T18:19:21Z</time>
      </trkpt>
      <trkpt lat="49.44528" lon="0.99552">
        <ele>78.97</ele>
        <time>2018-05-03T18:19:22Z</time>
      </trkpt>
      <trkpt lat="49.44525" lon="0.99545">
        <ele>78.97</ele>
        <time>2018-05-03T18:19:23Z</time>
      </trkpt>
      <trkpt lat="49.44522" lon="0.99538">
        <ele>78.97</ele>
        <time>2018-05-03T18:19:24Z</time>
      </trkpt>
      <trkpt lat="49.44517" lon="0.99525">
        <ele>78.97</ele>
        <time>2018-05-03T18:19:26Z</time>
      </trkpt>
      <trkpt lat="49.44518" lon="0.99517">
        <ele>78.48</ele>
        <time>2018-05-03T18:19:27Z</time>
      </trkpt>
      <trkpt lat="49.44518" lon="0.99511">
        <ele>78.48</ele>
        <time>2018-05-03T18:19:28Z</time>
      </trkpt>
      <trkpt lat="49.44519" lon="0.99504">
        <ele>78.48</ele>
        <time>2018-05-03T18:19:29Z</time>
      </trkpt>
      <trkpt lat="49.44519" lon="0.99496">
        <ele>78.48</ele>
        <time>2018-05-03T18:19:30Z</time>
      </trkpt>
      <trkpt lat="49.44521" lon="0.99463">
        <ele>78.48</ele>
        <time>2018-05-03T18:19:34Z</time>
      </trkpt>
      <trkpt lat="49.44523" lon="0.99447">
        <ele>78</ele>
        <time>2018-05-03T18:19:36Z</time>
      </trkpt>
      <trkpt lat="49.44524" lon="0.99439">
        <ele>78</ele>
        <time>2018-05-03T18:19:37Z</time>
      </trkpt>
      <trkpt lat="49.44526" lon="0.99415">
        <ele>78</ele>
        <time>2018-05-03T18:19:40Z</time>
      </trkpt>
      <trkpt lat="49.44526" lon="0.99398">
        <ele>77.52</ele>
        <time>2018-05-03T18:19:42Z</time>
      </trkpt>
      <trkpt lat="49.44526" lon="0.9939">
        <ele>77.52</ele>
        <time>2018-05-03T18:19:43Z</time>
      </trkpt>
      <trkpt lat="49.44527" lon="0.99382">
        <ele>77.04</ele>
        <time>2018-05-03T18:19:44Z</time>
      </trkpt>
      <trkpt lat="49.44528" lon="0.99374">
        <ele>77.04</ele>
        <time>2018-05-03T18:19:45Z</time>
      </trkpt>
      <trkpt lat="49.4453" lon="0.99366">
        <ele>77.04</ele>
        <time>2018-05-03T18:19:46Z</time>
      </trkpt>
      <trkpt lat="49.4453" lon="0.99358">
        <ele>77.04</ele>
        <time>2018-05-03T18:19:47Z</time>
      </trkpt>
      <trkpt lat="49.44529" lon="0.9935">
        <ele>77.04</ele>
        <time>2018-05-03T18:19:48Z</time>
      </trkpt>
      <trkpt lat="49.44529" lon="0.99342">
        <ele>76.56</ele>
        <time>2018-05-03T18:19:49Z</time>
      </trkpt>
      <trkpt lat="49.4453" lon="0.99334">
        <ele>76.56</ele>
        <time>2018-05-03T18:19:50Z</time>
      </trkpt>
      <trkpt lat="49.44532" lon="0.99327">
        <ele>76.56</ele>
        <time>2018-05-03T18:19:51Z</time>
      </trkpt>
      <trkpt lat="49.44532" lon="0.99318">
        <ele>76.56</ele>
        <time>2018-05-03T18:19:52Z</time>
      </trkpt>
      <trkpt lat="49.44531" lon="0.9931">
        <ele>76.08</ele>
        <time>2018-05-03T18:19:53Z</time>
      </trkpt>
      <trkpt lat="49.44529" lon="0.99304">
        <ele>76.08</ele>
        <time>2018-05-03T18:19:54Z</time>
      </trkpt>
      <trkpt lat="49.44528" lon="0.99297">
        <ele>76.08</ele>
        <time>2018-05-03T18:19:55Z</time>
      </trkpt>
      <trkpt lat="49.44528" lon="0.99289">
        <ele>75.6</ele>
        <time>2018-05-03T18:19:56Z</time>
      </trkpt>
      <trkpt lat="49.44528" lon="0.99274">
        <ele>75.6</ele>
        <time>2018-05-03T18:19:58Z</time>
      </trkpt>
      <trkpt lat="49.44529" lon="0.9926">
        <ele>75.12</ele>
        <time>2018-05-03T18:20:00Z</time>
      </trkpt>
      <trkpt lat="49.44528" lon="0.99255">
        <ele>75.12</ele>
        <time>2018-05-03T18:20:01Z</time>
      </trkpt>
      <trkpt lat="49.44527" lon="0.99251">
        <ele>75.12</ele>
        <time>2018-05-03T18:20:02Z</time>
      </trkpt>
      <trkpt lat="49.44527" lon="0.99247">
        <ele>74.64</ele>
        <time>2018-05-03T18:20:03Z</time>
      </trkpt>
      <trkpt lat="49.44528" lon="0.99242">
        <ele>74.64</ele>
        <time>2018-05-03T18:20:04Z</time>
      </trkpt>
      <trkpt lat="49.44529" lon="0.99236">
        <ele>74.16</ele>
        <time>2018-05-03T18:20:05Z</time>
      </trkpt>
      <trkpt lat="49.44531" lon="0.9923">
        <ele>74.16</ele>
        <time>2018-05-03T18:20:06Z</time>
      </trkpt>
      <trkpt lat="49.44537" lon="0.9922">
        <ele>73.68</ele>
        <time>2018-05-03T18:20:08Z</time>
      </trkpt>
      <trkpt lat="49.44538" lon="0.99213">
        <ele>73.2</ele>
        <time>2018-05-03T18:20:09Z</time>
      </trkpt>
      <trkpt lat="49.44538" lon="0.99208">
        <ele>72.72</ele>
        <time>2018-05-03T18:20:10Z</time>
      </trkpt>
      <trkpt lat="49.44537" lon="0.99202">
        <ele>72.72</ele>
        <time>2018-05-03T18:20:11Z</time>
      </trkpt>
      <trkpt lat="49.44535" lon="0.99193">
        <ele>72.72</ele>
        <time>2018-05-03T18:20:13Z</time>
      </trkpt>
      <trkpt lat="49.44533" lon="0.99191">
        <ele>72.72</ele>
        <time>2018-05-03T18:20:14Z</time>
      </trkpt>
      <trkpt lat="49.4453" lon="0.99188">
        <ele>72.72</ele>
        <time>2018-05-03T18:20:15Z</time>
      </trkpt>
      <trkpt lat="49.44526" lon="0.99186">
        <ele>72.72</ele>
        <time>2018-05-03T18:20:16Z</time>
      </trkpt>
      <trkpt lat="49.44522" lon="0.99183">
        <ele>72.72</ele>
        <time>2018-05-03T18:20:17Z</time>
      </trkpt>
      <trkpt lat="49.44515" lon="0.99178">
        <ele>74.16</ele>
        <time>2018-05-03T18:20:19Z</time>
      </trkpt>
      <trkpt lat="49.44512" lon="0.99174">
        <ele>74.64</ele>
        <time>2018-05-03T18:20:20Z</time>
      </trkpt>
      <trkpt lat="49.44511" lon="0.99168">
        <ele>74.64</ele>
        <time>2018-05-03T18:20:21Z</time>
      </trkpt>
      <trkpt lat="49.44512" lon="0.99163">
        <ele>74.64</ele>
        <time>2018-05-03T18:20:22Z</time>
      </trkpt>
      <trkpt lat="49.44515" lon="0.99159">
        <ele>74.64</ele>
        <time>2018-05-03T18:20:23Z</time>
      </trkpt>
      <trkpt lat="49.44519" lon="0.99155">
        <ele>74.64</ele>
        <time>2018-05-03T18:20:24Z</time>
      </trkpt>
      <trkpt lat="49.44524" lon="0.99152">
        <ele>74.64</ele>
        <time>2018-05-03T18:20:25Z</time>
      </trkpt>
      <trkpt lat="49.44537" lon="0.99139">
        <ele>72.72</ele>
        <time>2018-05-03T18:20:28Z</time>
      </trkpt>
      <trkpt lat="49.44542" lon="0.99133">
        <ele>72.72</ele>
        <time>2018-05-03T18:20:29Z</time>
      </trkpt>
      <trkpt lat="49.44547" lon="0.99127">
        <ele>72.72</ele>
        <time>2018-05-03T18:20:30Z</time>
      </trkpt>
      <trkpt lat="49.44551" lon="0.9912">
        <ele>72.72</ele>
        <time>2018-05-03T18:20:31Z</time>
      </trkpt>
      <trkpt lat="49.44555" lon="0.99113">
        <ele>72.24</ele>
        <time>2018-05-03T18:20:32Z</time>
      </trkpt>
      <trkpt lat="49.44559" lon="0.99107">
        <ele>72.24</ele>
        <time>2018-05-03T18:20:33Z</time>
      </trkpt>
      <trkpt lat="49.44563" lon="0.99101">
        <ele>72.24</ele>
        <time>2018-05-03T18:20:34Z</time>
      </trkpt>
      <trkpt lat="49.44578" lon="0.99088">
        <ele>72.24</ele>
        <time>2018-05-03T18:20:38Z</time>
      </trkpt>
      <trkpt lat="49.44579" lon="0.99085">
        <ele>72.24</ele>
        <time>2018-05-03T18:20:39Z</time>
      </trkpt>
      <trkpt lat="49.44582" lon="0.99081">
        <ele>72.24</ele>
        <time>2018-05-03T18:20:40Z</time>
      </trkpt>
      <trkpt lat="49.44586" lon="0.99076">
        <ele>72.24</ele>
        <time>2018-05-03T18:20:41Z</time>
      </trkpt>
      <trkpt lat="49.4459" lon="0.99072">
        <ele>72.24</ele>
        <time>2018-05-03T18:20:42Z</time>
      </trkpt>
      <trkpt lat="49.44642" lon="0.99005">
        <ele>73.68</ele>
        <time>2018-05-03T18:20:53Z</time>
      </trkpt>
      <trkpt lat="49.44719" lon="0.98925">
        <ele>70.79</ele>
        <time>2018-05-03T18:21:05Z</time>
      </trkpt>
      <trkpt lat="49.44733" lon="0.98911">
        <ele>72.72</ele>
        <time>2018-05-03T18:21:08Z</time>
      </trkpt>
      <trkpt lat="49.44738" lon="0.98907">
        <ele>72.72</ele>
        <time>2018-05-03T18:21:09Z</time>
      </trkpt>
      <trkpt lat="49.44756" lon="0.98887">
        <ele>73.68</ele>
        <time>2018-05-03T18:21:13Z</time>
      </trkpt>
      <trkpt lat="49.4476" lon="0.98883">
        <ele>74.16</ele>
        <time>2018-05-03T18:21:14Z</time>
      </trkpt>
      <trkpt lat="49.4478" lon="0.98857">
        <ele>75.6</ele>
        <time>2018-05-03T18:21:19Z</time>
      </trkpt>
      <trkpt lat="49.44838" lon="0.98787">
        <ele>78.97</ele>
        <time>2018-05-03T18:21:34Z</time>
      </trkpt>
      <trkpt lat="49.44846" lon="0.98778">
        <ele>79.45</ele>
        <time>2018-05-03T18:21:36Z</time>
      </trkpt>
      <trkpt lat="49.44868" lon="0.98752">
        <ele>79.93</ele>
        <time>2018-05-03T18:21:42Z</time>
      </trkpt>
      <trkpt lat="49.44871" lon="0.98748">
        <ele>79.93</ele>
        <time>2018-05-03T18:21:43Z</time>
      </trkpt>
      <trkpt lat="49.44875" lon="0.98744">
        <ele>80.41</ele>
        <time>2018-05-03T18:21:44Z</time>
      </trkpt>
      <trkpt lat="49.44887" lon="0.98731">
        <ele>80.41</ele>
        <time>2018-05-03T18:21:47Z</time>
      </trkpt>
      <trkpt lat="49.44891" lon="0.98727">
        <ele>80.89</ele>
        <time>2018-05-03T18:21:48Z</time>
      </trkpt>
      <trkpt lat="49.44949" lon="0.98663">
        <ele>83.29</ele>
        <time>2018-05-03T18:22:03Z</time>
      </trkpt>
      <trkpt lat="49.45013" lon="0.986">
        <ele>84.73</ele>
        <time>2018-05-03T18:22:19Z</time>
      </trkpt>
      <trkpt lat="49.45044" lon="0.98565">
        <ele>85.69</ele>
        <time>2018-05-03T18:22:29Z</time>
      </trkpt>
      <trkpt lat="49.45045" lon="0.98561">
        <ele>85.69</ele>
        <time>2018-05-03T18:22:30Z</time>
      </trkpt>
      <trkpt lat="49.45045" lon="0.98556">
        <ele>85.69</ele>
        <time>2018-05-03T18:22:31Z</time>
      </trkpt>
      <trkpt lat="49.45044" lon="0.98554">
        <ele>85.69</ele>
        <time>2018-05-03T18:22:32Z</time>
      </trkpt>
      <trkpt lat="49.4504" lon="0.98552">
        <ele>85.69</ele>
        <time>2018-05-03T18:22:33Z</time>
      </trkpt>
      <trkpt lat="49.45037" lon="0.98551">
        <ele>85.69</ele>
        <time>2018-05-03T18:22:34Z</time>
      </trkpt>
      <trkpt lat="49.45022" lon="0.98548">
        <ele>86.18</ele>
        <time>2018-05-03T18:22:37Z</time>
      </trkpt>
      <trkpt lat="49.44937" lon="0.9853">
        <ele>86.18</ele>
        <time>2018-05-03T18:22:53Z</time>
      </trkpt>
      <trkpt lat="49.44932" lon="0.98529">
        <ele>86.18</ele>
        <time>2018-05-03T18:22:54Z</time>
      </trkpt>
      <trkpt lat="49.44922" lon="0.98527">
        <ele>86.18</ele>
        <time>2018-05-03T18:22:56Z</time>
      </trkpt>
      <trkpt lat="49.44908" lon="0.98525">
        <ele>86.18</ele>
        <time>2018-05-03T18:22:59Z</time>
      </trkpt>
      <trkpt lat="49.44874" lon="0.98516">
        <ele>86.18</ele>
        <time>2018-05-03T18:23:05Z</time>
      </trkpt>
      <trkpt lat="49.44836" lon="0.98509">
        <ele>85.21</ele>
        <time>2018-05-03T18:23:11Z</time>
      </trkpt>
      <trkpt lat="49.44758" lon="0.98488">
        <ele>83.77</ele>
        <time>2018-05-03T18:23:23Z</time>
      </trkpt>
      <trkpt lat="49.44721" lon="0.98479">
        <ele>83.29</ele>
        <time>2018-05-03T18:23:29Z</time>
      </trkpt>
      <trkpt lat="49.44676" lon="0.98468">
        <ele>80.89</ele>
        <time>2018-05-03T18:23:37Z</time>
      </trkpt>
      <trkpt lat="49.44673" lon="0.98431">
        <ele>80.89</ele>
        <time>2018-05-03T18:23:47Z</time>
      </trkpt>
      <trkpt lat="49.44684" lon="0.98373">
        <ele>82.33</ele>
        <time>2018-05-03T18:23:59Z</time>
      </trkpt>
      <trkpt lat="49.44684" lon="0.98368">
        <ele>82.33</ele>
        <time>2018-05-03T18:24:00Z</time>
      </trkpt>
      <trkpt lat="49.44684" lon="0.98364">
        <ele>81.85</ele>
        <time>2018-05-03T18:24:01Z</time>
      </trkpt>
      <trkpt lat="49.44683" lon="0.98311">
        <ele>82.33</ele>
        <time>2018-05-03T18:24:11Z</time>
      </trkpt>
      <trkpt lat="49.447" lon="0.98235">
        <ele>83.29</ele>
        <time>2018-05-03T18:24:24Z</time>
      </trkpt>
      <trkpt lat="49.44709" lon="0.98182">
        <ele>83.29</ele>
        <time>2018-05-03T18:24:33Z</time>
      </trkpt>
      <trkpt lat="49.44709" lon="0.98174">
        <ele>81.85</ele>
        <time>2018-05-03T18:24:34Z</time>
      </trkpt>
      <trkpt lat="49.44713" lon="0.98108">
        <ele>80.41</ele>
        <time>2018-05-03T18:24:45Z</time>
      </trkpt>
      <trkpt lat="49.44717" lon="0.98072">
        <ele>78.97</ele>
        <time>2018-05-03T18:24:50Z</time>
      </trkpt>
      <trkpt lat="49.44717" lon="0.98065">
        <ele>78</ele>
        <time>2018-05-03T18:24:51Z</time>
      </trkpt>
      <trkpt lat="49.44718" lon="0.98057">
        <ele>77.52</ele>
        <time>2018-05-03T18:24:52Z</time>
      </trkpt>
      <trkpt lat="49.44719" lon="0.98049">
        <ele>77.04</ele>
        <time>2018-05-03T18:24:53Z</time>
      </trkpt>
      <trkpt lat="49.4472" lon="0.98043">
        <ele>77.04</ele>
        <time>2018-05-03T18:24:54Z</time>
      </trkpt>
      <trkpt lat="49.44727" lon="0.9798">
        <ele>73.68</ele>
        <time>2018-05-03T18:25:00Z</time>
      </trkpt>
      <trkpt lat="49.44735" lon="0.97913">
        <ele>69.83</ele>
        <time>2018-05-03T18:25:06Z</time>
      </trkpt>
      <trkpt lat="49.44742" lon="0.97854">
        <ele>66.47</ele>
        <time>2018-05-03T18:25:12Z</time>
      </trkpt>
      <trkpt lat="49.44751" lon="0.97799">
        <ele>63.1</ele>
        <time>2018-05-03T18:25:17Z</time>
      </trkpt>
      <trkpt lat="49.44753" lon="0.97788">
        <ele>62.62</ele>
        <time>2018-05-03T18:25:18Z</time>
      </trkpt>
      <trkpt lat="49.44755" lon="0.97774">
        <ele>61.66</ele>
        <time>2018-05-03T18:25:19Z</time>
      </trkpt>
      <trkpt lat="49.44759" lon="0.9775">
        <ele>60.7</ele>
        <time>2018-05-03T18:25:21Z</time>
      </trkpt>
      <trkpt lat="49.44763" lon="0.97728">
        <ele>59.26</ele>
        <time>2018-05-03T18:25:23Z</time>
      </trkpt>
      <trkpt lat="49.44765" lon="0.97672">
        <ele>55.89</ele>
        <time>2018-05-03T18:25:28Z</time>
      </trkpt>
      <trkpt lat="49.44764" lon="0.97651">
        <ele>54.93</ele>
        <time>2018-05-03T18:25:30Z</time>
      </trkpt>
      <trkpt lat="49.4476" lon="0.97607">
        <ele>52.53</ele>
        <time>2018-05-03T18:25:34Z</time>
      </trkpt>
      <trkpt lat="49.44759" lon="0.97552">
        <ele>49.65</ele>
        <time>2018-05-03T18:25:39Z</time>
      </trkpt>
      <trkpt lat="49.44758" lon="0.97504">
        <ele>46.28</ele>
        <time>2018-05-03T18:25:43Z</time>
      </trkpt>
      <trkpt lat="49.44758" lon="0.97481">
        <ele>44.84</ele>
        <time>2018-05-03T18:25:45Z</time>
      </trkpt>
      <trkpt lat="49.44761" lon="0.97451">
        <ele>43.4</ele>
        <time>2018-05-03T18:25:48Z</time>
      </trkpt>
      <trkpt lat="49.44766" lon="0.97415">
        <ele>40.51</ele>
        <time>2018-05-03T18:25:52Z</time>
      </trkpt>
      <trkpt lat="49.44778" lon="0.97374">
        <ele>37.63</ele>
        <time>2018-05-03T18:25:57Z</time>
      </trkpt>
      <trkpt lat="49.44787" lon="0.97333">
        <ele>34.74</ele>
        <time>2018-05-03T18:26:02Z</time>
      </trkpt>
      <trkpt lat="49.44798" lon="0.973">
        <ele>32.82</ele>
        <time>2018-05-03T18:26:06Z</time>
      </trkpt>
      <trkpt lat="49.44799" lon="0.97293">
        <ele>31.86</ele>
        <time>2018-05-03T18:26:07Z</time>
      </trkpt>
      <trkpt lat="49.44801" lon="0.97286">
        <ele>31.86</ele>
        <time>2018-05-03T18:26:08Z</time>
      </trkpt>
      <trkpt lat="49.44802" lon="0.97278">
        <ele>31.38</ele>
        <time>2018-05-03T18:26:09Z</time>
      </trkpt>
      <trkpt lat="49.44803" lon="0.9727">
        <ele>30.42</ele>
        <time>2018-05-03T18:26:10Z</time>
      </trkpt>
      <trkpt lat="49.44804" lon="0.97263">
        <ele>29.94</ele>
        <time>2018-05-03T18:26:11Z</time>
      </trkpt>
      <trkpt lat="49.44805" lon="0.97256">
        <ele>29.94</ele>
        <time>2018-05-03T18:26:12Z</time>
      </trkpt>
      <trkpt lat="49.44806" lon="0.97248">
        <ele>29.46</ele>
        <time>2018-05-03T18:26:13Z</time>
      </trkpt>
      <trkpt lat="49.44807" lon="0.97241">
        <ele>28.5</ele>
        <time>2018-05-03T18:26:14Z</time>
      </trkpt>
      <trkpt lat="49.44807" lon="0.97234">
        <ele>28.02</ele>
        <time>2018-05-03T18:26:15Z</time>
      </trkpt>
      <trkpt lat="49.44808" lon="0.97224">
        <ele>27.05</ele>
        <time>2018-05-03T18:26:17Z</time>
      </trkpt>
      <trkpt lat="49.44808" lon="0.97222">
        <ele>27.05</ele>
        <time>2018-05-03T18:26:18Z</time>
      </trkpt>
      <trkpt lat="49.44808" lon="0.97214">
        <ele>27.05</ele>
        <time>2018-05-03T18:26:29Z</time>
      </trkpt>
      <trkpt lat="49.44808" lon="0.97209">
        <ele>27.05</ele>
        <time>2018-05-03T18:26:39Z</time>
      </trkpt>
      <trkpt lat="49.44808" lon="0.97206">
        <ele>27.05</ele>
        <time>2018-05-03T18:26:40Z</time>
      </trkpt>
      <trkpt lat="49.44808" lon="0.97204">
        <ele>27.05</ele>
        <time>2018-05-03T18:26:41Z</time>
      </trkpt>
      <trkpt lat="49.4481" lon="0.972">
        <ele>27.05</ele>
        <time>2018-05-03T18:26:42Z</time>
      </trkpt>
      <trkpt lat="49.44813" lon="0.97198">
        <ele>26.57</ele>
        <time>2018-05-03T18:26:43Z</time>
      </trkpt>
      <trkpt lat="49.44815" lon="0.97197">
        <ele>26.57</ele>
        <time>2018-05-03T18:26:44Z</time>
      </trkpt>
      <trkpt lat="49.44819" lon="0.97196">
        <ele>26.57</ele>
        <time>2018-05-03T18:26:45Z</time>
      </trkpt>
      <trkpt lat="49.44827" lon="0.97194">
        <ele>26.09</ele>
        <time>2018-05-03T18:26:47Z</time>
      </trkpt>
      <trkpt lat="49.44831" lon="0.97191">
        <ele>25.61</ele>
        <time>2018-05-03T18:26:48Z</time>
      </trkpt>
      <trkpt lat="49.44839" lon="0.97185">
        <ele>25.13</ele>
        <time>2018-05-03T18:26:50Z</time>
      </trkpt>
      <trkpt lat="49.44843" lon="0.97181">
        <ele>25.13</ele>
        <time>2018-05-03T18:26:51Z</time>
      </trkpt>
      <trkpt lat="49.44852" lon="0.97171">
        <ele>24.65</ele>
        <time>2018-05-03T18:26:53Z</time>
      </trkpt>
      <trkpt lat="49.44856" lon="0.97165">
        <ele>24.65</ele>
        <time>2018-05-03T18:26:54Z</time>
      </trkpt>
      <trkpt lat="49.44859" lon="0.97158">
        <ele>24.17</ele>
        <time>2018-05-03T18:26:55Z</time>
      </trkpt>
      <trkpt lat="49.44862" lon="0.97151">
        <ele>23.69</ele>
        <time>2018-05-03T18:26:56Z</time>
      </trkpt>
      <trkpt lat="49.44865" lon="0.97142">
        <ele>23.69</ele>
        <time>2018-05-03T18:26:57Z</time>
      </trkpt>
      <trkpt lat="49.44867" lon="0.97134">
        <ele>23.21</ele>
        <time>2018-05-03T18:26:58Z</time>
      </trkpt>
      <trkpt lat="49.44875" lon="0.97079">
        <ele>21.77</ele>
        <time>2018-05-03T18:27:04Z</time>
      </trkpt>
      <trkpt lat="49.44875" lon="0.9707">
        <ele>21.29</ele>
        <time>2018-05-03T18:27:05Z</time>
      </trkpt>
      <trkpt lat="49.44871" lon="0.96971">
        <ele>17.92</ele>
        <time>2018-05-03T18:27:14Z</time>
      </trkpt>
      <trkpt lat="49.44884" lon="0.96875">
        <ele>14.56</ele>
        <time>2018-05-03T18:27:21Z</time>
      </trkpt>
      <trkpt lat="49.44899" lon="0.96803">
        <ele>12.15</ele>
        <time>2018-05-03T18:27:26Z</time>
      </trkpt>
      <trkpt lat="49.44927" lon="0.96665">
        <ele>11.67</ele>
        <time>2018-05-03T18:27:38Z</time>
      </trkpt>
      <trkpt lat="49.44959" lon="0.96549">
        <ele>14.08</ele>
        <time>2018-05-03T18:27:52Z</time>
      </trkpt>
      <trkpt lat="49.45035" lon="0.96459">
        <ele>14.08</ele>
        <time>2018-05-03T18:28:08Z</time>
      </trkpt>
      <trkpt lat="49.45133" lon="0.96369">
        <ele>14.08</ele>
        <time>2018-05-03T18:28:27Z</time>
      </trkpt>
      <trkpt lat="49.45221" lon="0.96334">
        <ele>14.56</ele>
        <time>2018-05-03T18:28:43Z</time>
      </trkpt>
      <trkpt lat="49.45277" lon="0.96329">
        <ele>17.92</ele>
        <time>2018-05-03T18:28:56Z</time>
      </trkpt>
      <trkpt lat="49.45333" lon="0.96334">
        <ele>21.29</ele>
        <time>2018-05-03T18:29:11Z</time>
      </trkpt>
      <trkpt lat="49.45391" lon="0.96342">
        <ele>24.65</ele>
        <time>2018-05-03T18:29:28Z</time>
      </trkpt>
      <trkpt lat="49.45447" lon="0.9635">
        <ele>28.02</ele>
        <time>2018-05-03T18:29:45Z</time>
      </trkpt>
      <trkpt lat="49.45506" lon="0.96358">
        <ele>30.9</ele>
        <time>2018-05-03T18:30:03Z</time>
      </trkpt>
      <trkpt lat="49.45554" lon="0.96374">
        <ele>34.74</ele>
        <time>2018-05-03T18:30:20Z</time>
      </trkpt>
      <trkpt lat="49.45575" lon="0.9639">
        <ele>38.11</ele>
        <time>2018-05-03T18:30:30Z</time>
      </trkpt>
      <trkpt lat="49.45593" lon="0.96406">
        <ele>41.47</ele>
        <time>2018-05-03T18:30:40Z</time>
      </trkpt>
      <trkpt lat="49.45611" lon="0.96413">
        <ele>44.36</ele>
        <time>2018-05-03T18:30:50Z</time>
      </trkpt>
      <trkpt lat="49.45634" lon="0.96419">
        <ele>47.72</ele>
        <time>2018-05-03T18:31:00Z</time>
      </trkpt>
      <trkpt lat="49.4566" lon="0.96428">
        <ele>52.05</ele>
        <time>2018-05-03T18:31:11Z</time>
      </trkpt>
      <trkpt lat="49.45684" lon="0.96436">
        <ele>54.93</ele>
        <time>2018-05-03T18:31:22Z</time>
      </trkpt>
      <trkpt lat="49.45719" lon="0.96442">
        <ele>58.3</ele>
        <time>2018-05-03T18:31:37Z</time>
      </trkpt>
      <trkpt lat="49.45753" lon="0.96424">
        <ele>60.22</ele>
        <time>2018-05-03T18:31:52Z</time>
      </trkpt>
      <trkpt lat="49.45795" lon="0.96414">
        <ele>63.1</ele>
        <time>2018-05-03T18:32:09Z</time>
      </trkpt>
      <trkpt lat="49.45827" lon="0.96414">
        <ele>66.95</ele>
        <time>2018-05-03T18:32:23Z</time>
      </trkpt>
      <trkpt lat="49.45849" lon="0.96415">
        <ele>69.83</ele>
        <time>2018-05-03T18:32:33Z</time>
      </trkpt>
      <trkpt lat="49.45866" lon="0.96408">
        <ele>72.24</ele>
        <time>2018-05-03T18:32:43Z</time>
      </trkpt>
      <trkpt lat="49.45868" lon="0.96407">
        <ele>72.24</ele>
        <time>2018-05-03T18:32:44Z</time>
      </trkpt>
      <trkpt lat="49.45896" lon="0.96395">
        <ele>75.12</ele>
        <time>2018-05-03T18:32:58Z</time>
      </trkpt>
      <trkpt lat="49.45921" lon="0.96389">
        <ele>77.52</ele>
        <time>2018-05-03T18:33:09Z</time>
      </trkpt>
      <trkpt lat="49.45938" lon="0.96386">
        <ele>78.97</ele>
        <time>2018-05-03T18:33:18Z</time>
      </trkpt>
      <trkpt lat="49.45966" lon="0.9636">
        <ele>80.89</ele>
        <time>2018-05-03T18:33:31Z</time>
      </trkpt>
      <trkpt lat="49.46006" lon="0.96328">
        <ele>80.89</ele>
        <time>2018-05-03T18:33:43Z</time>
      </trkpt>
      <trkpt lat="49.46052" lon="0.96309">
        <ele>82.33</ele>
        <time>2018-05-03T18:33:55Z</time>
      </trkpt>
      <trkpt lat="49.4608" lon="0.96298">
        <ele>84.73</ele>
        <time>2018-05-03T18:34:06Z</time>
      </trkpt>
      <trkpt lat="49.46087" lon="0.96295">
        <ele>85.21</ele>
        <time>2018-05-03T18:34:09Z</time>
      </trkpt>
      <trkpt lat="49.4609" lon="0.96293">
        <ele>85.21</ele>
        <time>2018-05-03T18:34:10Z</time>
      </trkpt>
      <trkpt lat="49.46092" lon="0.96292">
        <ele>85.69</ele>
        <time>2018-05-03T18:34:11Z</time>
      </trkpt>
      <trkpt lat="49.46094" lon="0.96291">
        <ele>85.69</ele>
        <time>2018-05-03T18:34:12Z</time>
      </trkpt>
      <trkpt lat="49.46096" lon="0.9629">
        <ele>86.18</ele>
        <time>2018-05-03T18:34:13Z</time>
      </trkpt>
      <trkpt lat="49.46099" lon="0.96289">
        <ele>86.18</ele>
        <time>2018-05-03T18:34:14Z</time>
      </trkpt>
      <trkpt lat="49.46101" lon="0.96289">
        <ele>86.18</ele>
        <time>2018-05-03T18:34:15Z</time>
      </trkpt>
      <trkpt lat="49.46103" lon="0.96288">
        <ele>86.66</ele>
        <time>2018-05-03T18:34:16Z</time>
      </trkpt>
      <trkpt lat="49.46105" lon="0.96288">
        <ele>86.66</ele>
        <time>2018-05-03T18:34:17Z</time>
      </trkpt>
      <trkpt lat="49.46107" lon="0.96288">
        <ele>87.62</ele>
        <time>2018-05-03T18:34:18Z</time>
      </trkpt>
      <trkpt lat="49.46119" lon="0.96282">
        <ele>88.58</ele>
        <time>2018-05-03T18:34:24Z</time>
      </trkpt>
      <trkpt lat="49.46121" lon="0.96282">
        <ele>88.58</ele>
        <time>2018-05-03T18:34:25Z</time>
      </trkpt>
      <trkpt lat="49.46123" lon="0.96281">
        <ele>88.58</ele>
        <time>2018-05-03T18:34:26Z</time>
      </trkpt>
      <trkpt lat="49.46125" lon="0.9628">
        <ele>89.06</ele>
        <time>2018-05-03T18:34:27Z</time>
      </trkpt>
      <trkpt lat="49.46127" lon="0.96279">
        <ele>89.06</ele>
        <time>2018-05-03T18:34:28Z</time>
      </trkpt>
      <trkpt lat="49.46144" lon="0.96273">
        <ele>91.46</ele>
        <time>2018-05-03T18:34:39Z</time>
      </trkpt>
      <trkpt lat="49.4615" lon="0.96269">
        <ele>92.42</ele>
        <time>2018-05-03T18:34:43Z</time>
      </trkpt>
      <trkpt lat="49.46153" lon="0.96269">
        <ele>92.42</ele>
        <time>2018-05-03T18:34:44Z</time>
      </trkpt>
      <trkpt lat="49.46155" lon="0.96268">
        <ele>92.9</ele>
        <time>2018-05-03T18:34:45Z</time>
      </trkpt>
      <trkpt lat="49.46157" lon="0.96268">
        <ele>92.9</ele>
        <time>2018-05-03T18:34:46Z</time>
      </trkpt>
      <trkpt lat="49.4616" lon="0.96268">
        <ele>92.9</ele>
        <time>2018-05-03T18:34:47Z</time>
      </trkpt>
      <trkpt lat="49.46186" lon="0.96267">
        <ele>96.27</ele>
        <time>2018-05-03T18:35:02Z</time>
      </trkpt>
      <trkpt lat="49.46205" lon="0.96266">
        <ele>99.15</ele>
        <time>2018-05-03T18:35:15Z</time>
      </trkpt>
      <trkpt lat="49.46211" lon="0.96266">
        <ele>100.11</ele>
        <time>2018-05-03T18:35:19Z</time>
      </trkpt>
      <trkpt lat="49.46229" lon="0.9627">
        <ele>103.48</ele>
        <time>2018-05-03T18:35:33Z</time>
      </trkpt>
      <trkpt lat="49.46243" lon="0.96277">
        <ele>106.36</ele>
        <time>2018-05-03T18:35:44Z</time>
      </trkpt>
      <trkpt lat="49.46249" lon="0.96281">
        <ele>107.32</ele>
        <time>2018-05-03T18:35:48Z</time>
      </trkpt>
      <trkpt lat="49.46251" lon="0.96282">
        <ele>107.32</ele>
        <time>2018-05-03T18:35:49Z</time>
      </trkpt>
      <trkpt lat="49.46253" lon="0.96283">
        <ele>107.81</ele>
        <time>2018-05-03T18:35:50Z</time>
      </trkpt>
      <trkpt lat="49.46263" lon="0.96283">
        <ele>110.21</ele>
        <time>2018-05-03T18:36:01Z</time>
      </trkpt>
      <trkpt lat="49.46278" lon="0.96286">
        <ele>112.61</ele>
        <time>2018-05-03T18:36:12Z</time>
      </trkpt>
      <trkpt lat="49.46295" lon="0.9629">
        <ele>115.01</ele>
        <time>2018-05-03T18:36:24Z</time>
      </trkpt>
      <trkpt lat="49.46309" lon="0.9629">
        <ele>117.42</ele>
        <time>2018-05-03T18:36:36Z</time>
      </trkpt>
      <trkpt lat="49.46337" lon="0.96301">
        <ele>119.34</ele>
        <time>2018-05-03T18:36:48Z</time>
      </trkpt>
      <trkpt lat="49.46345" lon="0.96303">
        <ele>120.78</ele>
        <time>2018-05-03T18:36:53Z</time>
      </trkpt>
      <trkpt lat="49.46362" lon="0.96298">
        <ele>122.71</ele>
        <time>2018-05-03T18:37:03Z</time>
      </trkpt>
      <trkpt lat="49.46364" lon="0.96297">
        <ele>122.71</ele>
        <time>2018-05-03T18:37:04Z</time>
      </trkpt>
      <trkpt lat="49.46366" lon="0.96296">
        <ele>122.71</ele>
        <time>2018-05-03T18:37:05Z</time>
      </trkpt>
      <trkpt lat="49.46393" lon="0.9628">
        <ele>123.67</ele>
        <time>2018-05-03T18:37:16Z</time>
      </trkpt>
      <trkpt lat="49.46408" lon="0.96259">
        <ele>124.63</ele>
        <time>2018-05-03T18:37:26Z</time>
      </trkpt>
      <trkpt lat="49.46435" lon="0.96204">
        <ele>124.63</ele>
        <time>2018-05-03T18:37:38Z</time>
      </trkpt>
      <trkpt lat="49.46481" lon="0.96164">
        <ele>124.63</ele>
        <time>2018-05-03T18:37:51Z</time>
      </trkpt>
      <trkpt lat="49.46489" lon="0.96159">
        <ele>124.63</ele>
        <time>2018-05-03T18:37:53Z</time>
      </trkpt>
      <trkpt lat="49.46531" lon="0.96145">
        <ele>125.59</ele>
        <time>2018-05-03T18:38:03Z</time>
      </trkpt>
      <trkpt lat="49.46569" lon="0.96109">
        <ele>125.59</ele>
        <time>2018-05-03T18:38:14Z</time>
      </trkpt>
      <trkpt lat="49.46572" lon="0.96104">
        <ele>125.59</ele>
        <time>2018-05-03T18:38:15Z</time>
      </trkpt>
      <trkpt lat="49.46583" lon="0.96088">
        <ele>125.59</ele>
        <time>2018-05-03T18:38:18Z</time>
      </trkpt>
      <trkpt lat="49.46588" lon="0.96077">
        <ele>125.59</ele>
        <time>2018-05-03T18:38:20Z</time>
      </trkpt>
      <trkpt lat="49.46592" lon="0.96072">
        <ele>125.59</ele>
        <time>2018-05-03T18:38:21Z</time>
      </trkpt>
      <trkpt lat="49.46595" lon="0.96068">
        <ele>125.59</ele>
        <time>2018-05-03T18:38:22Z</time>
      </trkpt>
      <trkpt lat="49.46599" lon="0.96065">
        <ele>125.59</ele>
        <time>2018-05-03T18:38:23Z</time>
      </trkpt>
      <trkpt lat="49.46603" lon="0.96062">
        <ele>125.59</ele>
        <time>2018-05-03T18:38:24Z</time>
      </trkpt>
      <trkpt lat="49.46619" lon="0.96047">
        <ele>125.59</ele>
        <time>2018-05-03T18:38:28Z</time>
      </trkpt>
      <trkpt lat="49.46622" lon="0.96042">
        <ele>125.59</ele>
        <time>2018-05-03T18:38:29Z</time>
      </trkpt>
      <trkpt lat="49.46626" lon="0.96037">
        <ele>125.59</ele>
        <time>2018-05-03T18:38:30Z</time>
      </trkpt>
      <trkpt lat="49.46639" lon="0.96021">
        <ele>125.59</ele>
        <time>2018-05-03T18:38:33Z</time>
      </trkpt>
      <trkpt lat="49.46643" lon="0.96018">
        <ele>125.59</ele>
        <time>2018-05-03T18:38:34Z</time>
      </trkpt>
      <trkpt lat="49.46657" lon="0.9601">
        <ele>124.63</ele>
        <time>2018-05-03T18:38:37Z</time>
      </trkpt>
      <trkpt lat="49.46679" lon="0.95995">
        <ele>124.63</ele>
        <time>2018-05-03T18:38:42Z</time>
      </trkpt>
      <trkpt lat="49.46683" lon="0.95993">
        <ele>124.63</ele>
        <time>2018-05-03T18:38:43Z</time>
      </trkpt>
      <trkpt lat="49.46697" lon="0.95989">
        <ele>124.63</ele>
        <time>2018-05-03T18:38:46Z</time>
      </trkpt>
      <trkpt lat="49.46702" lon="0.95987">
        <ele>124.63</ele>
        <time>2018-05-03T18:38:47Z</time>
      </trkpt>
      <trkpt lat="49.46715" lon="0.9598">
        <ele>124.63</ele>
        <time>2018-05-03T18:38:50Z</time>
      </trkpt>
      <trkpt lat="49.46719" lon="0.95978">
        <ele>124.63</ele>
        <time>2018-05-03T18:38:51Z</time>
      </trkpt>
      <trkpt lat="49.46725" lon="0.95976">
        <ele>124.63</ele>
        <time>2018-05-03T18:38:52Z</time>
      </trkpt>
      <trkpt lat="49.46729" lon="0.95974">
        <ele>124.63</ele>
        <time>2018-05-03T18:38:53Z</time>
      </trkpt>
      <trkpt lat="49.46734" lon="0.95971">
        <ele>124.63</ele>
        <time>2018-05-03T18:38:54Z</time>
      </trkpt>
      <trkpt lat="49.46738" lon="0.95967">
        <ele>124.63</ele>
        <time>2018-05-03T18:38:55Z</time>
      </trkpt>
      <trkpt lat="49.4675" lon="0.95955">
        <ele>124.63</ele>
        <time>2018-05-03T18:38:59Z</time>
      </trkpt>
      <trkpt lat="49.46752" lon="0.95953">
        <ele>124.63</ele>
        <time>2018-05-03T18:39:00Z</time>
      </trkpt>
      <trkpt lat="49.46754" lon="0.95953">
        <ele>124.63</ele>
        <time>2018-05-03T18:39:01Z</time>
      </trkpt>
      <trkpt lat="49.46757" lon="0.95951">
        <ele>124.63</ele>
        <time>2018-05-03T18:39:02Z</time>
      </trkpt>
      <trkpt lat="49.46761" lon="0.95949">
        <ele>124.63</ele>
        <time>2018-05-03T18:39:03Z</time>
      </trkpt>
      <trkpt lat="49.46779" lon="0.95939">
        <ele>124.63</ele>
        <time>2018-05-03T18:39:07Z</time>
      </trkpt>
      <trkpt lat="49.46784" lon="0.95937">
        <ele>124.63</ele>
        <time>2018-05-03T18:39:08Z</time>
      </trkpt>
      <trkpt lat="49.46789" lon="0.95935">
        <ele>124.63</ele>
        <time>2018-05-03T18:39:09Z</time>
      </trkpt>
      <trkpt lat="49.46815" lon="0.95927">
        <ele>124.63</ele>
        <time>2018-05-03T18:39:14Z</time>
      </trkpt>
      <trkpt lat="49.4682" lon="0.95927">
        <ele>124.63</ele>
        <time>2018-05-03T18:39:15Z</time>
      </trkpt>
      <trkpt lat="49.46825" lon="0.95927">
        <ele>124.63</ele>
        <time>2018-05-03T18:39:16Z</time>
      </trkpt>
      <trkpt lat="49.4683" lon="0.95927">
        <ele>124.63</ele>
        <time>2018-05-03T18:39:17Z</time>
      </trkpt>
      <trkpt lat="49.46834" lon="0.95927">
        <ele>124.63</ele>
        <time>2018-05-03T18:39:18Z</time>
      </trkpt>
      <trkpt lat="49.46839" lon="0.95925">
        <ele>124.63</ele>
        <time>2018-05-03T18:39:19Z</time>
      </trkpt>
      <trkpt lat="49.46843" lon="0.95923">
        <ele>126.07</ele>
        <time>2018-05-03T18:39:20Z</time>
      </trkpt>
      <trkpt lat="49.46847" lon="0.95921">
        <ele>126.07</ele>
        <time>2018-05-03T18:39:21Z</time>
      </trkpt>
      <trkpt lat="49.4686" lon="0.95918">
        <ele>126.07</ele>
        <time>2018-05-03T18:39:24Z</time>
      </trkpt>
      <trkpt lat="49.46876" lon="0.95908">
        <ele>126.55</ele>
        <time>2018-05-03T18:39:28Z</time>
      </trkpt>
      <trkpt lat="49.4688" lon="0.95905">
        <ele>126.55</ele>
        <time>2018-05-03T18:39:29Z</time>
      </trkpt>
      <trkpt lat="49.46913" lon="0.95891">
        <ele>126.55</ele>
        <time>2018-05-03T18:39:36Z</time>
      </trkpt>
      <trkpt lat="49.46917" lon="0.95888">
        <ele>126.55</ele>
        <time>2018-05-03T18:39:37Z</time>
      </trkpt>
      <trkpt lat="49.4692" lon="0.95885">
        <ele>126.55</ele>
        <time>2018-05-03T18:39:38Z</time>
      </trkpt>
      <trkpt lat="49.46924" lon="0.95881">
        <ele>126.55</ele>
        <time>2018-05-03T18:39:39Z</time>
      </trkpt>
      <trkpt lat="49.46927" lon="0.95878">
        <ele>126.55</ele>
        <time>2018-05-03T18:39:40Z</time>
      </trkpt>
      <trkpt lat="49.4693" lon="0.95875">
        <ele>126.55</ele>
        <time>2018-05-03T18:39:41Z</time>
      </trkpt>
      <trkpt lat="49.46932" lon="0.95872">
        <ele>126.55</ele>
        <time>2018-05-03T18:39:42Z</time>
      </trkpt>
      <trkpt lat="49.46935" lon="0.9587">
        <ele>126.55</ele>
        <time>2018-05-03T18:39:43Z</time>
      </trkpt>
      <trkpt lat="49.46937" lon="0.95868">
        <ele>126.55</ele>
        <time>2018-05-03T18:39:44Z</time>
      </trkpt>
      <trkpt lat="49.46939" lon="0.95867">
        <ele>126.55</ele>
        <time>2018-05-03T18:39:45Z</time>
      </trkpt>
      <trkpt lat="49.46941" lon="0.95866">
        <ele>126.55</ele>
        <time>2018-05-03T18:39:46Z</time>
      </trkpt>
      <trkpt lat="49.46943" lon="0.95864">
        <ele>126.55</ele>
        <time>2018-05-03T18:39:47Z</time>
      </trkpt>
      <trkpt lat="49.46961" lon="0.95853">
        <ele>126.55</ele>
        <time>2018-05-03T18:39:53Z</time>
      </trkpt>
      <trkpt lat="49.46967" lon="0.95852">
        <ele>126.55</ele>
        <time>2018-05-03T18:39:55Z</time>
      </trkpt>
      <trkpt lat="49.46977" lon="0.95849">
        <ele>126.55</ele>
        <time>2018-05-03T18:39:57Z</time>
      </trkpt>
      <trkpt lat="49.47022" lon="0.95842">
        <ele>127.03</ele>
        <time>2018-05-03T18:40:08Z</time>
      </trkpt>
      <trkpt lat="49.47026" lon="0.95841">
        <ele>127.03</ele>
        <time>2018-05-03T18:40:09Z</time>
      </trkpt>
      <trkpt lat="49.47029" lon="0.95839">
        <ele>127.03</ele>
        <time>2018-05-03T18:40:10Z</time>
      </trkpt>
      <trkpt lat="49.47031" lon="0.95836">
        <ele>127.03</ele>
        <time>2018-05-03T18:40:11Z</time>
      </trkpt>
      <trkpt lat="49.47033" lon="0.95834">
        <ele>127.03</ele>
        <time>2018-05-03T18:40:12Z</time>
      </trkpt>
      <trkpt lat="49.4706" lon="0.95796">
        <ele>127.03</ele>
        <time>2018-05-03T18:40:21Z</time>
      </trkpt>
      <trkpt lat="49.47081" lon="0.95778">
        <ele>127.03</ele>
        <time>2018-05-03T18:40:26Z</time>
      </trkpt>
      <trkpt lat="49.47085" lon="0.95776">
        <ele>127.03</ele>
        <time>2018-05-03T18:40:27Z</time>
      </trkpt>
      <trkpt lat="49.4709" lon="0.95774">
        <ele>127.03</ele>
        <time>2018-05-03T18:40:28Z</time>
      </trkpt>
      <trkpt lat="49.47145" lon="0.95747">
        <ele>126.07</ele>
        <time>2018-05-03T18:40:37Z</time>
      </trkpt>
      <trkpt lat="49.47151" lon="0.95742">
        <ele>126.07</ele>
        <time>2018-05-03T18:40:38Z</time>
      </trkpt>
      <trkpt lat="49.47156" lon="0.95737">
        <ele>126.07</ele>
        <time>2018-05-03T18:40:39Z</time>
      </trkpt>
      <trkpt lat="49.47161" lon="0.95731">
        <ele>125.59</ele>
        <time>2018-05-03T18:40:40Z</time>
      </trkpt>
      <trkpt lat="49.47165" lon="0.95723">
        <ele>125.59</ele>
        <time>2018-05-03T18:40:41Z</time>
      </trkpt>
      <trkpt lat="49.4717" lon="0.95716">
        <ele>125.59</ele>
        <time>2018-05-03T18:40:42Z</time>
      </trkpt>
      <trkpt lat="49.47185" lon="0.95693">
        <ele>125.11</ele>
        <time>2018-05-03T18:40:45Z</time>
      </trkpt>
      <trkpt lat="49.47196" lon="0.95669">
        <ele>124.15</ele>
        <time>2018-05-03T18:40:48Z</time>
      </trkpt>
      <trkpt lat="49.47208" lon="0.95647">
        <ele>123.67</ele>
        <time>2018-05-03T18:40:51Z</time>
      </trkpt>
      <trkpt lat="49.47211" lon="0.95638">
        <ele>123.19</ele>
        <time>2018-05-03T18:40:52Z</time>
      </trkpt>
      <trkpt lat="49.47229" lon="0.95581">
        <ele>121.74</ele>
        <time>2018-05-03T18:40:58Z</time>
      </trkpt>
      <trkpt lat="49.47238" lon="0.9554">
        <ele>121.74</ele>
        <time>2018-05-03T18:41:03Z</time>
      </trkpt>
      <trkpt lat="49.47256" lon="0.95493">
        <ele>121.74</ele>
        <time>2018-05-03T18:41:09Z</time>
      </trkpt>
      <trkpt lat="49.47262" lon="0.95477">
        <ele>121.74</ele>
        <time>2018-05-03T18:41:11Z</time>
      </trkpt>
      <trkpt lat="49.47281" lon="0.95437">
        <ele>121.74</ele>
        <time>2018-05-03T18:41:17Z</time>
      </trkpt>
      <trkpt lat="49.47284" lon="0.95432">
        <ele>121.74</ele>
        <time>2018-05-03T18:41:18Z</time>
      </trkpt>
      <trkpt lat="49.47288" lon="0.95427">
        <ele>121.74</ele>
        <time>2018-05-03T18:41:19Z</time>
      </trkpt>
      <trkpt lat="49.47291" lon="0.95422">
        <ele>121.74</ele>
        <time>2018-05-03T18:41:20Z</time>
      </trkpt>
      <trkpt lat="49.47295" lon="0.95416">
        <ele>121.74</ele>
        <time>2018-05-03T18:41:21Z</time>
      </trkpt>
      <trkpt lat="49.473" lon="0.9541">
        <ele>121.74</ele>
        <time>2018-05-03T18:41:22Z</time>
      </trkpt>
      <trkpt lat="49.47305" lon="0.95406">
        <ele>121.74</ele>
        <time>2018-05-03T18:41:23Z</time>
      </trkpt>
      <trkpt lat="49.47311" lon="0.95403">
        <ele>121.74</ele>
        <time>2018-05-03T18:41:24Z</time>
      </trkpt>
      <trkpt lat="49.47335" lon="0.95396">
        <ele>121.74</ele>
        <time>2018-05-03T18:41:29Z</time>
      </trkpt>
      <trkpt lat="49.47344" lon="0.95398">
        <ele>121.74</ele>
        <time>2018-05-03T18:41:31Z</time>
      </trkpt>
      <trkpt lat="49.47348" lon="0.95401">
        <ele>120.78</ele>
        <time>2018-05-03T18:41:32Z</time>
      </trkpt>
      <trkpt lat="49.47351" lon="0.95406">
        <ele>120.78</ele>
        <time>2018-05-03T18:41:33Z</time>
      </trkpt>
      <trkpt lat="49.47355" lon="0.95413">
        <ele>120.78</ele>
        <time>2018-05-03T18:41:34Z</time>
      </trkpt>
      <trkpt lat="49.47357" lon="0.95418">
        <ele>120.78</ele>
        <time>2018-05-03T18:41:35Z</time>
      </trkpt>
      <trkpt lat="49.47362" lon="0.95434">
        <ele>120.3</ele>
        <time>2018-05-03T18:41:37Z</time>
      </trkpt>
      <trkpt lat="49.47364" lon="0.95442">
        <ele>120.3</ele>
        <time>2018-05-03T18:41:38Z</time>
      </trkpt>
      <trkpt lat="49.47387" lon="0.95535">
        <ele>117.9</ele>
        <time>2018-05-03T18:41:49Z</time>
      </trkpt>
      <trkpt lat="49.4739" lon="0.95554">
        <ele>117.42</ele>
        <time>2018-05-03T18:41:51Z</time>
      </trkpt>
      <trkpt lat="49.47391" lon="0.95563">
        <ele>116.94</ele>
        <time>2018-05-03T18:41:52Z</time>
      </trkpt>
      <trkpt lat="49.47391" lon="0.95591">
        <ele>116.94</ele>
        <time>2018-05-03T18:41:55Z</time>
      </trkpt>
      <trkpt lat="49.4739" lon="0.95616">
        <ele>116.94</ele>
        <time>2018-05-03T18:41:58Z</time>
      </trkpt>
      <trkpt lat="49.4739" lon="0.95624">
        <ele>116.94</ele>
        <time>2018-05-03T18:41:59Z</time>
      </trkpt>
      <trkpt lat="49.47402" lon="0.95694">
        <ele>119.82</ele>
        <time>2018-05-03T18:42:08Z</time>
      </trkpt>
      <trkpt lat="49.47405" lon="0.95701">
        <ele>119.82</ele>
        <time>2018-05-03T18:42:09Z</time>
      </trkpt>
      <trkpt lat="49.47411" lon="0.95713">
        <ele>119.82</ele>
        <time>2018-05-03T18:42:11Z</time>
      </trkpt>
      <trkpt lat="49.47415" lon="0.9572">
        <ele>119.82</ele>
        <time>2018-05-03T18:42:12Z</time>
      </trkpt>
      <trkpt lat="49.47422" lon="0.95733">
        <ele>118.38</ele>
        <time>2018-05-03T18:42:14Z</time>
      </trkpt>
      <trkpt lat="49.47425" lon="0.95742">
        <ele>118.38</ele>
        <time>2018-05-03T18:42:15Z</time>
      </trkpt>
      <trkpt lat="49.47427" lon="0.95754">
        <ele>118.38</ele>
        <time>2018-05-03T18:42:17Z</time>
      </trkpt>
      <trkpt lat="49.47427" lon="0.95758">
        <ele>118.38</ele>
        <time>2018-05-03T18:42:18Z</time>
      </trkpt>
      <trkpt lat="49.47428" lon="0.95764">
        <ele>118.38</ele>
        <time>2018-05-03T18:42:22Z</time>
      </trkpt>
      <trkpt lat="49.47429" lon="0.95767">
        <ele>118.38</ele>
        <time>2018-05-03T18:42:23Z</time>
      </trkpt>
      <trkpt lat="49.47431" lon="0.95772">
        <ele>118.38</ele>
        <time>2018-05-03T18:42:24Z</time>
      </trkpt>
      <trkpt lat="49.47433" lon="0.95777">
        <ele>118.38</ele>
        <time>2018-05-03T18:42:25Z</time>
      </trkpt>
      <trkpt lat="49.47435" lon="0.95781">
        <ele>117.9</ele>
        <time>2018-05-03T18:42:26Z</time>
      </trkpt>
      <trkpt lat="49.47437" lon="0.95787">
        <ele>117.9</ele>
        <time>2018-05-03T18:42:27Z</time>
      </trkpt>
      <trkpt lat="49.47443" lon="0.95812">
        <ele>119.34</ele>
        <time>2018-05-03T18:42:31Z</time>
      </trkpt>
      <trkpt lat="49.47445" lon="0.95818">
        <ele>119.34</ele>
        <time>2018-05-03T18:42:32Z</time>
      </trkpt>
      <trkpt lat="49.47446" lon="0.95824">
        <ele>120.3</ele>
        <time>2018-05-03T18:42:33Z</time>
      </trkpt>
      <trkpt lat="49.47449" lon="0.95829">
        <ele>120.78</ele>
        <time>2018-05-03T18:42:34Z</time>
      </trkpt>
      <trkpt lat="49.47452" lon="0.95834">
        <ele>121.26</ele>
        <time>2018-05-03T18:42:35Z</time>
      </trkpt>
      <trkpt lat="49.47455" lon="0.95838">
        <ele>121.74</ele>
        <time>2018-05-03T18:42:36Z</time>
      </trkpt>
      <trkpt lat="49.47459" lon="0.95841">
        <ele>122.22</ele>
        <time>2018-05-03T18:42:37Z</time>
      </trkpt>
      <trkpt lat="49.47465" lon="0.95844">
        <ele>122.22</ele>
        <time>2018-05-03T18:42:38Z</time>
      </trkpt>
      <trkpt lat="49.47469" lon="0.95845">
        <ele>123.19</ele>
        <time>2018-05-03T18:42:39Z</time>
      </trkpt>
      <trkpt lat="49.4748" lon="0.95845">
        <ele>123.19</ele>
        <time>2018-05-03T18:42:41Z</time>
      </trkpt>
      <trkpt lat="49.47495" lon="0.95847">
        <ele>123.67</ele>
        <time>2018-05-03T18:42:44Z</time>
      </trkpt>
      <trkpt lat="49.47542" lon="0.95886">
        <ele>124.63</ele>
        <time>2018-05-03T18:42:54Z</time>
      </trkpt>
      <trkpt lat="49.47545" lon="0.95889">
        <ele>124.63</ele>
        <time>2018-05-03T18:42:55Z</time>
      </trkpt>
      <trkpt lat="49.47548" lon="0.95894">
        <ele>124.63</ele>
        <time>2018-05-03T18:42:56Z</time>
      </trkpt>
      <trkpt lat="49.47551" lon="0.95898">
        <ele>125.11</ele>
        <time>2018-05-03T18:42:57Z</time>
      </trkpt>
      <trkpt lat="49.47554" lon="0.95901">
        <ele>125.11</ele>
        <time>2018-05-03T18:42:58Z</time>
      </trkpt>
      <trkpt lat="49.47558" lon="0.95904">
        <ele>125.11</ele>
        <time>2018-05-03T18:42:59Z</time>
      </trkpt>
      <trkpt lat="49.47565" lon="0.95904">
        <ele>125.11</ele>
        <time>2018-05-03T18:43:00Z</time>
      </trkpt>
      <trkpt lat="49.4757" lon="0.95902">
        <ele>125.59</ele>
        <time>2018-05-03T18:43:01Z</time>
      </trkpt>
      <trkpt lat="49.47574" lon="0.95901">
        <ele>125.59</ele>
        <time>2018-05-03T18:43:02Z</time>
      </trkpt>
      <trkpt lat="49.47579" lon="0.95899">
        <ele>125.59</ele>
        <time>2018-05-03T18:43:03Z</time>
      </trkpt>
      <trkpt lat="49.47585" lon="0.95897">
        <ele>125.59</ele>
        <time>2018-05-03T18:43:04Z</time>
      </trkpt>
      <trkpt lat="49.47669" lon="0.95875">
        <ele>126.07</ele>
        <time>2018-05-03T18:43:19Z</time>
      </trkpt>
      <trkpt lat="49.47675" lon="0.95875">
        <ele>126.07</ele>
        <time>2018-05-03T18:43:20Z</time>
      </trkpt>
      <trkpt lat="49.4768" lon="0.95875">
        <ele>126.07</ele>
        <time>2018-05-03T18:43:21Z</time>
      </trkpt>
      <trkpt lat="49.47686" lon="0.95877">
        <ele>126.55</ele>
        <time>2018-05-03T18:43:22Z</time>
      </trkpt>
      <trkpt lat="49.47692" lon="0.95879">
        <ele>126.55</ele>
        <time>2018-05-03T18:43:23Z</time>
      </trkpt>
      <trkpt lat="49.47704" lon="0.95884">
        <ele>126.55</ele>
        <time>2018-05-03T18:43:25Z</time>
      </trkpt>
      <trkpt lat="49.47709" lon="0.95888">
        <ele>126.55</ele>
        <time>2018-05-03T18:43:26Z</time>
      </trkpt>
      <trkpt lat="49.47754" lon="0.95918">
        <ele>127.03</ele>
        <time>2018-05-03T18:43:34Z</time>
      </trkpt>
      <trkpt lat="49.47759" lon="0.95918">
        <ele>127.03</ele>
        <time>2018-05-03T18:43:35Z</time>
      </trkpt>
      <trkpt lat="49.47766" lon="0.95919">
        <ele>127.03</ele>
        <time>2018-05-03T18:43:36Z</time>
      </trkpt>
      <trkpt lat="49.47772" lon="0.95919">
        <ele>127.03</ele>
        <time>2018-05-03T18:43:37Z</time>
      </trkpt>
      <trkpt lat="49.47778" lon="0.95918">
        <ele>127.03</ele>
        <time>2018-05-03T18:43:38Z</time>
      </trkpt>
      <trkpt lat="49.47785" lon="0.95916">
        <ele>127.03</ele>
        <time>2018-05-03T18:43:39Z</time>
      </trkpt>
      <trkpt lat="49.4779" lon="0.95914">
        <ele>127.03</ele>
        <time>2018-05-03T18:43:40Z</time>
      </trkpt>
      <trkpt lat="49.47795" lon="0.95911">
        <ele>127.03</ele>
        <time>2018-05-03T18:43:41Z</time>
      </trkpt>
      <trkpt lat="49.47801" lon="0.95907">
        <ele>127.03</ele>
        <time>2018-05-03T18:43:42Z</time>
      </trkpt>
      <trkpt lat="49.47807" lon="0.95902">
        <ele>127.03</ele>
        <time>2018-05-03T18:43:43Z</time>
      </trkpt>
      <trkpt lat="49.47813" lon="0.95897">
        <ele>127.03</ele>
        <time>2018-05-03T18:43:44Z</time>
      </trkpt>
      <trkpt lat="49.47895" lon="0.95802">
        <ele>127.03</ele>
        <time>2018-05-03T18:43:59Z</time>
      </trkpt>
      <trkpt lat="49.48003" lon="0.95662">
        <ele>127.03</ele>
        <time>2018-05-03T18:44:19Z</time>
      </trkpt>
      <trkpt lat="49.48076" lon="0.95564">
        <ele>125.59</ele>
        <time>2018-05-03T18:44:34Z</time>
      </trkpt>
      <trkpt lat="49.48079" lon="0.95557">
        <ele>125.59</ele>
        <time>2018-05-03T18:44:35Z</time>
      </trkpt>
      <trkpt lat="49.4808" lon="0.95547">
        <ele>125.59</ele>
        <time>2018-05-03T18:44:36Z</time>
      </trkpt>
      <trkpt lat="49.48079" lon="0.95538">
        <ele>125.11</ele>
        <time>2018-05-03T18:44:37Z</time>
      </trkpt>
      <trkpt lat="49.48077" lon="0.95529">
        <ele>125.11</ele>
        <time>2018-05-03T18:44:38Z</time>
      </trkpt>
      <trkpt lat="49.48064" lon="0.95471">
        <ele>125.11</ele>
        <time>2018-05-03T18:44:44Z</time>
      </trkpt>
      <trkpt lat="49.4806" lon="0.95462">
        <ele>125.11</ele>
        <time>2018-05-03T18:44:45Z</time>
      </trkpt>
      <trkpt lat="49.48056" lon="0.95453">
        <ele>125.11</ele>
        <time>2018-05-03T18:44:46Z</time>
      </trkpt>
      <trkpt lat="49.47984" lon="0.95326">
        <ele>123.19</ele>
        <time>2018-05-03T18:45:02Z</time>
      </trkpt>
      <trkpt lat="49.47951" lon="0.95264">
        <ele>122.71</ele>
        <time>2018-05-03T18:45:10Z</time>
      </trkpt>
      <trkpt lat="49.47949" lon="0.95254">
        <ele>122.22</ele>
        <time>2018-05-03T18:45:11Z</time>
      </trkpt>
      <trkpt lat="49.47949" lon="0.95243">
        <ele>121.74</ele>
        <time>2018-05-03T18:45:12Z</time>
      </trkpt>
      <trkpt lat="49.4795" lon="0.95231">
        <ele>121.74</ele>
        <time>2018-05-03T18:45:13Z</time>
      </trkpt>
      <trkpt lat="49.47953" lon="0.95223">
        <ele>121.74</ele>
        <time>2018-05-03T18:45:14Z</time>
      </trkpt>
      <trkpt lat="49.47957" lon="0.95213">
        <ele>121.74</ele>
        <time>2018-05-03T18:45:15Z</time>
      </trkpt>
      <trkpt lat="49.47961" lon="0.95203">
        <ele>121.74</ele>
        <time>2018-05-03T18:45:16Z</time>
      </trkpt>
      <trkpt lat="49.47965" lon="0.95195">
        <ele>121.74</ele>
        <time>2018-05-03T18:45:17Z</time>
      </trkpt>
      <trkpt lat="49.47984" lon="0.95147">
        <ele>121.74</ele>
        <time>2018-05-03T18:45:22Z</time>
      </trkpt>
      <trkpt lat="49.47987" lon="0.95138">
        <ele>121.74</ele>
        <time>2018-05-03T18:45:23Z</time>
      </trkpt>
      <trkpt lat="49.48005" lon="0.95091">
        <ele>121.74</ele>
        <time>2018-05-03T18:45:29Z</time>
      </trkpt>
      <trkpt lat="49.48007" lon="0.95084">
        <ele>121.26</ele>
        <time>2018-05-03T18:45:30Z</time>
      </trkpt>
      <trkpt lat="49.48008" lon="0.95078">
        <ele>121.26</ele>
        <time>2018-05-03T18:45:31Z</time>
      </trkpt>
      <trkpt lat="49.48009" lon="0.95074">
        <ele>121.26</ele>
        <time>2018-05-03T18:45:32Z</time>
      </trkpt>
      <trkpt lat="49.48009" lon="0.95072">
        <ele>121.26</ele>
        <time>2018-05-03T18:45:33Z</time>
      </trkpt>
      <trkpt lat="49.48008" lon="0.95068">
        <ele>120.78</ele>
        <time>2018-05-03T18:45:38Z</time>
      </trkpt>
      <trkpt lat="49.48017" lon="0.95026">
        <ele>120.78</ele>
        <time>2018-05-03T18:45:47Z</time>
      </trkpt>
      <trkpt lat="49.48046" lon="0.94947">
        <ele>119.34</ele>
        <time>2018-05-03T18:45:57Z</time>
      </trkpt>
      <trkpt lat="49.48066" lon="0.94881">
        <ele>118.38</ele>
        <time>2018-05-03T18:46:05Z</time>
      </trkpt>
      <trkpt lat="49.48071" lon="0.94842">
        <ele>117.42</ele>
        <time>2018-05-03T18:46:09Z</time>
      </trkpt>
      <trkpt lat="49.48072" lon="0.94764">
        <ele>116.94</ele>
        <time>2018-05-03T18:46:17Z</time>
      </trkpt>
      <trkpt lat="49.48076" lon="0.94725">
        <ele>115.5</ele>
        <time>2018-05-03T18:46:21Z</time>
      </trkpt>
      <trkpt lat="49.48087" lon="0.94673">
        <ele>115.01</ele>
        <time>2018-05-03T18:46:26Z</time>
      </trkpt>
      <trkpt lat="49.4809" lon="0.94665">
        <ele>114.05</ele>
        <time>2018-05-03T18:46:27Z</time>
      </trkpt>
      <trkpt lat="49.48092" lon="0.94658">
        <ele>114.05</ele>
        <time>2018-05-03T18:46:28Z</time>
      </trkpt>
      <trkpt lat="49.48095" lon="0.94651">
        <ele>114.05</ele>
        <time>2018-05-03T18:46:29Z</time>
      </trkpt>
      <trkpt lat="49.48099" lon="0.94645">
        <ele>114.05</ele>
        <time>2018-05-03T18:46:30Z</time>
      </trkpt>
      <trkpt lat="49.48103" lon="0.9464">
        <ele>113.57</ele>
        <time>2018-05-03T18:46:31Z</time>
      </trkpt>
      <trkpt lat="49.48108" lon="0.94634">
        <ele>113.57</ele>
        <time>2018-05-03T18:46:32Z</time>
      </trkpt>
      <trkpt lat="49.48113" lon="0.94628">
        <ele>113.57</ele>
        <time>2018-05-03T18:46:33Z</time>
      </trkpt>
      <trkpt lat="49.4814" lon="0.94597">
        <ele>112.61</ele>
        <time>2018-05-03T18:46:39Z</time>
      </trkpt>
      <trkpt lat="49.48142" lon="0.94591">
        <ele>112.61</ele>
        <time>2018-05-03T18:46:40Z</time>
      </trkpt>
      <trkpt lat="49.48143" lon="0.94586">
        <ele>112.13</ele>
        <time>2018-05-03T18:46:41Z</time>
      </trkpt>
      <trkpt lat="49.48143" lon="0.9458">
        <ele>112.13</ele>
        <time>2018-05-03T18:46:42Z</time>
      </trkpt>
      <trkpt lat="49.48142" lon="0.94574">
        <ele>112.13</ele>
        <time>2018-05-03T18:46:43Z</time>
      </trkpt>
      <trkpt lat="49.48141" lon="0.94567">
        <ele>112.13</ele>
        <time>2018-05-03T18:46:44Z</time>
      </trkpt>
      <trkpt lat="49.4814" lon="0.94558">
        <ele>112.13</ele>
        <time>2018-05-03T18:46:45Z</time>
      </trkpt>
      <trkpt lat="49.48138" lon="0.9455">
        <ele>112.13</ele>
        <time>2018-05-03T18:46:46Z</time>
      </trkpt>
      <trkpt lat="49.48134" lon="0.94531">
        <ele>112.13</ele>
        <time>2018-05-03T18:46:48Z</time>
      </trkpt>
      <trkpt lat="49.48129" lon="0.94513">
        <ele>111.17</ele>
        <time>2018-05-03T18:46:50Z</time>
      </trkpt>
      <trkpt lat="49.48122" lon="0.94482">
        <ele>110.69</ele>
        <time>2018-05-03T18:46:53Z</time>
      </trkpt>
      <trkpt lat="49.48102" lon="0.94419">
        <ele>109.25</ele>
        <time>2018-05-03T18:47:00Z</time>
      </trkpt>
      <trkpt lat="49.481" lon="0.94412">
        <ele>108.77</ele>
        <time>2018-05-03T18:47:01Z</time>
      </trkpt>
      <trkpt lat="49.48098" lon="0.94404">
        <ele>108.77</ele>
        <time>2018-05-03T18:47:02Z</time>
      </trkpt>
      <trkpt lat="49.48097" lon="0.94397">
        <ele>108.77</ele>
        <time>2018-05-03T18:47:03Z</time>
      </trkpt>
      <trkpt lat="49.48097" lon="0.94391">
        <ele>108.77</ele>
        <time>2018-05-03T18:47:04Z</time>
      </trkpt>
      <trkpt lat="49.48098" lon="0.94385">
        <ele>108.77</ele>
        <time>2018-05-03T18:47:05Z</time>
      </trkpt>
      <trkpt lat="49.48104" lon="0.94376">
        <ele>108.29</ele>
        <time>2018-05-03T18:47:07Z</time>
      </trkpt>
      <trkpt lat="49.48107" lon="0.94372">
        <ele>108.29</ele>
        <time>2018-05-03T18:47:08Z</time>
      </trkpt>
      <trkpt lat="49.48121" lon="0.94348">
        <ele>107.81</ele>
        <time>2018-05-03T18:47:12Z</time>
      </trkpt>
      <trkpt lat="49.48128" lon="0.94264">
        <ele>110.21</ele>
        <time>2018-05-03T18:47:22Z</time>
      </trkpt>
      <trkpt lat="49.48129" lon="0.94257">
        <ele>110.21</ele>
        <time>2018-05-03T18:47:23Z</time>
      </trkpt>
      <trkpt lat="49.48131" lon="0.9425">
        <ele>110.69</ele>
        <time>2018-05-03T18:47:24Z</time>
      </trkpt>
      <trkpt lat="49.48134" lon="0.94234">
        <ele>110.69</ele>
        <time>2018-05-03T18:47:26Z</time>
      </trkpt>
      <trkpt lat="49.48135" lon="0.94227">
        <ele>111.17</ele>
        <time>2018-05-03T18:47:27Z</time>
      </trkpt>
      <trkpt lat="49.48151" lon="0.94147">
        <ele>111.17</ele>
        <time>2018-05-03T18:47:40Z</time>
      </trkpt>
      <trkpt lat="49.48159" lon="0.94085">
        <ele>109.73</ele>
        <time>2018-05-03T18:47:49Z</time>
      </trkpt>
      <trkpt lat="49.48159" lon="0.94074">
        <ele>109.73</ele>
        <time>2018-05-03T18:47:50Z</time>
      </trkpt>
      <trkpt lat="49.48158" lon="0.94064">
        <ele>109.25</ele>
        <time>2018-05-03T18:47:51Z</time>
      </trkpt>
      <trkpt lat="49.48157" lon="0.94054">
        <ele>109.25</ele>
        <time>2018-05-03T18:47:52Z</time>
      </trkpt>
      <trkpt lat="49.48157" lon="0.94043">
        <ele>109.25</ele>
        <time>2018-05-03T18:47:53Z</time>
      </trkpt>
      <trkpt lat="49.48156" lon="0.94034">
        <ele>109.25</ele>
        <time>2018-05-03T18:47:54Z</time>
      </trkpt>
      <trkpt lat="49.48156" lon="0.94016">
        <ele>109.25</ele>
        <time>2018-05-03T18:47:56Z</time>
      </trkpt>
      <trkpt lat="49.48154" lon="0.94008">
        <ele>108.77</ele>
        <time>2018-05-03T18:47:57Z</time>
      </trkpt>
      <trkpt lat="49.48153" lon="0.94">
        <ele>108.77</ele>
        <time>2018-05-03T18:47:58Z</time>
      </trkpt>
      <trkpt lat="49.48153" lon="0.93991">
        <ele>108.77</ele>
        <time>2018-05-03T18:47:59Z</time>
      </trkpt>
      <trkpt lat="49.48153" lon="0.93981">
        <ele>108.77</ele>
        <time>2018-05-03T18:48:00Z</time>
      </trkpt>
      <trkpt lat="49.48153" lon="0.93973">
        <ele>108.77</ele>
        <time>2018-05-03T18:48:01Z</time>
      </trkpt>
      <trkpt lat="49.48152" lon="0.93962">
        <ele>108.77</ele>
        <time>2018-05-03T18:48:02Z</time>
      </trkpt>
      <trkpt lat="49.48152" lon="0.93952">
        <ele>108.29</ele>
        <time>2018-05-03T18:48:03Z</time>
      </trkpt>
      <trkpt lat="49.48154" lon="0.93942">
        <ele>108.29</ele>
        <time>2018-05-03T18:48:04Z</time>
      </trkpt>
      <trkpt lat="49.48155" lon="0.93932">
        <ele>107.81</ele>
        <time>2018-05-03T18:48:05Z</time>
      </trkpt>
      <trkpt lat="49.48171" lon="0.93865">
        <ele>104.92</ele>
        <time>2018-05-03T18:48:11Z</time>
      </trkpt>
      <trkpt lat="49.48175" lon="0.93841">
        <ele>103</ele>
        <time>2018-05-03T18:48:13Z</time>
      </trkpt>
      <trkpt lat="49.48177" lon="0.93821">
        <ele>101.56</ele>
        <time>2018-05-03T18:48:15Z</time>
      </trkpt>
      <trkpt lat="49.48176" lon="0.93814">
        <ele>101.08</ele>
        <time>2018-05-03T18:48:16Z</time>
      </trkpt>
      <trkpt lat="49.48175" lon="0.93807">
        <ele>101.08</ele>
        <time>2018-05-03T18:48:17Z</time>
      </trkpt>
      <trkpt lat="49.48175" lon="0.938">
        <ele>101.08</ele>
        <time>2018-05-03T18:48:18Z</time>
      </trkpt>
      <trkpt lat="49.48176" lon="0.93792">
        <ele>100.6</ele>
        <time>2018-05-03T18:48:19Z</time>
      </trkpt>
      <trkpt lat="49.48178" lon="0.93784">
        <ele>100.11</ele>
        <time>2018-05-03T18:48:20Z</time>
      </trkpt>
      <trkpt lat="49.48181" lon="0.93768">
        <ele>98.67</ele>
        <time>2018-05-03T18:48:22Z</time>
      </trkpt>
      <trkpt lat="49.48182" lon="0.93758">
        <ele>98.19</ele>
        <time>2018-05-03T18:48:23Z</time>
      </trkpt>
      <trkpt lat="49.48182" lon="0.93748">
        <ele>98.19</ele>
        <time>2018-05-03T18:48:24Z</time>
      </trkpt>
      <trkpt lat="49.48182" lon="0.93737">
        <ele>97.23</ele>
        <time>2018-05-03T18:48:25Z</time>
      </trkpt>
      <trkpt lat="49.48183" lon="0.93726">
        <ele>96.75</ele>
        <time>2018-05-03T18:48:26Z</time>
      </trkpt>
      <trkpt lat="49.48184" lon="0.93715">
        <ele>96.75</ele>
        <time>2018-05-03T18:48:27Z</time>
      </trkpt>
      <trkpt lat="49.48209" lon="0.93598">
        <ele>93.39</ele>
        <time>2018-05-03T18:48:37Z</time>
      </trkpt>
      <trkpt lat="49.48215" lon="0.93588">
        <ele>92.9</ele>
        <time>2018-05-03T18:48:38Z</time>
      </trkpt>
      <trkpt lat="49.4823" lon="0.93561">
        <ele>92.42</ele>
        <time>2018-05-03T18:48:41Z</time>
      </trkpt>
      <trkpt lat="49.48234" lon="0.93551">
        <ele>92.42</ele>
        <time>2018-05-03T18:48:42Z</time>
      </trkpt>
      <trkpt lat="49.48237" lon="0.9354">
        <ele>91.46</ele>
        <time>2018-05-03T18:48:43Z</time>
      </trkpt>
      <trkpt lat="49.48239" lon="0.93529">
        <ele>90.98</ele>
        <time>2018-05-03T18:48:44Z</time>
      </trkpt>
      <trkpt lat="49.48241" lon="0.93518">
        <ele>90.98</ele>
        <time>2018-05-03T18:48:45Z</time>
      </trkpt>
      <trkpt lat="49.48244" lon="0.93507">
        <ele>90.02</ele>
        <time>2018-05-03T18:48:46Z</time>
      </trkpt>
      <trkpt lat="49.48256" lon="0.93475">
        <ele>90.02</ele>
        <time>2018-05-03T18:48:49Z</time>
      </trkpt>
      <trkpt lat="49.48261" lon="0.93466">
        <ele>90.02</ele>
        <time>2018-05-03T18:48:50Z</time>
      </trkpt>
      <trkpt lat="49.48271" lon="0.93449">
        <ele>89.54</ele>
        <time>2018-05-03T18:48:52Z</time>
      </trkpt>
      <trkpt lat="49.48286" lon="0.93419">
        <ele>91.94</ele>
        <time>2018-05-03T18:48:56Z</time>
      </trkpt>
      <trkpt lat="49.4829" lon="0.93412">
        <ele>92.42</ele>
        <time>2018-05-03T18:48:57Z</time>
      </trkpt>
      <trkpt lat="49.48293" lon="0.93406">
        <ele>92.42</ele>
        <time>2018-05-03T18:48:58Z</time>
      </trkpt>
      <trkpt lat="49.48302" lon="0.93386">
        <ele>95.31</ele>
        <time>2018-05-03T18:49:02Z</time>
      </trkpt>
      <trkpt lat="49.48305" lon="0.93382">
        <ele>95.31</ele>
        <time>2018-05-03T18:49:03Z</time>
      </trkpt>
      <trkpt lat="49.48334" lon="0.93332">
        <ele>98.67</ele>
        <time>2018-05-03T18:49:14Z</time>
      </trkpt>
      <trkpt lat="49.4836" lon="0.93279">
        <ele>99.63</ele>
        <time>2018-05-03T18:49:24Z</time>
      </trkpt>
      <trkpt lat="49.48366" lon="0.93269">
        <ele>100.11</ele>
        <time>2018-05-03T18:49:26Z</time>
      </trkpt>
      <trkpt lat="49.48369" lon="0.93263">
        <ele>100.11</ele>
        <time>2018-05-03T18:49:27Z</time>
      </trkpt>
      <trkpt lat="49.48371" lon="0.93257">
        <ele>100.11</ele>
        <time>2018-05-03T18:49:28Z</time>
      </trkpt>
      <trkpt lat="49.48385" lon="0.93197">
        <ele>98.67</ele>
        <time>2018-05-03T18:49:37Z</time>
      </trkpt>
      <trkpt lat="49.48384" lon="0.93188">
        <ele>97.23</ele>
        <time>2018-05-03T18:49:38Z</time>
      </trkpt>
      <trkpt lat="49.48378" lon="0.93147">
        <ele>93.87</ele>
        <time>2018-05-03T18:49:42Z</time>
      </trkpt>
      <trkpt lat="49.48377" lon="0.93119">
        <ele>91.94</ele>
        <time>2018-05-03T18:49:45Z</time>
      </trkpt>
      <trkpt lat="49.48378" lon="0.93109">
        <ele>90.98</ele>
        <time>2018-05-03T18:49:46Z</time>
      </trkpt>
      <trkpt lat="49.48379" lon="0.93102">
        <ele>89.54</ele>
        <time>2018-05-03T18:49:47Z</time>
      </trkpt>
      <trkpt lat="49.48381" lon="0.93097">
        <ele>88.58</ele>
        <time>2018-05-03T18:49:48Z</time>
      </trkpt>
      <trkpt lat="49.48382" lon="0.93092">
        <ele>88.1</ele>
        <time>2018-05-03T18:49:49Z</time>
      </trkpt>
      <trkpt lat="49.48383" lon="0.93088">
        <ele>88.1</ele>
        <time>2018-05-03T18:49:50Z</time>
      </trkpt>
      <trkpt lat="49.48384" lon="0.93081">
        <ele>86.66</ele>
        <time>2018-05-03T18:49:53Z</time>
      </trkpt>
      <trkpt lat="49.48382" lon="0.93082">
        <ele>86.18</ele>
        <time>2018-05-03T18:50:12Z</time>
      </trkpt>
      <trkpt lat="49.48381" lon="0.93086">
        <ele>86.18</ele>
        <time>2018-05-03T18:50:55Z</time>
      </trkpt>
      <trkpt lat="49.4838" lon="0.93088">
        <ele>86.18</ele>
        <time>2018-05-03T18:51:39Z</time>
      </trkpt>
      <trkpt lat="49.4838" lon="0.93086">
        <ele>86.18</ele>
        <time>2018-05-03T18:52:04Z</time>
      </trkpt>
      <trkpt lat="49.48381" lon="0.93084">
        <ele>86.18</ele>
        <time>2018-05-03T18:52:48Z</time>
      </trkpt>
      <trkpt lat="49.48382" lon="0.93086">
        <ele>86.18</ele>
        <time>2018-05-03T18:53:32Z</time>
      </trkpt>
      <trkpt lat="49.48381" lon="0.93086">
        <ele>86.18</ele>
        <time>2018-05-03T18:54:17Z</time>
      </trkpt>
      <trkpt lat="49.48381" lon="0.93084">
        <ele>86.18</ele>
        <time>2018-05-03T18:55:01Z</time>
      </trkpt>
      <trkpt lat="49.48383" lon="0.9308">
        <ele>86.18</ele>
        <time>2018-05-03T18:55:41Z</time>
      </trkpt>
      <trkpt lat="49.48383" lon="0.93082">
        <ele>85.69</ele>
        <time>2018-05-03T18:56:24Z</time>
      </trkpt>
      <trkpt lat="49.48382" lon="0.93079">
        <ele>86.18</ele>
        <time>2018-05-03T18:57:04Z</time>
      </trkpt>
      <trkpt lat="49.48379" lon="0.93082">
        <ele>86.18</ele>
        <time>2018-05-03T18:57:42Z</time>
      </trkpt>
      <trkpt lat="49.48382" lon="0.93081">
        <ele>86.18</ele>
        <time>2018-05-03T18:57:56Z</time>
      </trkpt>
      <trkpt lat="49.48384" lon="0.93079">
        <ele>85.69</ele>
        <time>2018-05-03T18:58:01Z</time>
      </trkpt>
      <trkpt lat="49.48386" lon="0.93076">
        <ele>84.73</ele>
        <time>2018-05-03T18:58:02Z</time>
      </trkpt>
      <trkpt lat="49.48387" lon="0.93072">
        <ele>84.73</ele>
        <time>2018-05-03T18:58:03Z</time>
      </trkpt>
      <trkpt lat="49.48388" lon="0.93067">
        <ele>84.73</ele>
        <time>2018-05-03T18:58:04Z</time>
      </trkpt>
      <trkpt lat="49.48389" lon="0.93062">
        <ele>83.77</ele>
        <time>2018-05-03T18:58:05Z</time>
      </trkpt>
      <trkpt lat="49.48391" lon="0.93058">
        <ele>82.81</ele>
        <time>2018-05-03T18:58:06Z</time>
      </trkpt>
      <trkpt lat="49.48398" lon="0.9303">
        <ele>79.45</ele>
        <time>2018-05-03T18:58:10Z</time>
      </trkpt>
      <trkpt lat="49.484" lon="0.93008">
        <ele>77.52</ele>
        <time>2018-05-03T18:58:12Z</time>
      </trkpt>
      <trkpt lat="49.48403" lon="0.92998">
        <ele>76.56</ele>
        <time>2018-05-03T18:58:13Z</time>
      </trkpt>
      <trkpt lat="49.4841" lon="0.92976">
        <ele>74.64</ele>
        <time>2018-05-03T18:58:15Z</time>
      </trkpt>
      <trkpt lat="49.48413" lon="0.92965">
        <ele>73.68</ele>
        <time>2018-05-03T18:58:16Z</time>
      </trkpt>
      <trkpt lat="49.48415" lon="0.92953">
        <ele>73.2</ele>
        <time>2018-05-03T18:58:17Z</time>
      </trkpt>
      <trkpt lat="49.48418" lon="0.92942">
        <ele>73.2</ele>
        <time>2018-05-03T18:58:18Z</time>
      </trkpt>
      <trkpt lat="49.48421" lon="0.92931">
        <ele>72.24</ele>
        <time>2018-05-03T18:58:19Z</time>
      </trkpt>
      <trkpt lat="49.48423" lon="0.9292">
        <ele>72.24</ele>
        <time>2018-05-03T18:58:20Z</time>
      </trkpt>
      <trkpt lat="49.48428" lon="0.92887">
        <ele>74.64</ele>
        <time>2018-05-03T18:58:24Z</time>
      </trkpt>
      <trkpt lat="49.48447" lon="0.92833">
        <ele>71.27</ele>
        <time>2018-05-03T18:58:32Z</time>
      </trkpt>
      <trkpt lat="49.48452" lon="0.92812">
        <ele>70.31</ele>
        <time>2018-05-03T18:58:34Z</time>
      </trkpt>
      <trkpt lat="49.48461" lon="0.9277">
        <ele>67.43</ele>
        <time>2018-05-03T18:58:38Z</time>
      </trkpt>
      <trkpt lat="49.48468" lon="0.92743">
        <ele>64.55</ele>
        <time>2018-05-03T18:58:41Z</time>
      </trkpt>
      <trkpt lat="49.4847" lon="0.92736">
        <ele>63.58</ele>
        <time>2018-05-03T18:58:42Z</time>
      </trkpt>
      <trkpt lat="49.48473" lon="0.92723">
        <ele>61.66</ele>
        <time>2018-05-03T18:58:44Z</time>
      </trkpt>
      <trkpt lat="49.48474" lon="0.92708">
        <ele>59.26</ele>
        <time>2018-05-03T18:58:46Z</time>
      </trkpt>
      <trkpt lat="49.48474" lon="0.92702">
        <ele>57.82</ele>
        <time>2018-05-03T18:58:47Z</time>
      </trkpt>
      <trkpt lat="49.48474" lon="0.92697">
        <ele>56.86</ele>
        <time>2018-05-03T18:58:48Z</time>
      </trkpt>
      <trkpt lat="49.48476" lon="0.92693">
        <ele>55.89</ele>
        <time>2018-05-03T18:58:49Z</time>
      </trkpt>
      <trkpt lat="49.48479" lon="0.9269">
        <ele>55.41</ele>
        <time>2018-05-03T18:58:50Z</time>
      </trkpt>
      <trkpt lat="49.48482" lon="0.92689">
        <ele>54.45</ele>
        <time>2018-05-03T18:58:51Z</time>
      </trkpt>
      <trkpt lat="49.48485" lon="0.92688">
        <ele>53.49</ele>
        <time>2018-05-03T18:58:52Z</time>
      </trkpt>
      <trkpt lat="49.48488" lon="0.9269">
        <ele>53.49</ele>
        <time>2018-05-03T18:58:53Z</time>
      </trkpt>
      <trkpt lat="49.48491" lon="0.92694">
        <ele>52.05</ele>
        <time>2018-05-03T18:58:54Z</time>
      </trkpt>
      <trkpt lat="49.48495" lon="0.92699">
        <ele>51.57</ele>
        <time>2018-05-03T18:58:55Z</time>
      </trkpt>
      <trkpt lat="49.48499" lon="0.92706">
        <ele>51.57</ele>
        <time>2018-05-03T18:58:56Z</time>
      </trkpt>
      <trkpt lat="49.48513" lon="0.92734">
        <ele>48.68</ele>
        <time>2018-05-03T18:59:00Z</time>
      </trkpt>
      <trkpt lat="49.48516" lon="0.92741">
        <ele>47.72</ele>
        <time>2018-05-03T18:59:01Z</time>
      </trkpt>
      <trkpt lat="49.48519" lon="0.92747">
        <ele>46.76</ele>
        <time>2018-05-03T18:59:02Z</time>
      </trkpt>
      <trkpt lat="49.48521" lon="0.92754">
        <ele>44.84</ele>
        <time>2018-05-03T18:59:03Z</time>
      </trkpt>
      <trkpt lat="49.48523" lon="0.92761">
        <ele>43.88</ele>
        <time>2018-05-03T18:59:04Z</time>
      </trkpt>
      <trkpt lat="49.48526" lon="0.92766">
        <ele>42.92</ele>
        <time>2018-05-03T18:59:05Z</time>
      </trkpt>
      <trkpt lat="49.48529" lon="0.92768">
        <ele>41.95</ele>
        <time>2018-05-03T18:59:06Z</time>
      </trkpt>
      <trkpt lat="49.48532" lon="0.92768">
        <ele>41.47</ele>
        <time>2018-05-03T18:59:07Z</time>
      </trkpt>
      <trkpt lat="49.48536" lon="0.92766">
        <ele>40.51</ele>
        <time>2018-05-03T18:59:08Z</time>
      </trkpt>
      <trkpt lat="49.48538" lon="0.92763">
        <ele>40.03</ele>
        <time>2018-05-03T18:59:09Z</time>
      </trkpt>
      <trkpt lat="49.48541" lon="0.92759">
        <ele>39.55</ele>
        <time>2018-05-03T18:59:10Z</time>
      </trkpt>
      <trkpt lat="49.48547" lon="0.9275">
        <ele>38.11</ele>
        <time>2018-05-03T18:59:12Z</time>
      </trkpt>
      <trkpt lat="49.48554" lon="0.9273">
        <ele>34.74</ele>
        <time>2018-05-03T18:59:15Z</time>
      </trkpt>
      <trkpt lat="49.48563" lon="0.92709">
        <ele>30.9</ele>
        <time>2018-05-03T18:59:19Z</time>
      </trkpt>
      <trkpt lat="49.48568" lon="0.92688">
        <ele>27.53</ele>
        <time>2018-05-03T18:59:23Z</time>
      </trkpt>
      <trkpt lat="49.48573" lon="0.92669">
        <ele>24.17</ele>
        <time>2018-05-03T18:59:27Z</time>
      </trkpt>
      <trkpt lat="49.48575" lon="0.92653">
        <ele>20.81</ele>
        <time>2018-05-03T18:59:30Z</time>
      </trkpt>
      <trkpt lat="49.48577" lon="0.92633">
        <ele>17.44</ele>
        <time>2018-05-03T18:59:34Z</time>
      </trkpt>
      <trkpt lat="49.48577" lon="0.92616">
        <ele>14.08</ele>
        <time>2018-05-03T18:59:37Z</time>
      </trkpt>
      <trkpt lat="49.48577" lon="0.92612">
        <ele>13.6</ele>
        <time>2018-05-03T18:59:38Z</time>
      </trkpt>
      <trkpt lat="49.48577" lon="0.92609">
        <ele>13.12</ele>
        <time>2018-05-03T18:59:40Z</time>
      </trkpt>
      <trkpt lat="49.48578" lon="0.92612">
        <ele>13.12</ele>
        <time>2018-05-03T18:59:42Z</time>
      </trkpt>
      <trkpt lat="49.48579" lon="0.92617">
        <ele>13.12</ele>
        <time>2018-05-03T18:59:43Z</time>
      </trkpt>
      <trkpt lat="49.4858" lon="0.92619">
        <ele>13.12</ele>
        <time>2018-05-03T18:59:44Z</time>
      </trkpt>
      <trkpt lat="49.48581" lon="0.92624">
        <ele>13.12</ele>
        <time>2018-05-03T18:59:45Z</time>
      </trkpt>
      <trkpt lat="49.48588" lon="0.92648">
        <ele>14.56</ele>
        <time>2018-05-03T18:59:49Z</time>
      </trkpt>
      <trkpt lat="49.48599" lon="0.9268">
        <ele>16.48</ele>
        <time>2018-05-03T18:59:54Z</time>
      </trkpt>
      <trkpt lat="49.48601" lon="0.92687">
        <ele>16.48</ele>
        <time>2018-05-03T18:59:55Z</time>
      </trkpt>
      <trkpt lat="49.48606" lon="0.92708">
        <ele>16.96</ele>
        <time>2018-05-03T18:59:58Z</time>
      </trkpt>
      <trkpt lat="49.48607" lon="0.92715">
        <ele>17.92</ele>
        <time>2018-05-03T18:59:59Z</time>
      </trkpt>
      <trkpt lat="49.48607" lon="0.92722">
        <ele>17.92</ele>
        <time>2018-05-03T19:00:00Z</time>
      </trkpt>
      <trkpt lat="49.48607" lon="0.92729">
        <ele>18.4</ele>
        <time>2018-05-03T19:00:01Z</time>
      </trkpt>
      <trkpt lat="49.48607" lon="0.92736">
        <ele>18.88</ele>
        <time>2018-05-03T19:00:02Z</time>
      </trkpt>
      <trkpt lat="49.48607" lon="0.92742">
        <ele>18.88</ele>
        <time>2018-05-03T19:00:03Z</time>
      </trkpt>
      <trkpt lat="49.48605" lon="0.92756">
        <ele>19.36</ele>
        <time>2018-05-03T19:00:05Z</time>
      </trkpt>
      <trkpt lat="49.48604" lon="0.92762">
        <ele>19.36</ele>
        <time>2018-05-03T19:00:06Z</time>
      </trkpt>
      <trkpt lat="49.4859" lon="0.92808">
        <ele>21.77</ele>
        <time>2018-05-03T19:00:14Z</time>
      </trkpt>
      <trkpt lat="49.48552" lon="0.92862">
        <ele>24.65</ele>
        <time>2018-05-03T19:00:27Z</time>
      </trkpt>
      <trkpt lat="49.48516" lon="0.92935">
        <ele>28.02</ele>
        <time>2018-05-03T19:00:42Z</time>
      </trkpt>
      <trkpt lat="49.48507" lon="0.93019">
        <ele>30.9</ele>
        <time>2018-05-03T19:00:57Z</time>
      </trkpt>
      <trkpt lat="49.48536" lon="0.93095">
        <ele>33.3</ele>
        <time>2018-05-03T19:01:09Z</time>
      </trkpt>
      <trkpt lat="49.48568" lon="0.93167">
        <ele>36.67</ele>
        <time>2018-05-03T19:01:23Z</time>
      </trkpt>
      <trkpt lat="49.4858" lon="0.93244">
        <ele>39.55</ele>
        <time>2018-05-03T19:01:36Z</time>
      </trkpt>
      <trkpt lat="49.48587" lon="0.93326">
        <ele>42.92</ele>
        <time>2018-05-03T19:01:50Z</time>
      </trkpt>
      <trkpt lat="49.48572" lon="0.93411">
        <ele>45.8</ele>
        <time>2018-05-03T19:02:05Z</time>
      </trkpt>
      <trkpt lat="49.48545" lon="0.93467">
        <ele>48.68</ele>
        <time>2018-05-03T19:02:17Z</time>
      </trkpt>
      <trkpt lat="49.48504" lon="0.93486">
        <ele>51.09</ele>
        <time>2018-05-03T19:02:29Z</time>
      </trkpt>
      <trkpt lat="49.48455" lon="0.9349">
        <ele>54.45</ele>
        <time>2018-05-03T19:02:43Z</time>
      </trkpt>
      <trkpt lat="49.48404" lon="0.93509">
        <ele>57.34</ele>
        <time>2018-05-03T19:02:58Z</time>
      </trkpt>
      <trkpt lat="49.48361" lon="0.93535">
        <ele>60.22</ele>
        <time>2018-05-03T19:03:11Z</time>
      </trkpt>
      <trkpt lat="49.48319" lon="0.93593">
        <ele>63.1</ele>
        <time>2018-05-03T19:03:26Z</time>
      </trkpt>
      <trkpt lat="49.48296" lon="0.93656">
        <ele>65.99</ele>
        <time>2018-05-03T19:03:39Z</time>
      </trkpt>
      <trkpt lat="49.48285" lon="0.93725">
        <ele>68.87</ele>
        <time>2018-05-03T19:03:52Z</time>
      </trkpt>
      <trkpt lat="49.48281" lon="0.93792">
        <ele>72.24</ele>
        <time>2018-05-03T19:04:05Z</time>
      </trkpt>
      <trkpt lat="49.48282" lon="0.93858">
        <ele>74.64</ele>
        <time>2018-05-03T19:04:18Z</time>
      </trkpt>
      <trkpt lat="49.48305" lon="0.93897">
        <ele>76.56</ele>
        <time>2018-05-03T19:04:28Z</time>
      </trkpt>
      <trkpt lat="49.48332" lon="0.93871">
        <ele>78</ele>
        <time>2018-05-03T19:04:38Z</time>
      </trkpt>
      <trkpt lat="49.4835" lon="0.93803">
        <ele>79.45</ele>
        <time>2018-05-03T19:04:51Z</time>
      </trkpt>
      <trkpt lat="49.48385" lon="0.938">
        <ele>81.37</ele>
        <time>2018-05-03T19:05:01Z</time>
      </trkpt>
      <trkpt lat="49.48409" lon="0.93857">
        <ele>84.25</ele>
        <time>2018-05-03T19:05:13Z</time>
      </trkpt>
      <trkpt lat="49.48413" lon="0.93932">
        <ele>87.14</ele>
        <time>2018-05-03T19:05:26Z</time>
      </trkpt>
      <trkpt lat="49.4841" lon="0.94011">
        <ele>90.5</ele>
        <time>2018-05-03T19:05:40Z</time>
      </trkpt>
      <trkpt lat="49.48405" lon="0.94096">
        <ele>93.39</ele>
        <time>2018-05-03T19:05:55Z</time>
      </trkpt>
      <trkpt lat="49.48413" lon="0.94177">
        <ele>96.27</ele>
        <time>2018-05-03T19:06:09Z</time>
      </trkpt>
      <trkpt lat="49.48425" lon="0.94268">
        <ele>99.63</ele>
        <time>2018-05-03T19:06:26Z</time>
      </trkpt>
      <trkpt lat="49.48447" lon="0.94343">
        <ele>102.04</ele>
        <time>2018-05-03T19:06:41Z</time>
      </trkpt>
      <trkpt lat="49.48466" lon="0.94415">
        <ele>105.4</ele>
        <time>2018-05-03T19:06:55Z</time>
      </trkpt>
      <trkpt lat="49.48485" lon="0.94481">
        <ele>107.81</ele>
        <time>2018-05-03T19:07:08Z</time>
      </trkpt>
      <trkpt lat="49.48494" lon="0.94524">
        <ele>109.25</ele>
        <time>2018-05-03T19:07:15Z</time>
      </trkpt>
      <trkpt lat="49.48499" lon="0.94551">
        <ele>110.21</ele>
        <time>2018-05-03T19:07:19Z</time>
      </trkpt>
      <trkpt lat="49.48499" lon="0.94558">
        <ele>110.69</ele>
        <time>2018-05-03T19:07:20Z</time>
      </trkpt>
      <trkpt lat="49.48501" lon="0.94652">
        <ele>113.09</ele>
        <time>2018-05-03T19:07:33Z</time>
      </trkpt>
      <trkpt lat="49.48501" lon="0.94667">
        <ele>113.57</ele>
        <time>2018-05-03T19:07:35Z</time>
      </trkpt>
      <trkpt lat="49.48502" lon="0.94674">
        <ele>113.09</ele>
        <time>2018-05-03T19:07:36Z</time>
      </trkpt>
      <trkpt lat="49.485" lon="0.94737">
        <ele>114.53</ele>
        <time>2018-05-03T19:07:45Z</time>
      </trkpt>
      <trkpt lat="49.48496" lon="0.94764">
        <ele>115.01</ele>
        <time>2018-05-03T19:07:49Z</time>
      </trkpt>
      <trkpt lat="49.48497" lon="0.94771">
        <ele>115.01</ele>
        <time>2018-05-03T19:07:50Z</time>
      </trkpt>
      <trkpt lat="49.48498" lon="0.94793">
        <ele>115.01</ele>
        <time>2018-05-03T19:07:53Z</time>
      </trkpt>
      <trkpt lat="49.48497" lon="0.9483">
        <ele>115.5</ele>
        <time>2018-05-03T19:07:58Z</time>
      </trkpt>
      <trkpt lat="49.48497" lon="0.94838">
        <ele>115.5</ele>
        <time>2018-05-03T19:07:59Z</time>
      </trkpt>
      <trkpt lat="49.48495" lon="0.94874">
        <ele>115.98</ele>
        <time>2018-05-03T19:08:04Z</time>
      </trkpt>
      <trkpt lat="49.48497" lon="0.9497">
        <ele>116.94</ele>
        <time>2018-05-03T19:08:17Z</time>
      </trkpt>
      <trkpt lat="49.48488" lon="0.9507">
        <ele>117.9</ele>
        <time>2018-05-03T19:08:31Z</time>
      </trkpt>
      <trkpt lat="49.48484" lon="0.9515">
        <ele>118.86</ele>
        <time>2018-05-03T19:08:42Z</time>
      </trkpt>
      <trkpt lat="49.48484" lon="0.95165">
        <ele>118.86</ele>
        <time>2018-05-03T19:08:44Z</time>
      </trkpt>
      <trkpt lat="49.48481" lon="0.95217">
        <ele>119.34</ele>
        <time>2018-05-03T19:08:51Z</time>
      </trkpt>
      <trkpt lat="49.48479" lon="0.95232">
        <ele>119.34</ele>
        <time>2018-05-03T19:08:53Z</time>
      </trkpt>
      <trkpt lat="49.48477" lon="0.95254">
        <ele>119.34</ele>
        <time>2018-05-03T19:08:56Z</time>
      </trkpt>
      <trkpt lat="49.48476" lon="0.9526">
        <ele>119.34</ele>
        <time>2018-05-03T19:08:57Z</time>
      </trkpt>
      <trkpt lat="49.48472" lon="0.95273">
        <ele>119.82</ele>
        <time>2018-05-03T19:08:59Z</time>
      </trkpt>
      <trkpt lat="49.4847" lon="0.9528">
        <ele>119.82</ele>
        <time>2018-05-03T19:09:00Z</time>
      </trkpt>
      <trkpt lat="49.48468" lon="0.95286">
        <ele>119.82</ele>
        <time>2018-05-03T19:09:01Z</time>
      </trkpt>
      <trkpt lat="49.48466" lon="0.95292">
        <ele>119.82</ele>
        <time>2018-05-03T19:09:02Z</time>
      </trkpt>
      <trkpt lat="49.48463" lon="0.95298">
        <ele>120.3</ele>
        <time>2018-05-03T19:09:03Z</time>
      </trkpt>
      <trkpt lat="49.4846" lon="0.95303">
        <ele>120.3</ele>
        <time>2018-05-03T19:09:04Z</time>
      </trkpt>
      <trkpt lat="49.48447" lon="0.95317">
        <ele>120.3</ele>
        <time>2018-05-03T19:09:07Z</time>
      </trkpt>
      <trkpt lat="49.48443" lon="0.95321">
        <ele>120.3</ele>
        <time>2018-05-03T19:09:08Z</time>
      </trkpt>
      <trkpt lat="49.48354" lon="0.95391">
        <ele>122.22</ele>
        <time>2018-05-03T19:09:26Z</time>
      </trkpt>
      <trkpt lat="49.48263" lon="0.95465">
        <ele>123.19</ele>
        <time>2018-05-03T19:09:44Z</time>
      </trkpt>
      <trkpt lat="49.48169" lon="0.95535">
        <ele>125.11</ele>
        <time>2018-05-03T19:10:02Z</time>
      </trkpt>
      <trkpt lat="49.48163" lon="0.95537">
        <ele>125.11</ele>
        <time>2018-05-03T19:10:03Z</time>
      </trkpt>
      <trkpt lat="49.48158" lon="0.95538">
        <ele>125.11</ele>
        <time>2018-05-03T19:10:04Z</time>
      </trkpt>
      <trkpt lat="49.48099" lon="0.95549">
        <ele>125.11</ele>
        <time>2018-05-03T19:10:14Z</time>
      </trkpt>
      <trkpt lat="49.48093" lon="0.95551">
        <ele>125.11</ele>
        <time>2018-05-03T19:10:15Z</time>
      </trkpt>
      <trkpt lat="49.48087" lon="0.95555">
        <ele>125.11</ele>
        <time>2018-05-03T19:10:16Z</time>
      </trkpt>
      <trkpt lat="49.48083" lon="0.95557">
        <ele>125.11</ele>
        <time>2018-05-03T19:10:17Z</time>
      </trkpt>
      <trkpt lat="49.48078" lon="0.95561">
        <ele>125.11</ele>
        <time>2018-05-03T19:10:18Z</time>
      </trkpt>
      <trkpt lat="49.48073" lon="0.95566">
        <ele>125.11</ele>
        <time>2018-05-03T19:10:19Z</time>
      </trkpt>
      <trkpt lat="49.48067" lon="0.95573">
        <ele>125.11</ele>
        <time>2018-05-03T19:10:20Z</time>
      </trkpt>
      <trkpt lat="49.48062" lon="0.95579">
        <ele>125.11</ele>
        <time>2018-05-03T19:10:21Z</time>
      </trkpt>
      <trkpt lat="49.48003" lon="0.95657">
        <ele>125.11</ele>
        <time>2018-05-03T19:10:33Z</time>
      </trkpt>
      <trkpt lat="49.47928" lon="0.95755">
        <ele>125.11</ele>
        <time>2018-05-03T19:10:47Z</time>
      </trkpt>
      <trkpt lat="49.47838" lon="0.95867">
        <ele>125.11</ele>
        <time>2018-05-03T19:11:03Z</time>
      </trkpt>
      <trkpt lat="49.47789" lon="0.95907">
        <ele>125.59</ele>
        <time>2018-05-03T19:11:11Z</time>
      </trkpt>
      <trkpt lat="49.47783" lon="0.95909">
        <ele>125.59</ele>
        <time>2018-05-03T19:11:12Z</time>
      </trkpt>
      <trkpt lat="49.47775" lon="0.9591">
        <ele>125.59</ele>
        <time>2018-05-03T19:11:13Z</time>
      </trkpt>
      <trkpt lat="49.47768" lon="0.95911">
        <ele>125.59</ele>
        <time>2018-05-03T19:11:14Z</time>
      </trkpt>
      <trkpt lat="49.47762" lon="0.9591">
        <ele>125.59</ele>
        <time>2018-05-03T19:11:15Z</time>
      </trkpt>
      <trkpt lat="49.47747" lon="0.95907">
        <ele>125.59</ele>
        <time>2018-05-03T19:11:17Z</time>
      </trkpt>
      <trkpt lat="49.47733" lon="0.959">
        <ele>125.59</ele>
        <time>2018-05-03T19:11:19Z</time>
      </trkpt>
      <trkpt lat="49.47709" lon="0.95882">
        <ele>125.59</ele>
        <time>2018-05-03T19:11:23Z</time>
      </trkpt>
      <trkpt lat="49.47696" lon="0.95876">
        <ele>125.59</ele>
        <time>2018-05-03T19:11:25Z</time>
      </trkpt>
      <trkpt lat="49.47689" lon="0.95873">
        <ele>125.59</ele>
        <time>2018-05-03T19:11:26Z</time>
      </trkpt>
      <trkpt lat="49.47682" lon="0.95872">
        <ele>125.59</ele>
        <time>2018-05-03T19:11:27Z</time>
      </trkpt>
      <trkpt lat="49.47661" lon="0.95872">
        <ele>125.59</ele>
        <time>2018-05-03T19:11:30Z</time>
      </trkpt>
      <trkpt lat="49.47561" lon="0.95902">
        <ele>124.63</ele>
        <time>2018-05-03T19:11:45Z</time>
      </trkpt>
      <trkpt lat="49.47478" lon="0.95954">
        <ele>122.71</ele>
        <time>2018-05-03T19:11:58Z</time>
      </trkpt>
      <trkpt lat="49.4739" lon="0.96028">
        <ele>123.19</ele>
        <time>2018-05-03T19:12:12Z</time>
      </trkpt>
      <trkpt lat="49.47299" lon="0.96118">
        <ele>125.11</ele>
        <time>2018-05-03T19:12:29Z</time>
      </trkpt>
      <trkpt lat="49.47261" lon="0.96163">
        <ele>126.07</ele>
        <time>2018-05-03T19:12:37Z</time>
      </trkpt>
      <trkpt lat="49.47257" lon="0.96167">
        <ele>126.07</ele>
        <time>2018-05-03T19:12:38Z</time>
      </trkpt>
      <trkpt lat="49.47253" lon="0.96173">
        <ele>126.07</ele>
        <time>2018-05-03T19:12:39Z</time>
      </trkpt>
      <trkpt lat="49.47219" lon="0.96254">
        <ele>127.51</ele>
        <time>2018-05-03T19:12:49Z</time>
      </trkpt>
      <trkpt lat="49.47216" lon="0.96262">
        <ele>127.51</ele>
        <time>2018-05-03T19:12:50Z</time>
      </trkpt>
      <trkpt lat="49.47152" lon="0.96398">
        <ele>127.03</ele>
        <time>2018-05-03T19:13:08Z</time>
      </trkpt>
      <trkpt lat="49.47083" lon="0.96544">
        <ele>125.11</ele>
        <time>2018-05-03T19:13:26Z</time>
      </trkpt>
      <trkpt lat="49.47047" lon="0.96679">
        <ele>123.19</ele>
        <time>2018-05-03T19:13:39Z</time>
      </trkpt>
      <trkpt lat="49.47047" lon="0.96867">
        <ele>122.22</ele>
        <time>2018-05-03T19:13:55Z</time>
      </trkpt>
      <trkpt lat="49.47045" lon="0.97093">
        <ele>121.26</ele>
        <time>2018-05-03T19:14:15Z</time>
      </trkpt>
      <trkpt lat="49.47062" lon="0.97274">
        <ele>118.38</ele>
        <time>2018-05-03T19:14:31Z</time>
      </trkpt>
      <trkpt lat="49.47066" lon="0.97298">
        <ele>117.9</ele>
        <time>2018-05-03T19:14:33Z</time>
      </trkpt>
      <trkpt lat="49.47097" lon="0.97401">
        <ele>115.01</ele>
        <time>2018-05-03T19:14:42Z</time>
      </trkpt>
      <trkpt lat="49.47143" lon="0.97476">
        <ele>111.65</ele>
        <time>2018-05-03T19:14:50Z</time>
      </trkpt>
      <trkpt lat="49.47186" lon="0.97558">
        <ele>108.29</ele>
        <time>2018-05-03T19:14:58Z</time>
      </trkpt>
      <trkpt lat="49.47205" lon="0.97616">
        <ele>106.36</ele>
        <time>2018-05-03T19:15:03Z</time>
      </trkpt>
      <trkpt lat="49.47209" lon="0.97628">
        <ele>106.36</ele>
        <time>2018-05-03T19:15:04Z</time>
      </trkpt>
      <trkpt lat="49.4723" lon="0.97714">
        <ele>103.48</ele>
        <time>2018-05-03T19:15:11Z</time>
      </trkpt>
      <trkpt lat="49.47231" lon="0.97727">
        <ele>103.48</ele>
        <time>2018-05-03T19:15:12Z</time>
      </trkpt>
      <trkpt lat="49.47231" lon="0.97752">
        <ele>102.04</ele>
        <time>2018-05-03T19:15:14Z</time>
      </trkpt>
      <trkpt lat="49.47228" lon="0.97816">
        <ele>100.11</ele>
        <time>2018-05-03T19:15:19Z</time>
      </trkpt>
      <trkpt lat="49.4723" lon="0.97841">
        <ele>99.15</ele>
        <time>2018-05-03T19:15:21Z</time>
      </trkpt>
      <trkpt lat="49.47231" lon="0.97854">
        <ele>98.67</ele>
        <time>2018-05-03T19:15:22Z</time>
      </trkpt>
      <trkpt lat="49.47234" lon="0.97866">
        <ele>98.19</ele>
        <time>2018-05-03T19:15:23Z</time>
      </trkpt>
      <trkpt lat="49.4724" lon="0.9789">
        <ele>97.71</ele>
        <time>2018-05-03T19:15:25Z</time>
      </trkpt>
      <trkpt lat="49.47242" lon="0.97904">
        <ele>96.75</ele>
        <time>2018-05-03T19:15:26Z</time>
      </trkpt>
      <trkpt lat="49.47243" lon="0.97916">
        <ele>96.75</ele>
        <time>2018-05-03T19:15:27Z</time>
      </trkpt>
      <trkpt lat="49.47242" lon="0.97929">
        <ele>95.79</ele>
        <time>2018-05-03T19:15:28Z</time>
      </trkpt>
      <trkpt lat="49.47239" lon="0.97942">
        <ele>95.31</ele>
        <time>2018-05-03T19:15:29Z</time>
      </trkpt>
      <trkpt lat="49.47235" lon="0.97954">
        <ele>94.83</ele>
        <time>2018-05-03T19:15:30Z</time>
      </trkpt>
      <trkpt lat="49.4723" lon="0.97964">
        <ele>94.35</ele>
        <time>2018-05-03T19:15:31Z</time>
      </trkpt>
      <trkpt lat="49.47225" lon="0.97972">
        <ele>93.87</ele>
        <time>2018-05-03T19:15:32Z</time>
      </trkpt>
      <trkpt lat="49.47219" lon="0.97981">
        <ele>93.87</ele>
        <time>2018-05-03T19:15:33Z</time>
      </trkpt>
      <trkpt lat="49.47202" lon="0.9801">
        <ele>92.42</ele>
        <time>2018-05-03T19:15:36Z</time>
      </trkpt>
      <trkpt lat="49.47198" lon="0.98022">
        <ele>91.94</ele>
        <time>2018-05-03T19:15:37Z</time>
      </trkpt>
      <trkpt lat="49.47195" lon="0.98034">
        <ele>91.46</ele>
        <time>2018-05-03T19:15:38Z</time>
      </trkpt>
      <trkpt lat="49.47188" lon="0.9814">
        <ele>88.1</ele>
        <time>2018-05-03T19:15:46Z</time>
      </trkpt>
      <trkpt lat="49.4719" lon="0.98152">
        <ele>88.1</ele>
        <time>2018-05-03T19:15:47Z</time>
      </trkpt>
      <trkpt lat="49.47194" lon="0.98165">
        <ele>87.14</ele>
        <time>2018-05-03T19:15:48Z</time>
      </trkpt>
      <trkpt lat="49.47197" lon="0.98177">
        <ele>86.66</ele>
        <time>2018-05-03T19:15:49Z</time>
      </trkpt>
      <trkpt lat="49.47202" lon="0.98188">
        <ele>86.18</ele>
        <time>2018-05-03T19:15:50Z</time>
      </trkpt>
      <trkpt lat="49.47208" lon="0.98198">
        <ele>85.69</ele>
        <time>2018-05-03T19:15:51Z</time>
      </trkpt>
      <trkpt lat="49.47214" lon="0.98208">
        <ele>85.21</ele>
        <time>2018-05-03T19:15:52Z</time>
      </trkpt>
      <trkpt lat="49.47221" lon="0.98216">
        <ele>84.73</ele>
        <time>2018-05-03T19:15:53Z</time>
      </trkpt>
      <trkpt lat="49.47228" lon="0.98224">
        <ele>84.25</ele>
        <time>2018-05-03T19:15:54Z</time>
      </trkpt>
      <trkpt lat="49.47236" lon="0.9823">
        <ele>83.29</ele>
        <time>2018-05-03T19:15:55Z</time>
      </trkpt>
      <trkpt lat="49.47243" lon="0.98236">
        <ele>83.29</ele>
        <time>2018-05-03T19:15:56Z</time>
      </trkpt>
      <trkpt lat="49.47251" lon="0.98241">
        <ele>82.81</ele>
        <time>2018-05-03T19:15:57Z</time>
      </trkpt>
      <trkpt lat="49.47259" lon="0.98245">
        <ele>82.33</ele>
        <time>2018-05-03T19:15:58Z</time>
      </trkpt>
      <trkpt lat="49.47267" lon="0.98249">
        <ele>81.85</ele>
        <time>2018-05-03T19:15:59Z</time>
      </trkpt>
      <trkpt lat="49.47306" lon="0.98275">
        <ele>78.97</ele>
        <time>2018-05-03T19:16:04Z</time>
      </trkpt>
      <trkpt lat="49.47352" lon="0.98324">
        <ele>75.6</ele>
        <time>2018-05-03T19:16:10Z</time>
      </trkpt>
      <trkpt lat="49.47379" lon="0.98363">
        <ele>74.16</ele>
        <time>2018-05-03T19:16:14Z</time>
      </trkpt>
      <trkpt lat="49.47406" lon="0.9842">
        <ele>70.79</ele>
        <time>2018-05-03T19:16:19Z</time>
      </trkpt>
      <trkpt lat="49.47428" lon="0.98486">
        <ele>67.91</ele>
        <time>2018-05-03T19:16:24Z</time>
      </trkpt>
      <trkpt lat="49.47438" lon="0.98529">
        <ele>66.47</ele>
        <time>2018-05-03T19:16:27Z</time>
      </trkpt>
      <trkpt lat="49.47447" lon="0.98603">
        <ele>63.58</ele>
        <time>2018-05-03T19:16:32Z</time>
      </trkpt>
      <trkpt lat="49.47455" lon="0.98665">
        <ele>60.22</ele>
        <time>2018-05-03T19:16:37Z</time>
      </trkpt>
      <trkpt lat="49.47453" lon="0.98706">
        <ele>58.78</ele>
        <time>2018-05-03T19:16:44Z</time>
      </trkpt>
      <trkpt lat="49.47455" lon="0.98712">
        <ele>58.78</ele>
        <time>2018-05-03T19:16:45Z</time>
      </trkpt>
      <trkpt lat="49.47457" lon="0.98718">
        <ele>58.78</ele>
        <time>2018-05-03T19:16:46Z</time>
      </trkpt>
      <trkpt lat="49.4746" lon="0.98724">
        <ele>58.78</ele>
        <time>2018-05-03T19:16:47Z</time>
      </trkpt>
      <trkpt lat="49.47462" lon="0.98729">
        <ele>58.78</ele>
        <time>2018-05-03T19:16:48Z</time>
      </trkpt>
      <trkpt lat="49.47465" lon="0.98735">
        <ele>59.26</ele>
        <time>2018-05-03T19:16:49Z</time>
      </trkpt>
      <trkpt lat="49.47465" lon="0.98741">
        <ele>59.26</ele>
        <time>2018-05-03T19:16:50Z</time>
      </trkpt>
      <trkpt lat="49.47464" lon="0.98746">
        <ele>59.26</ele>
        <time>2018-05-03T19:16:51Z</time>
      </trkpt>
      <trkpt lat="49.4746" lon="0.98749">
        <ele>59.26</ele>
        <time>2018-05-03T19:16:52Z</time>
      </trkpt>
      <trkpt lat="49.47456" lon="0.98749">
        <ele>59.26</ele>
        <time>2018-05-03T19:16:53Z</time>
      </trkpt>
      <trkpt lat="49.47452" lon="0.98748">
        <ele>59.26</ele>
        <time>2018-05-03T19:16:54Z</time>
      </trkpt>
      <trkpt lat="49.47435" lon="0.98746">
        <ele>59.26</ele>
        <time>2018-05-03T19:16:57Z</time>
      </trkpt>
      <trkpt lat="49.47418" lon="0.98747">
        <ele>60.7</ele>
        <time>2018-05-03T19:17:00Z</time>
      </trkpt>
      <trkpt lat="49.47412" lon="0.98745">
        <ele>61.18</ele>
        <time>2018-05-03T19:17:01Z</time>
      </trkpt>
      <trkpt lat="49.47406" lon="0.98742">
        <ele>61.18</ele>
        <time>2018-05-03T19:17:02Z</time>
      </trkpt>
      <trkpt lat="49.47401" lon="0.98737">
        <ele>61.18</ele>
        <time>2018-05-03T19:17:03Z</time>
      </trkpt>
      <trkpt lat="49.47396" lon="0.98731">
        <ele>61.66</ele>
        <time>2018-05-03T19:17:04Z</time>
      </trkpt>
      <trkpt lat="49.47391" lon="0.98724">
        <ele>61.66</ele>
        <time>2018-05-03T19:17:05Z</time>
      </trkpt>
      <trkpt lat="49.47388" lon="0.98716">
        <ele>61.66</ele>
        <time>2018-05-03T19:17:06Z</time>
      </trkpt>
      <trkpt lat="49.47385" lon="0.98708">
        <ele>62.62</ele>
        <time>2018-05-03T19:17:07Z</time>
      </trkpt>
      <trkpt lat="49.47383" lon="0.987">
        <ele>62.62</ele>
        <time>2018-05-03T19:17:08Z</time>
      </trkpt>
      <trkpt lat="49.47381" lon="0.98691">
        <ele>63.1</ele>
        <time>2018-05-03T19:17:09Z</time>
      </trkpt>
      <trkpt lat="49.47363" lon="0.9861">
        <ele>65.03</ele>
        <time>2018-05-03T19:17:18Z</time>
      </trkpt>
      <trkpt lat="49.47352" lon="0.98578">
        <ele>66.47</ele>
        <time>2018-05-03T19:17:22Z</time>
      </trkpt>
      <trkpt lat="49.47349" lon="0.98571">
        <ele>66.95</ele>
        <time>2018-05-03T19:17:23Z</time>
      </trkpt>
      <trkpt lat="49.47345" lon="0.98564">
        <ele>67.43</ele>
        <time>2018-05-03T19:17:24Z</time>
      </trkpt>
      <trkpt lat="49.47327" lon="0.98541">
        <ele>68.39</ele>
        <time>2018-05-03T19:17:28Z</time>
      </trkpt>
      <trkpt lat="49.47318" lon="0.98533">
        <ele>68.87</ele>
        <time>2018-05-03T19:17:30Z</time>
      </trkpt>
      <trkpt lat="49.47302" lon="0.98525">
        <ele>70.31</ele>
        <time>2018-05-03T19:17:33Z</time>
      </trkpt>
      <trkpt lat="49.47296" lon="0.98524">
        <ele>70.31</ele>
        <time>2018-05-03T19:17:34Z</time>
      </trkpt>
      <trkpt lat="49.4729" lon="0.98524">
        <ele>71.27</ele>
        <time>2018-05-03T19:17:35Z</time>
      </trkpt>
      <trkpt lat="49.4728" lon="0.98528">
        <ele>71.27</ele>
        <time>2018-05-03T19:17:37Z</time>
      </trkpt>
      <trkpt lat="49.47231" lon="0.98548">
        <ele>74.64</ele>
        <time>2018-05-03T19:17:50Z</time>
      </trkpt>
      <trkpt lat="49.47174" lon="0.98528">
        <ele>77.52</ele>
        <time>2018-05-03T19:18:05Z</time>
      </trkpt>
      <trkpt lat="49.47126" lon="0.98544">
        <ele>80.41</ele>
        <time>2018-05-03T19:18:18Z</time>
      </trkpt>
      <trkpt lat="49.47086" lon="0.98602">
        <ele>83.77</ele>
        <time>2018-05-03T19:18:32Z</time>
      </trkpt>
      <trkpt lat="49.4705" lon="0.98658">
        <ele>87.14</ele>
        <time>2018-05-03T19:18:45Z</time>
      </trkpt>
      <trkpt lat="49.47008" lon="0.98723">
        <ele>90.5</ele>
        <time>2018-05-03T19:19:00Z</time>
      </trkpt>
      <trkpt lat="49.46962" lon="0.98773">
        <ele>93.39</ele>
        <time>2018-05-03T19:19:14Z</time>
      </trkpt>
      <trkpt lat="49.46914" lon="0.98814">
        <ele>96.75</ele>
        <time>2018-05-03T19:19:28Z</time>
      </trkpt>
      <trkpt lat="49.46871" lon="0.98856">
        <ele>99.63</ele>
        <time>2018-05-03T19:19:41Z</time>
      </trkpt>
      <trkpt lat="49.46824" lon="0.98913">
        <ele>103</ele>
        <time>2018-05-03T19:19:56Z</time>
      </trkpt>
      <trkpt lat="49.46788" lon="0.98975">
        <ele>106.36</ele>
        <time>2018-05-03T19:20:10Z</time>
      </trkpt>
      <trkpt lat="49.46752" lon="0.99053">
        <ele>109.73</ele>
        <time>2018-05-03T19:20:26Z</time>
      </trkpt>
      <trkpt lat="49.46722" lon="0.99136">
        <ele>112.61</ele>
        <time>2018-05-03T19:20:42Z</time>
      </trkpt>
      <trkpt lat="49.4669" lon="0.99204">
        <ele>115.98</ele>
        <time>2018-05-03T19:20:56Z</time>
      </trkpt>
      <trkpt lat="49.46657" lon="0.99253">
        <ele>118.38</ele>
        <time>2018-05-03T19:21:08Z</time>
      </trkpt>
      <trkpt lat="49.46616" lon="0.99293">
        <ele>121.26</ele>
        <time>2018-05-03T19:21:21Z</time>
      </trkpt>
      <trkpt lat="49.46566" lon="0.99322">
        <ele>124.63</ele>
        <time>2018-05-03T19:21:35Z</time>
      </trkpt>
      <trkpt lat="49.46511" lon="0.99341">
        <ele>127.51</ele>
        <time>2018-05-03T19:21:50Z</time>
      </trkpt>
      <trkpt lat="49.4645" lon="0.99357">
        <ele>130.88</ele>
        <time>2018-05-03T19:22:06Z</time>
      </trkpt>
      <trkpt lat="49.4641" lon="0.99368">
        <ele>132.32</ele>
        <time>2018-05-03T19:22:16Z</time>
      </trkpt>
      <trkpt lat="49.46406" lon="0.99369">
        <ele>132.32</ele>
        <time>2018-05-03T19:22:17Z</time>
      </trkpt>
      <trkpt lat="49.46342" lon="0.99384">
        <ele>134.24</ele>
        <time>2018-05-03T19:22:30Z</time>
      </trkpt>
      <trkpt lat="49.46263" lon="0.99406">
        <ele>135.2</ele>
        <time>2018-05-03T19:22:46Z</time>
      </trkpt>
      <trkpt lat="49.46182" lon="0.99428">
        <ele>133.76</ele>
        <time>2018-05-03T19:23:01Z</time>
      </trkpt>
      <trkpt lat="49.46076" lon="0.99452">
        <ele>130.88</ele>
        <time>2018-05-03T19:23:16Z</time>
      </trkpt>
      <trkpt lat="49.46002" lon="0.99471">
        <ele>128.47</ele>
        <time>2018-05-03T19:23:26Z</time>
      </trkpt>
      <trkpt lat="49.45944" lon="0.99487">
        <ele>127.03</ele>
        <time>2018-05-03T19:23:34Z</time>
      </trkpt>
      <trkpt lat="49.45938" lon="0.99492">
        <ele>126.55</ele>
        <time>2018-05-03T19:23:35Z</time>
      </trkpt>
      <trkpt lat="49.45933" lon="0.99501">
        <ele>126.55</ele>
        <time>2018-05-03T19:23:36Z</time>
      </trkpt>
      <trkpt lat="49.4593" lon="0.99511">
        <ele>126.55</ele>
        <time>2018-05-03T19:23:37Z</time>
      </trkpt>
      <trkpt lat="49.45928" lon="0.99522">
        <ele>126.55</ele>
        <time>2018-05-03T19:23:38Z</time>
      </trkpt>
      <trkpt lat="49.45928" lon="0.99534">
        <ele>126.07</ele>
        <time>2018-05-03T19:23:39Z</time>
      </trkpt>
      <trkpt lat="49.45928" lon="0.99543">
        <ele>126.07</ele>
        <time>2018-05-03T19:23:40Z</time>
      </trkpt>
      <trkpt lat="49.45927" lon="0.99555">
        <ele>126.07</ele>
        <time>2018-05-03T19:23:41Z</time>
      </trkpt>
      <trkpt lat="49.45926" lon="0.99567">
        <ele>126.07</ele>
        <time>2018-05-03T19:23:42Z</time>
      </trkpt>
      <trkpt lat="49.4591" lon="0.99724">
        <ele>125.11</ele>
        <time>2018-05-03T19:23:57Z</time>
      </trkpt>
      <trkpt lat="49.45907" lon="0.99765">
        <ele>124.63</ele>
        <time>2018-05-03T19:24:01Z</time>
      </trkpt>
      <trkpt lat="49.45909" lon="0.99939">
        <ele>123.19</ele>
        <time>2018-05-03T19:24:17Z</time>
      </trkpt>
      <trkpt lat="49.45897" lon="1.00025">
        <ele>123.19</ele>
        <time>2018-05-03T19:24:25Z</time>
      </trkpt>
      <trkpt lat="49.45887" lon="1.00157">
        <ele>121.74</ele>
        <time>2018-05-03T19:24:38Z</time>
      </trkpt>
      <trkpt lat="49.45868" lon="1.00341">
        <ele>119.82</ele>
        <time>2018-05-03T19:24:54Z</time>
      </trkpt>
      <trkpt lat="49.45872" lon="1.00468">
        <ele>116.94</ele>
        <time>2018-05-03T19:25:04Z</time>
      </trkpt>
      <trkpt lat="49.45871" lon="1.00517">
        <ele>115.98</ele>
        <time>2018-05-03T19:25:09Z</time>
      </trkpt>
      <trkpt lat="49.45871" lon="1.00525">
        <ele>115.98</ele>
        <time>2018-05-03T19:25:10Z</time>
      </trkpt>
      <trkpt lat="49.45871" lon="1.00535">
        <ele>115.98</ele>
        <time>2018-05-03T19:25:11Z</time>
      </trkpt>
      <trkpt lat="49.45868" lon="1.00658">
        <ele>113.09</ele>
        <time>2018-05-03T19:25:21Z</time>
      </trkpt>
      <trkpt lat="49.45855" lon="1.00796">
        <ele>109.73</ele>
        <time>2018-05-03T19:25:32Z</time>
      </trkpt>
      <trkpt lat="49.45835" lon="1.00906">
        <ele>106.84</ele>
        <time>2018-05-03T19:25:40Z</time>
      </trkpt>
      <trkpt lat="49.45825" lon="1.00969">
        <ele>106.84</ele>
        <time>2018-05-03T19:25:45Z</time>
      </trkpt>
      <trkpt lat="49.45821" lon="1.00982">
        <ele>106.36</ele>
        <time>2018-05-03T19:25:46Z</time>
      </trkpt>
      <trkpt lat="49.45806" lon="1.01031">
        <ele>107.32</ele>
        <time>2018-05-03T19:25:51Z</time>
      </trkpt>
      <trkpt lat="49.45803" lon="1.01039">
        <ele>107.81</ele>
        <time>2018-05-03T19:25:52Z</time>
      </trkpt>
      <trkpt lat="49.45798" lon="1.01054">
        <ele>108.77</ele>
        <time>2018-05-03T19:25:54Z</time>
      </trkpt>
      <trkpt lat="49.45796" lon="1.01062">
        <ele>109.25</ele>
        <time>2018-05-03T19:25:55Z</time>
      </trkpt>
      <trkpt lat="49.45795" lon="1.01069">
        <ele>109.25</ele>
        <time>2018-05-03T19:25:56Z</time>
      </trkpt>
      <trkpt lat="49.45791" lon="1.0109">
        <ele>110.69</ele>
        <time>2018-05-03T19:25:59Z</time>
      </trkpt>
      <trkpt lat="49.4579" lon="1.01098">
        <ele>111.65</ele>
        <time>2018-05-03T19:26:00Z</time>
      </trkpt>
      <trkpt lat="49.45788" lon="1.01104">
        <ele>111.65</ele>
        <time>2018-05-03T19:26:01Z</time>
      </trkpt>
      <trkpt lat="49.45785" lon="1.01119">
        <ele>112.61</ele>
        <time>2018-05-03T19:26:03Z</time>
      </trkpt>
      <trkpt lat="49.45783" lon="1.01127">
        <ele>113.57</ele>
        <time>2018-05-03T19:26:04Z</time>
      </trkpt>
      <trkpt lat="49.45771" lon="1.01173">
        <ele>115.98</ele>
        <time>2018-05-03T19:26:10Z</time>
      </trkpt>
      <trkpt lat="49.4577" lon="1.01182">
        <ele>116.46</ele>
        <time>2018-05-03T19:26:11Z</time>
      </trkpt>
      <trkpt lat="49.45768" lon="1.01188">
        <ele>116.46</ele>
        <time>2018-05-03T19:26:12Z</time>
      </trkpt>
      <trkpt lat="49.45758" lon="1.01234">
        <ele>118.38</ele>
        <time>2018-05-03T19:26:18Z</time>
      </trkpt>
      <trkpt lat="49.45755" lon="1.01242">
        <ele>118.86</ele>
        <time>2018-05-03T19:26:19Z</time>
      </trkpt>
      <trkpt lat="49.45751" lon="1.01257">
        <ele>118.86</ele>
        <time>2018-05-03T19:26:21Z</time>
      </trkpt>
      <trkpt lat="49.45744" lon="1.01293">
        <ele>119.34</ele>
        <time>2018-05-03T19:26:26Z</time>
      </trkpt>
      <trkpt lat="49.45739" lon="1.01313">
        <ele>119.34</ele>
        <time>2018-05-03T19:26:29Z</time>
      </trkpt>
      <trkpt lat="49.45738" lon="1.0132">
        <ele>119.82</ele>
        <time>2018-05-03T19:26:30Z</time>
      </trkpt>
      <trkpt lat="49.4573" lon="1.01353">
        <ele>120.78</ele>
        <time>2018-05-03T19:26:35Z</time>
      </trkpt>
      <trkpt lat="49.45728" lon="1.01359">
        <ele>120.78</ele>
        <time>2018-05-03T19:26:36Z</time>
      </trkpt>
      <trkpt lat="49.45719" lon="1.01405">
        <ele>121.74</ele>
        <time>2018-05-03T19:26:43Z</time>
      </trkpt>
      <trkpt lat="49.45717" lon="1.01412">
        <ele>121.74</ele>
        <time>2018-05-03T19:26:44Z</time>
      </trkpt>
      <trkpt lat="49.45705" lon="1.01465">
        <ele>122.71</ele>
        <time>2018-05-03T19:26:52Z</time>
      </trkpt>
      <trkpt lat="49.45691" lon="1.01526">
        <ele>123.67</ele>
        <time>2018-05-03T19:27:01Z</time>
      </trkpt>
      <trkpt lat="49.45689" lon="1.01533">
        <ele>123.67</ele>
        <time>2018-05-03T19:27:02Z</time>
      </trkpt>
      <trkpt lat="49.45686" lon="1.01547">
        <ele>124.15</ele>
        <time>2018-05-03T19:27:04Z</time>
      </trkpt>
      <trkpt lat="49.45685" lon="1.01555">
        <ele>124.15</ele>
        <time>2018-05-03T19:27:05Z</time>
      </trkpt>
      <trkpt lat="49.45683" lon="1.01563">
        <ele>124.15</ele>
        <time>2018-05-03T19:27:06Z</time>
      </trkpt>
      <trkpt lat="49.45661" lon="1.01652">
        <ele>126.07</ele>
        <time>2018-05-03T19:27:18Z</time>
      </trkpt>
      <trkpt lat="49.45655" lon="1.01683">
        <ele>126.55</ele>
        <time>2018-05-03T19:27:22Z</time>
      </trkpt>
      <trkpt lat="49.45647" lon="1.01714">
        <ele>127.03</ele>
        <time>2018-05-03T19:27:26Z</time>
      </trkpt>
      <trkpt lat="49.45645" lon="1.01721">
        <ele>127.03</ele>
        <time>2018-05-03T19:27:27Z</time>
      </trkpt>
      <trkpt lat="49.45638" lon="1.01742">
        <ele>127.51</ele>
        <time>2018-05-03T19:27:30Z</time>
      </trkpt>
      <trkpt lat="49.45635" lon="1.01749">
        <ele>127.99</ele>
        <time>2018-05-03T19:27:31Z</time>
      </trkpt>
      <trkpt lat="49.45623" lon="1.01793">
        <ele>128.95</ele>
        <time>2018-05-03T19:27:37Z</time>
      </trkpt>
      <trkpt lat="49.45605" lon="1.01883">
        <ele>130.4</ele>
        <time>2018-05-03T19:27:48Z</time>
      </trkpt>
      <trkpt lat="49.45605" lon="1.01889">
        <ele>129.92</ele>
        <time>2018-05-03T19:27:49Z</time>
      </trkpt>
      <trkpt lat="49.45604" lon="1.01897">
        <ele>129.92</ele>
        <time>2018-05-03T19:27:50Z</time>
      </trkpt>
      <trkpt lat="49.45602" lon="1.01905">
        <ele>129.92</ele>
        <time>2018-05-03T19:27:51Z</time>
      </trkpt>
      <trkpt lat="49.45601" lon="1.01913">
        <ele>129.92</ele>
        <time>2018-05-03T19:27:52Z</time>
      </trkpt>
      <trkpt lat="49.456" lon="1.01921">
        <ele>130.4</ele>
        <time>2018-05-03T19:27:53Z</time>
      </trkpt>
      <trkpt lat="49.45593" lon="1.01961">
        <ele>130.4</ele>
        <time>2018-05-03T19:27:58Z</time>
      </trkpt>
      <trkpt lat="49.45571" lon="1.02068">
        <ele>131.36</ele>
        <time>2018-05-03T19:28:11Z</time>
      </trkpt>
      <trkpt lat="49.45567" lon="1.02084">
        <ele>131.36</ele>
        <time>2018-05-03T19:28:13Z</time>
      </trkpt>
      <trkpt lat="49.45565" lon="1.02092">
        <ele>131.36</ele>
        <time>2018-05-03T19:28:14Z</time>
      </trkpt>
      <trkpt lat="49.45562" lon="1.02101">
        <ele>131.36</ele>
        <time>2018-05-03T19:28:15Z</time>
      </trkpt>
      <trkpt lat="49.45532" lon="1.02225">
        <ele>130.88</ele>
        <time>2018-05-03T19:28:30Z</time>
      </trkpt>
      <trkpt lat="49.45522" lon="1.02267">
        <ele>131.36</ele>
        <time>2018-05-03T19:28:35Z</time>
      </trkpt>
      <trkpt lat="49.4552" lon="1.02276">
        <ele>131.36</ele>
        <time>2018-05-03T19:28:36Z</time>
      </trkpt>
      <trkpt lat="49.45514" lon="1.0231">
        <ele>131.36</ele>
        <time>2018-05-03T19:28:40Z</time>
      </trkpt>
      <trkpt lat="49.4549" lon="1.02422">
        <ele>131.36</ele>
        <time>2018-05-03T19:28:52Z</time>
      </trkpt>
      <trkpt lat="49.45475" lon="1.0249">
        <ele>131.36</ele>
        <time>2018-05-03T19:28:59Z</time>
      </trkpt>
      <trkpt lat="49.45473" lon="1.025">
        <ele>131.36</ele>
        <time>2018-05-03T19:29:00Z</time>
      </trkpt>
      <trkpt lat="49.45458" lon="1.02565">
        <ele>130.88</ele>
        <time>2018-05-03T19:29:07Z</time>
      </trkpt>
      <trkpt lat="49.45456" lon="1.02573">
        <ele>130.88</ele>
        <time>2018-05-03T19:29:08Z</time>
      </trkpt>
      <trkpt lat="49.45447" lon="1.0261">
        <ele>130.88</ele>
        <time>2018-05-03T19:29:12Z</time>
      </trkpt>
      <trkpt lat="49.45445" lon="1.02619">
        <ele>130.88</ele>
        <time>2018-05-03T19:29:13Z</time>
      </trkpt>
      <trkpt lat="49.45435" lon="1.02656">
        <ele>130.88</ele>
        <time>2018-05-03T19:29:17Z</time>
      </trkpt>
      <trkpt lat="49.45433" lon="1.02666">
        <ele>130.88</ele>
        <time>2018-05-03T19:29:18Z</time>
      </trkpt>
      <trkpt lat="49.45409" lon="1.02768">
        <ele>130.88</ele>
        <time>2018-05-03T19:29:29Z</time>
      </trkpt>
      <trkpt lat="49.45401" lon="1.02807">
        <ele>130.88</ele>
        <time>2018-05-03T19:29:33Z</time>
      </trkpt>
      <trkpt lat="49.45378" lon="1.02889">
        <ele>129.43</ele>
        <time>2018-05-03T19:29:42Z</time>
      </trkpt>
      <trkpt lat="49.45341" lon="1.03033">
        <ele>128.95</ele>
        <time>2018-05-03T19:29:57Z</time>
      </trkpt>
      <trkpt lat="49.45314" lon="1.03141">
        <ele>128.47</ele>
        <time>2018-05-03T19:30:09Z</time>
      </trkpt>
      <trkpt lat="49.4531" lon="1.03147">
        <ele>128.47</ele>
        <time>2018-05-03T19:30:10Z</time>
      </trkpt>
      <trkpt lat="49.45305" lon="1.03151">
        <ele>128.47</ele>
        <time>2018-05-03T19:30:11Z</time>
      </trkpt>
      <trkpt lat="49.45297" lon="1.0315">
        <ele>128.47</ele>
        <time>2018-05-03T19:30:13Z</time>
      </trkpt>
      <trkpt lat="49.45289" lon="1.03141">
        <ele>128.47</ele>
        <time>2018-05-03T19:30:14Z</time>
      </trkpt>
      <trkpt lat="49.45284" lon="1.03134">
        <ele>128.47</ele>
        <time>2018-05-03T19:30:15Z</time>
      </trkpt>
      <trkpt lat="49.45281" lon="1.0313">
        <ele>128.47</ele>
        <time>2018-05-03T19:30:16Z</time>
      </trkpt>
      <trkpt lat="49.45276" lon="1.03123">
        <ele>128.47</ele>
        <time>2018-05-03T19:30:17Z</time>
      </trkpt>
      <trkpt lat="49.45203" lon="1.03022">
        <ele>127.03</ele>
        <time>2018-05-03T19:30:32Z</time>
      </trkpt>
      <trkpt lat="49.4516" lon="1.02988">
        <ele>126.55</ele>
        <time>2018-05-03T19:30:39Z</time>
      </trkpt>
      <trkpt lat="49.45065" lon="1.02977">
        <ele>126.07</ele>
        <time>2018-05-03T19:30:52Z</time>
      </trkpt>
      <trkpt lat="49.44961" lon="1.0298">
        <ele>125.11</ele>
        <time>2018-05-03T19:31:06Z</time>
      </trkpt>
      <trkpt lat="49.44914" lon="1.02986">
        <ele>124.63</ele>
        <time>2018-05-03T19:31:12Z</time>
      </trkpt>
      <trkpt lat="49.44906" lon="1.0299">
        <ele>124.63</ele>
        <time>2018-05-03T19:31:13Z</time>
      </trkpt>
      <trkpt lat="49.44899" lon="1.02994">
        <ele>124.63</ele>
        <time>2018-05-03T19:31:14Z</time>
      </trkpt>
      <trkpt lat="49.44814" lon="1.03071">
        <ele>123.67</ele>
        <time>2018-05-03T19:31:27Z</time>
      </trkpt>
      <trkpt lat="49.44732" lon="1.03146">
        <ele>126.07</ele>
        <time>2018-05-03T19:31:42Z</time>
      </trkpt>
      <trkpt lat="49.44727" lon="1.03149">
        <ele>126.07</ele>
        <time>2018-05-03T19:31:43Z</time>
      </trkpt>
      <trkpt lat="49.44712" lon="1.03155">
        <ele>126.55</ele>
        <time>2018-05-03T19:31:46Z</time>
      </trkpt>
      <trkpt lat="49.44705" lon="1.03154">
        <ele>126.55</ele>
        <time>2018-05-03T19:31:47Z</time>
      </trkpt>
      <trkpt lat="49.447" lon="1.03151">
        <ele>126.55</ele>
        <time>2018-05-03T19:31:48Z</time>
      </trkpt>
      <trkpt lat="49.44624" lon="1.03085">
        <ele>126.55</ele>
        <time>2018-05-03T19:32:02Z</time>
      </trkpt>
      <trkpt lat="49.44618" lon="1.0308">
        <ele>126.55</ele>
        <time>2018-05-03T19:32:03Z</time>
      </trkpt>
      <trkpt lat="49.4454" lon="1.03018">
        <ele>125.11</ele>
        <time>2018-05-03T19:32:16Z</time>
      </trkpt>
      <trkpt lat="49.44442" lon="1.02936">
        <ele>123.67</ele>
        <time>2018-05-03T19:32:31Z</time>
      </trkpt>
      <trkpt lat="49.44371" lon="1.02878">
        <ele>121.74</ele>
        <time>2018-05-03T19:32:41Z</time>
      </trkpt>
      <trkpt lat="49.44364" lon="1.02875">
        <ele>121.74</ele>
        <time>2018-05-03T19:32:42Z</time>
      </trkpt>
      <trkpt lat="49.44298" lon="1.02858">
        <ele>120.78</ele>
        <time>2018-05-03T19:32:51Z</time>
      </trkpt>
      <trkpt lat="49.44228" lon="1.02817">
        <ele>118.38</ele>
        <time>2018-05-03T19:33:01Z</time>
      </trkpt>
      <trkpt lat="49.44221" lon="1.0281">
        <ele>118.38</ele>
        <time>2018-05-03T19:33:02Z</time>
      </trkpt>
      <trkpt lat="49.44162" lon="1.02751">
        <ele>116.46</ele>
        <time>2018-05-03T19:33:12Z</time>
      </trkpt>
      <trkpt lat="49.44154" lon="1.02748">
        <ele>116.46</ele>
        <time>2018-05-03T19:33:13Z</time>
      </trkpt>
      <trkpt lat="49.44147" lon="1.02746">
        <ele>116.46</ele>
        <time>2018-05-03T19:33:14Z</time>
      </trkpt>
      <trkpt lat="49.44139" lon="1.02746">
        <ele>115.98</ele>
        <time>2018-05-03T19:33:15Z</time>
      </trkpt>
      <trkpt lat="49.44132" lon="1.02748">
        <ele>115.98</ele>
        <time>2018-05-03T19:33:16Z</time>
      </trkpt>
      <trkpt lat="49.44125" lon="1.0275">
        <ele>115.98</ele>
        <time>2018-05-03T19:33:17Z</time>
      </trkpt>
      <trkpt lat="49.44117" lon="1.02753">
        <ele>115.5</ele>
        <time>2018-05-03T19:33:18Z</time>
      </trkpt>
      <trkpt lat="49.44109" lon="1.02757">
        <ele>115.5</ele>
        <time>2018-05-03T19:33:19Z</time>
      </trkpt>
      <trkpt lat="49.44102" lon="1.02762">
        <ele>115.01</ele>
        <time>2018-05-03T19:33:20Z</time>
      </trkpt>
      <trkpt lat="49.44059" lon="1.02788">
        <ele>113.57</ele>
        <time>2018-05-03T19:33:26Z</time>
      </trkpt>
      <trkpt lat="49.44052" lon="1.0279">
        <ele>113.57</ele>
        <time>2018-05-03T19:33:27Z</time>
      </trkpt>
      <trkpt lat="49.44043" lon="1.0279">
        <ele>113.09</ele>
        <time>2018-05-03T19:33:28Z</time>
      </trkpt>
      <trkpt lat="49.44037" lon="1.02788">
        <ele>113.09</ele>
        <time>2018-05-03T19:33:29Z</time>
      </trkpt>
      <trkpt lat="49.4403" lon="1.02784">
        <ele>112.61</ele>
        <time>2018-05-03T19:33:30Z</time>
      </trkpt>
      <trkpt lat="49.44023" lon="1.02779">
        <ele>111.65</ele>
        <time>2018-05-03T19:33:31Z</time>
      </trkpt>
      <trkpt lat="49.44011" lon="1.02771">
        <ele>111.17</ele>
        <time>2018-05-03T19:33:33Z</time>
      </trkpt>
      <trkpt lat="49.44006" lon="1.0277">
        <ele>110.69</ele>
        <time>2018-05-03T19:33:34Z</time>
      </trkpt>
      <trkpt lat="49.44001" lon="1.02775">
        <ele>110.69</ele>
        <time>2018-05-03T19:33:35Z</time>
      </trkpt>
      <trkpt lat="49.43997" lon="1.02783">
        <ele>110.21</ele>
        <time>2018-05-03T19:33:36Z</time>
      </trkpt>
      <trkpt lat="49.43995" lon="1.02793">
        <ele>109.73</ele>
        <time>2018-05-03T19:33:37Z</time>
      </trkpt>
      <trkpt lat="49.43995" lon="1.02798">
        <ele>109.25</ele>
        <time>2018-05-03T19:33:38Z</time>
      </trkpt>
      <trkpt lat="49.43996" lon="1.02807">
        <ele>109.25</ele>
        <time>2018-05-03T19:33:39Z</time>
      </trkpt>
      <trkpt lat="49.43998" lon="1.02816">
        <ele>108.77</ele>
        <time>2018-05-03T19:33:40Z</time>
      </trkpt>
      <trkpt lat="49.44019" lon="1.02872">
        <ele>106.36</ele>
        <time>2018-05-03T19:33:46Z</time>
      </trkpt>
      <trkpt lat="49.44024" lon="1.02881">
        <ele>105.88</ele>
        <time>2018-05-03T19:33:47Z</time>
      </trkpt>
      <trkpt lat="49.44073" lon="1.02948">
        <ele>102.04</ele>
        <time>2018-05-03T19:33:55Z</time>
      </trkpt>
      <trkpt lat="49.44119" lon="1.03009">
        <ele>98.67</ele>
        <time>2018-05-03T19:34:02Z</time>
      </trkpt>
      <trkpt lat="49.44166" lon="1.03055">
        <ele>95.79</ele>
        <time>2018-05-03T19:34:08Z</time>
      </trkpt>
      <trkpt lat="49.44181" lon="1.03072">
        <ele>95.31</ele>
        <time>2018-05-03T19:34:10Z</time>
      </trkpt>
      <trkpt lat="49.44187" lon="1.03082">
        <ele>94.35</ele>
        <time>2018-05-03T19:34:11Z</time>
      </trkpt>
      <trkpt lat="49.44193" lon="1.03093">
        <ele>93.87</ele>
        <time>2018-05-03T19:34:12Z</time>
      </trkpt>
      <trkpt lat="49.44197" lon="1.03107">
        <ele>92.9</ele>
        <time>2018-05-03T19:34:13Z</time>
      </trkpt>
      <trkpt lat="49.442" lon="1.03121">
        <ele>92.9</ele>
        <time>2018-05-03T19:34:14Z</time>
      </trkpt>
      <trkpt lat="49.44201" lon="1.03137">
        <ele>91.94</ele>
        <time>2018-05-03T19:34:15Z</time>
      </trkpt>
      <trkpt lat="49.44201" lon="1.0315">
        <ele>91.46</ele>
        <time>2018-05-03T19:34:16Z</time>
      </trkpt>
      <trkpt lat="49.44198" lon="1.03166">
        <ele>90.98</ele>
        <time>2018-05-03T19:34:17Z</time>
      </trkpt>
      <trkpt lat="49.44194" lon="1.03177">
        <ele>90.02</ele>
        <time>2018-05-03T19:34:18Z</time>
      </trkpt>
      <trkpt lat="49.44187" lon="1.03191">
        <ele>89.54</ele>
        <time>2018-05-03T19:34:19Z</time>
      </trkpt>
      <trkpt lat="49.44181" lon="1.032">
        <ele>89.06</ele>
        <time>2018-05-03T19:34:20Z</time>
      </trkpt>
      <trkpt lat="49.44173" lon="1.03212">
        <ele>88.58</ele>
        <time>2018-05-03T19:34:21Z</time>
      </trkpt>
      <trkpt lat="49.44168" lon="1.0322">
        <ele>88.58</ele>
        <time>2018-05-03T19:34:22Z</time>
      </trkpt>
      <trkpt lat="49.44143" lon="1.03265">
        <ele>86.18</ele>
        <time>2018-05-03T19:34:26Z</time>
      </trkpt>
      <trkpt lat="49.44139" lon="1.03276">
        <ele>85.21</ele>
        <time>2018-05-03T19:34:27Z</time>
      </trkpt>
      <trkpt lat="49.44134" lon="1.03294">
        <ele>84.73</ele>
        <time>2018-05-03T19:34:28Z</time>
      </trkpt>
      <trkpt lat="49.44132" lon="1.03305">
        <ele>84.25</ele>
        <time>2018-05-03T19:34:29Z</time>
      </trkpt>
      <trkpt lat="49.4413" lon="1.0332">
        <ele>83.77</ele>
        <time>2018-05-03T19:34:30Z</time>
      </trkpt>
      <trkpt lat="49.44129" lon="1.03335">
        <ele>83.29</ele>
        <time>2018-05-03T19:34:31Z</time>
      </trkpt>
      <trkpt lat="49.4413" lon="1.0335">
        <ele>82.33</ele>
        <time>2018-05-03T19:34:32Z</time>
      </trkpt>
      <trkpt lat="49.44131" lon="1.03365">
        <ele>81.37</ele>
        <time>2018-05-03T19:34:33Z</time>
      </trkpt>
      <trkpt lat="49.44134" lon="1.03379">
        <ele>80.41</ele>
        <time>2018-05-03T19:34:34Z</time>
      </trkpt>
      <trkpt lat="49.44138" lon="1.03394">
        <ele>79.93</ele>
        <time>2018-05-03T19:34:35Z</time>
      </trkpt>
      <trkpt lat="49.44143" lon="1.03408">
        <ele>79.45</ele>
        <time>2018-05-03T19:34:36Z</time>
      </trkpt>
      <trkpt lat="49.44149" lon="1.03421">
        <ele>78.48</ele>
        <time>2018-05-03T19:34:37Z</time>
      </trkpt>
      <trkpt lat="49.44156" lon="1.03434">
        <ele>78</ele>
        <time>2018-05-03T19:34:38Z</time>
      </trkpt>
      <trkpt lat="49.44187" lon="1.03486">
        <ele>74.64</ele>
        <time>2018-05-03T19:34:42Z</time>
      </trkpt>
      <trkpt lat="49.44217" lon="1.03539">
        <ele>70.79</ele>
        <time>2018-05-03T19:34:46Z</time>
      </trkpt>
      <trkpt lat="49.44247" lon="1.03595">
        <ele>66.95</ele>
        <time>2018-05-03T19:34:50Z</time>
      </trkpt>
      <trkpt lat="49.44278" lon="1.0365">
        <ele>64.07</ele>
        <time>2018-05-03T19:34:54Z</time>
      </trkpt>
      <trkpt lat="49.44309" lon="1.03707">
        <ele>60.22</ele>
        <time>2018-05-03T19:34:58Z</time>
      </trkpt>
      <trkpt lat="49.44339" lon="1.03764">
        <ele>56.86</ele>
        <time>2018-05-03T19:35:02Z</time>
      </trkpt>
      <trkpt lat="49.44363" lon="1.03829">
        <ele>53.97</ele>
        <time>2018-05-03T19:35:06Z</time>
      </trkpt>
      <trkpt lat="49.44386" lon="1.03913">
        <ele>50.61</ele>
        <time>2018-05-03T19:35:11Z</time>
      </trkpt>
      <trkpt lat="49.44405" lon="1.03979">
        <ele>47.24</ele>
        <time>2018-05-03T19:35:15Z</time>
      </trkpt>
      <trkpt lat="49.44423" lon="1.04045">
        <ele>45.32</ele>
        <time>2018-05-03T19:35:19Z</time>
      </trkpt>
      <trkpt lat="49.44447" lon="1.04125">
        <ele>41.95</ele>
        <time>2018-05-03T19:35:24Z</time>
      </trkpt>
      <trkpt lat="49.4448" lon="1.04192">
        <ele>38.59</ele>
        <time>2018-05-03T19:35:29Z</time>
      </trkpt>
      <trkpt lat="49.44518" lon="1.04252">
        <ele>35.23</ele>
        <time>2018-05-03T19:35:34Z</time>
      </trkpt>
      <trkpt lat="49.44556" lon="1.04313">
        <ele>32.34</ele>
        <time>2018-05-03T19:35:39Z</time>
      </trkpt>
      <trkpt lat="49.44593" lon="1.04372">
        <ele>29.46</ele>
        <time>2018-05-03T19:35:44Z</time>
      </trkpt>
      <trkpt lat="49.44622" lon="1.04418">
        <ele>27.53</ele>
        <time>2018-05-03T19:35:48Z</time>
      </trkpt>
      <trkpt lat="49.44659" lon="1.04474">
        <ele>24.17</ele>
        <time>2018-05-03T19:35:53Z</time>
      </trkpt>
      <trkpt lat="49.44708" lon="1.04532">
        <ele>20.81</ele>
        <time>2018-05-03T19:35:59Z</time>
      </trkpt>
      <trkpt lat="49.4475" lon="1.04581">
        <ele>17.92</ele>
        <time>2018-05-03T19:36:04Z</time>
      </trkpt>
      <trkpt lat="49.44798" lon="1.04638">
        <ele>14.56</ele>
        <time>2018-05-03T19:36:10Z</time>
      </trkpt>
      <trkpt lat="49.44844" lon="1.04694">
        <ele>11.19</ele>
        <time>2018-05-03T19:36:16Z</time>
      </trkpt>
      <trkpt lat="49.4486" lon="1.04713">
        <ele>10.23</ele>
        <time>2018-05-03T19:36:18Z</time>
      </trkpt>
      <trkpt lat="49.4488" lon="1.04736">
        <ele>8.31</ele>
        <time>2018-05-03T19:36:21Z</time>
      </trkpt>
      <trkpt lat="49.449" lon="1.04759">
        <ele>6.87</ele>
        <time>2018-05-03T19:36:24Z</time>
      </trkpt>
      <trkpt lat="49.44905" lon="1.04768">
        <ele>6.39</ele>
        <time>2018-05-03T19:36:25Z</time>
      </trkpt>
      <trkpt lat="49.4491" lon="1.04778">
        <ele>5.42</ele>
        <time>2018-05-03T19:36:26Z</time>
      </trkpt>
      <trkpt lat="49.44914" lon="1.04789">
        <ele>5.42</ele>
        <time>2018-05-03T19:36:27Z</time>
      </trkpt>
      <trkpt lat="49.44922" lon="1.04814">
        <ele>4.46</ele>
        <time>2018-05-03T19:36:29Z</time>
      </trkpt>
      <trkpt lat="49.44924" lon="1.04825">
        <ele>3.98</ele>
        <time>2018-05-03T19:36:30Z</time>
      </trkpt>
      <trkpt lat="49.44948" lon="1.04954">
        <ele>3.02</ele>
        <time>2018-05-03T19:36:42Z</time>
      </trkpt>
      <trkpt lat="49.44953" lon="1.04987">
        <ele>3.5</ele>
        <time>2018-05-03T19:36:46Z</time>
      </trkpt>
      <trkpt lat="49.44953" lon="1.04993">
        <ele>3.5</ele>
        <time>2018-05-03T19:36:47Z</time>
      </trkpt>
      <trkpt lat="49.44954" lon="1.05">
        <ele>3.5</ele>
        <time>2018-05-03T19:36:48Z</time>
      </trkpt>
      <trkpt lat="49.44962" lon="1.05054">
        <ele>3.5</ele>
        <time>2018-05-03T19:36:55Z</time>
      </trkpt>
      <trkpt lat="49.44961" lon="1.05063">
        <ele>3.5</ele>
        <time>2018-05-03T19:36:56Z</time>
      </trkpt>
      <trkpt lat="49.4496" lon="1.05073">
        <ele>3.5</ele>
        <time>2018-05-03T19:36:57Z</time>
      </trkpt>
      <trkpt lat="49.44961" lon="1.05082">
        <ele>3.5</ele>
        <time>2018-05-03T19:36:58Z</time>
      </trkpt>
      <trkpt lat="49.44964" lon="1.05091">
        <ele>3.5</ele>
        <time>2018-05-03T19:36:59Z</time>
      </trkpt>
      <trkpt lat="49.44968" lon="1.051">
        <ele>4.46</ele>
        <time>2018-05-03T19:37:00Z</time>
      </trkpt>
      <trkpt lat="49.44971" lon="1.05112">
        <ele>4.46</ele>
        <time>2018-05-03T19:37:01Z</time>
      </trkpt>
      <trkpt lat="49.45" lon="1.05252">
        <ele>4.46</ele>
        <time>2018-05-03T19:37:14Z</time>
      </trkpt>
      <trkpt lat="49.45032" lon="1.05423">
        <ele>4.46</ele>
        <time>2018-05-03T19:37:30Z</time>
      </trkpt>
      <trkpt lat="49.45061" lon="1.0558">
        <ele>6.87</ele>
        <time>2018-05-03T19:37:45Z</time>
      </trkpt>
      <trkpt lat="49.45066" lon="1.05706">
        <ele>8.31</ele>
        <time>2018-05-03T19:37:58Z</time>
      </trkpt>
      <trkpt lat="49.45062" lon="1.05731">
        <ele>8.31</ele>
        <time>2018-05-03T19:38:01Z</time>
      </trkpt>
      <trkpt lat="49.45061" lon="1.05738">
        <ele>8.31</ele>
        <time>2018-05-03T19:38:02Z</time>
      </trkpt>
      <trkpt lat="49.45042" lon="1.05794">
        <ele>8.31</ele>
        <time>2018-05-03T19:38:08Z</time>
      </trkpt>
      <trkpt lat="49.44969" lon="1.05886">
        <ele>4.94</ele>
        <time>2018-05-03T19:38:19Z</time>
      </trkpt>
      <trkpt lat="49.44853" lon="1.05969">
        <ele>3.02</ele>
        <time>2018-05-03T19:38:33Z</time>
      </trkpt>
      <trkpt lat="49.44742" lon="1.06011">
        <ele>3.02</ele>
        <time>2018-05-03T19:38:46Z</time>
      </trkpt>
      <trkpt lat="49.44631" lon="1.06109">
        <ele>3.02</ele>
        <time>2018-05-03T19:39:01Z</time>
      </trkpt>
      <trkpt lat="49.44523" lon="1.06234">
        <ele>3.02</ele>
        <time>2018-05-03T19:39:17Z</time>
      </trkpt>
      <trkpt lat="49.44511" lon="1.06268">
        <ele>3.02</ele>
        <time>2018-05-03T19:39:20Z</time>
      </trkpt>
      <trkpt lat="49.44506" lon="1.06292">
        <ele>3.02</ele>
        <time>2018-05-03T19:39:22Z</time>
      </trkpt>
      <trkpt lat="49.44504" lon="1.06304">
        <ele>3.02</ele>
        <time>2018-05-03T19:39:23Z</time>
      </trkpt>
      <trkpt lat="49.44503" lon="1.06316">
        <ele>3.02</ele>
        <time>2018-05-03T19:39:24Z</time>
      </trkpt>
      <trkpt lat="49.44501" lon="1.06365">
        <ele>3.02</ele>
        <time>2018-05-03T19:39:29Z</time>
      </trkpt>
      <trkpt lat="49.44501" lon="1.06371">
        <ele>3.02</ele>
        <time>2018-05-03T19:39:30Z</time>
      </trkpt>
      <trkpt lat="49.44499" lon="1.06374">
        <ele>3.02</ele>
        <time>2018-05-03T19:39:31Z</time>
      </trkpt>
      <trkpt lat="49.44496" lon="1.06378">
        <ele>3.02</ele>
        <time>2018-05-03T19:39:32Z</time>
      </trkpt>
      <trkpt lat="49.44493" lon="1.06381">
        <ele>3.02</ele>
        <time>2018-05-03T19:39:33Z</time>
      </trkpt>
      <trkpt lat="49.4449" lon="1.06383">
        <ele>3.02</ele>
        <time>2018-05-03T19:39:34Z</time>
      </trkpt>
      <trkpt lat="49.44482" lon="1.06387">
        <ele>2.54</ele>
        <time>2018-05-03T19:39:36Z</time>
      </trkpt>
      <trkpt lat="49.44478" lon="1.06389">
        <ele>2.54</ele>
        <time>2018-05-03T19:39:37Z</time>
      </trkpt>
      <trkpt lat="49.44467" lon="1.06396">
        <ele>1.58</ele>
        <time>2018-05-03T19:39:39Z</time>
      </trkpt>
      <trkpt lat="49.44462" lon="1.06401">
        <ele>1.58</ele>
        <time>2018-05-03T19:39:40Z</time>
      </trkpt>
      <trkpt lat="49.44458" lon="1.06406">
        <ele>1.58</ele>
        <time>2018-05-03T19:39:41Z</time>
      </trkpt>
      <trkpt lat="49.44452" lon="1.06457">
        <ele>1.1</ele>
        <time>2018-05-03T19:39:47Z</time>
      </trkpt>
      <trkpt lat="49.44445" lon="1.0663">
        <ele>1.58</ele>
        <time>2018-05-03T19:40:04Z</time>
      </trkpt>
      <trkpt lat="49.44428" lon="1.06795">
        <ele>1.58</ele>
        <time>2018-05-03T19:40:19Z</time>
      </trkpt>
      <trkpt lat="49.44399" lon="1.06964">
        <ele>1.58</ele>
        <time>2018-05-03T19:40:35Z</time>
      </trkpt>
      <trkpt lat="49.44361" lon="1.07126">
        <ele>1.1</ele>
        <time>2018-05-03T19:40:50Z</time>
      </trkpt>
      <trkpt lat="49.44343" lon="1.07203">
        <ele>1.1</ele>
        <time>2018-05-03T19:40:58Z</time>
      </trkpt>
      <trkpt lat="49.44302" lon="1.07346">
        <ele>1.1</ele>
        <time>2018-05-03T19:41:12Z</time>
      </trkpt>
      <trkpt lat="49.44251" lon="1.07516">
        <ele>1.1</ele>
        <time>2018-05-03T19:41:28Z</time>
      </trkpt>
      <trkpt lat="49.4423" lon="1.07591">
        <ele>1.58</ele>
        <time>2018-05-03T19:41:35Z</time>
      </trkpt>
      <trkpt lat="49.44228" lon="1.07601">
        <ele>1.58</ele>
        <time>2018-05-03T19:41:36Z</time>
      </trkpt>
      <trkpt lat="49.44228" lon="1.07609">
        <ele>1.58</ele>
        <time>2018-05-03T19:41:37Z</time>
      </trkpt>
      <trkpt lat="49.4423" lon="1.07615">
        <ele>1.58</ele>
        <time>2018-05-03T19:41:38Z</time>
      </trkpt>
      <trkpt lat="49.44232" lon="1.07621">
        <ele>1.58</ele>
        <time>2018-05-03T19:41:39Z</time>
      </trkpt>
      <trkpt lat="49.44236" lon="1.07624">
        <ele>1.58</ele>
        <time>2018-05-03T19:41:40Z</time>
      </trkpt>
      <trkpt lat="49.44242" lon="1.07626">
        <ele>1.58</ele>
        <time>2018-05-03T19:41:41Z</time>
      </trkpt>
      <trkpt lat="49.44246" lon="1.07631">
        <ele>1.58</ele>
        <time>2018-05-03T19:41:42Z</time>
      </trkpt>
      <trkpt lat="49.44248" lon="1.07637">
        <ele>1.58</ele>
        <time>2018-05-03T19:41:43Z</time>
      </trkpt>
      <trkpt lat="49.44248" lon="1.07643">
        <ele>1.58</ele>
        <time>2018-05-03T19:41:44Z</time>
      </trkpt>
      <trkpt lat="49.44247" lon="1.0765">
        <ele>1.58</ele>
        <time>2018-05-03T19:41:45Z</time>
      </trkpt>
      <trkpt lat="49.44246" lon="1.07657">
        <ele>1.58</ele>
        <time>2018-05-03T19:41:46Z</time>
      </trkpt>
      <trkpt lat="49.44242" lon="1.07671">
        <ele>1.58</ele>
        <time>2018-05-03T19:41:48Z</time>
      </trkpt>
      <trkpt lat="49.4424" lon="1.0768">
        <ele>1.58</ele>
        <time>2018-05-03T19:41:49Z</time>
      </trkpt>
      <trkpt lat="49.44237" lon="1.07687">
        <ele>1.58</ele>
        <time>2018-05-03T19:41:50Z</time>
      </trkpt>
      <trkpt lat="49.44233" lon="1.07693">
        <ele>1.58</ele>
        <time>2018-05-03T19:41:51Z</time>
      </trkpt>
      <trkpt lat="49.4423" lon="1.077">
        <ele>1.58</ele>
        <time>2018-05-03T19:41:52Z</time>
      </trkpt>
      <trkpt lat="49.44221" lon="1.0772">
        <ele>1.58</ele>
        <time>2018-05-03T19:41:55Z</time>
      </trkpt>
      <trkpt lat="49.44219" lon="1.07727">
        <ele>1.58</ele>
        <time>2018-05-03T19:41:56Z</time>
      </trkpt>
      <trkpt lat="49.44219" lon="1.07732">
        <ele>1.58</ele>
        <time>2018-05-03T19:41:57Z</time>
      </trkpt>
      <trkpt lat="49.44222" lon="1.07734">
        <ele>1.58</ele>
        <time>2018-05-03T19:41:58Z</time>
      </trkpt>
      <trkpt lat="49.44224" lon="1.07733">
        <ele>1.58</ele>
        <time>2018-05-03T19:41:59Z</time>
      </trkpt>
      <trkpt lat="49.44225" lon="1.0773">
        <ele>1.58</ele>
        <time>2018-05-03T19:42:00Z</time>
      </trkpt>
      <trkpt lat="49.44226" lon="1.07728">
        <ele>1.58</ele>
        <time>2018-05-03T19:42:01Z</time>
      </trkpt>
      <trkpt lat="49.44227" lon="1.07727">
        <ele>1.58</ele>
        <time>2018-05-03T19:42:02Z</time>
      </trkpt>
      <trkpt lat="49.44228" lon="1.07728">
        <ele>1.58</ele>
        <time>2018-05-03T19:42:03Z</time>
      </trkpt>
      <trkpt lat="49.44229" lon="1.07728">
        <ele>1.58</ele>
        <time>2018-05-03T19:42:04Z</time>
      </trkpt>
      <trkpt lat="49.44231" lon="1.07728">
        <ele>1.58</ele>
        <time>2018-05-03T19:42:05Z</time>
      </trkpt>
      <trkpt lat="49.44231" lon="1.0773">
        <ele>1.58</ele>
        <time>2018-05-03T19:42:06Z</time>
      </trkpt>
      <trkpt lat="49.44232" lon="1.07732">
        <ele>1.58</ele>
        <time>2018-05-03T19:42:07Z</time>
      </trkpt>
      <trkpt lat="49.44233" lon="1.07733">
        <ele>1.58</ele>
        <time>2018-05-03T19:42:08Z</time>
      </trkpt>
      <trkpt lat="49.44235" lon="1.07734">
        <ele>1.58</ele>
        <time>2018-05-03T19:42:09Z</time>
      </trkpt>
      <trkpt lat="49.44238" lon="1.07736">
        <ele>1.58</ele>
        <time>2018-05-03T19:42:10Z</time>
      </trkpt>
      <trkpt lat="49.44249" lon="1.07743">
        <ele>2.54</ele>
        <time>2018-05-03T19:42:13Z</time>
      </trkpt>
      <trkpt lat="49.44266" lon="1.07758">
        <ele>2.54</ele>
        <time>2018-05-03T19:42:17Z</time>
      </trkpt>
      <trkpt lat="49.4427" lon="1.07762">
        <ele>2.54</ele>
        <time>2018-05-03T19:42:18Z</time>
      </trkpt>
      <trkpt lat="49.44294" lon="1.07782">
        <ele>1.58</ele>
        <time>2018-05-03T19:42:28Z</time>
      </trkpt>
      <trkpt lat="49.44295" lon="1.07784">
        <ele>1.58</ele>
        <time>2018-05-03T19:42:33Z</time>
      </trkpt>
      <trkpt lat="49.44297" lon="1.07785">
        <ele>1.58</ele>
        <time>2018-05-03T19:42:34Z</time>
      </trkpt>
      <trkpt lat="49.44298" lon="1.07787">
        <ele>1.58</ele>
        <time>2018-05-03T19:42:35Z</time>
      </trkpt>
      <trkpt lat="49.443" lon="1.07789">
        <ele>1.58</ele>
        <time>2018-05-03T19:42:36Z</time>
      </trkpt>
      <trkpt lat="49.44303" lon="1.07791">
        <ele>1.58</ele>
        <time>2018-05-03T19:42:37Z</time>
      </trkpt>
      <trkpt lat="49.44305" lon="1.07794">
        <ele>1.58</ele>
        <time>2018-05-03T19:42:38Z</time>
      </trkpt>
      <trkpt lat="49.44306" lon="1.07796">
        <ele>1.58</ele>
        <time>2018-05-03T19:42:39Z</time>
      </trkpt>
      <trkpt lat="49.44307" lon="1.07798">
        <ele>1.58</ele>
        <time>2018-05-03T19:42:40Z</time>
      </trkpt>
      <trkpt lat="49.44308" lon="1.078">
        <ele>1.58</ele>
        <time>2018-05-03T19:42:42Z</time>
      </trkpt>
      <trkpt lat="49.44309" lon="1.07802">
        <ele>1.58</ele>
        <time>2018-05-03T19:42:43Z</time>
      </trkpt>
      <trkpt lat="49.44311" lon="1.07804">
        <ele>1.58</ele>
        <time>2018-05-03T19:42:44Z</time>
      </trkpt>
      <trkpt lat="49.44315" lon="1.07806">
        <ele>1.58</ele>
        <time>2018-05-03T19:42:45Z</time>
      </trkpt>
      <trkpt lat="49.44318" lon="1.07809">
        <ele>1.58</ele>
        <time>2018-05-03T19:42:46Z</time>
      </trkpt>
      <trkpt lat="49.44322" lon="1.07813">
        <ele>1.58</ele>
        <time>2018-05-03T19:42:47Z</time>
      </trkpt>
      <trkpt lat="49.44326" lon="1.07816">
        <ele>1.58</ele>
        <time>2018-05-03T19:42:48Z</time>
      </trkpt>
      <trkpt lat="49.4433" lon="1.07819">
        <ele>1.58</ele>
        <time>2018-05-03T19:42:49Z</time>
      </trkpt>
    </trkseg>
  </trk>
</gpx>